<?xml version="1.0" encoding="UTF-8" standalone="no" ?>
<gpx xmlns="http://www.topografix.com/GPX/1/1" xmlns:xsi="http://www.w3.org/2001/XMLSchema-instance" xsi:schemaLocation="http://www.topografix.com/GPX/1/1 http://www.topografix.com/GPX/1/1/gpx.xsd" version="1.1" creator="VisuGPX - https://www.visugpx.com">
  <metadata>
    <name>Rando du père Noël </name>
  </metadata>
  <trk>
    <name><![CDATA[Rando du père Noël ]]></name>
    <trkseg>
      <trkpt lat="50.97125" lon="2.32127">
        <ele>2</ele>
        <time>2019-11-26T08:04:29.000Z</time>
      </trkpt>
      <trkpt lat="50.97127" lon="2.32125">
        <ele>2</ele>
        <time>2019-11-26T08:04:30.000Z</time>
      </trkpt>
      <trkpt lat="50.97129" lon="2.32123">
        <ele>2</ele>
        <time>2019-11-26T08:04:31.000Z</time>
      </trkpt>
      <trkpt lat="50.97132" lon="2.32122">
        <ele>2</ele>
        <time>2019-11-26T08:04:32.000Z</time>
      </trkpt>
      <trkpt lat="50.97134" lon="2.3212">
        <ele>2</ele>
        <time>2019-11-26T08:04:33.000Z</time>
      </trkpt>
      <trkpt lat="50.97139" lon="2.32116">
        <ele>2</ele>
        <time>2019-11-26T08:04:35.000Z</time>
      </trkpt>
      <trkpt lat="50.97146" lon="2.32112">
        <ele>2</ele>
        <time>2019-11-26T08:04:37.000Z</time>
      </trkpt>
      <trkpt lat="50.97155" lon="2.32107">
        <ele>2</ele>
        <time>2019-11-26T08:04:40.000Z</time>
      </trkpt>
      <trkpt lat="50.97165" lon="2.32131">
        <ele>2</ele>
        <time>2019-11-26T08:04:45.000Z</time>
      </trkpt>
      <trkpt lat="50.97172" lon="2.32187">
        <ele>2</ele>
        <time>2019-11-26T08:04:53.000Z</time>
      </trkpt>
      <trkpt lat="50.97175" lon="2.32216">
        <ele>2</ele>
        <time>2019-11-26T08:04:57.000Z</time>
      </trkpt>
      <trkpt lat="50.97185" lon="2.32291">
        <ele>2</ele>
        <time>2019-11-26T08:05:07.000Z</time>
      </trkpt>
      <trkpt lat="50.97202" lon="2.32376">
        <ele>2</ele>
        <time>2019-11-26T08:05:18.000Z</time>
      </trkpt>
      <trkpt lat="50.97214" lon="2.32446">
        <ele>1</ele>
        <time>2019-11-26T08:05:27.000Z</time>
      </trkpt>
      <trkpt lat="50.97227" lon="2.32509">
        <ele>1</ele>
        <time>2019-11-26T08:05:35.000Z</time>
      </trkpt>
      <trkpt lat="50.97259" lon="2.32522">
        <ele>1</ele>
        <time>2019-11-26T08:05:42.000Z</time>
      </trkpt>
      <trkpt lat="50.97284" lon="2.32509">
        <ele>1</ele>
        <time>2019-11-26T08:05:47.000Z</time>
      </trkpt>
      <trkpt lat="50.97294" lon="2.32502">
        <ele>1</ele>
        <time>2019-11-26T08:05:49.000Z</time>
      </trkpt>
      <trkpt lat="50.97307" lon="2.32489">
        <ele>1</ele>
        <time>2019-11-26T08:05:52.000Z</time>
      </trkpt>
      <trkpt lat="50.97328" lon="2.3248">
        <ele>1</ele>
        <time>2019-11-26T08:05:56.000Z</time>
      </trkpt>
      <trkpt lat="50.97381" lon="2.32468">
        <ele>1</ele>
        <time>2019-11-26T08:06:06.000Z</time>
      </trkpt>
      <trkpt lat="50.97387" lon="2.32466">
        <ele>1</ele>
        <time>2019-11-26T08:06:07.000Z</time>
      </trkpt>
      <trkpt lat="50.97402" lon="2.32461">
        <ele>1</ele>
        <time>2019-11-26T08:06:10.000Z</time>
      </trkpt>
      <trkpt lat="50.97407" lon="2.32461">
        <ele>1</ele>
        <time>2019-11-26T08:06:11.000Z</time>
      </trkpt>
      <trkpt lat="50.97424" lon="2.32489">
        <ele>2.1</ele>
        <time>2019-11-26T08:06:16.000Z</time>
      </trkpt>
      <trkpt lat="50.97434" lon="2.32519">
        <ele>1.6</ele>
        <time>2019-11-26T08:06:20.000Z</time>
      </trkpt>
      <trkpt lat="50.97455" lon="2.3257">
        <ele>1.8</ele>
        <time>2019-11-26T08:06:27.000Z</time>
      </trkpt>
      <trkpt lat="50.97486" lon="2.32646">
        <ele>1.9</ele>
        <time>2019-11-26T08:06:37.000Z</time>
      </trkpt>
      <trkpt lat="50.97499" lon="2.32675">
        <ele>1.3</ele>
        <time>2019-11-26T08:06:41.000Z</time>
      </trkpt>
      <trkpt lat="50.97528" lon="2.32668">
        <ele>2</ele>
        <time>2019-11-26T08:06:47.000Z</time>
      </trkpt>
      <trkpt lat="50.97583" lon="2.32635">
        <ele>2</ele>
        <time>2019-11-26T08:06:56.000Z</time>
      </trkpt>
      <trkpt lat="50.97634" lon="2.32605">
        <ele>2</ele>
        <time>2019-11-26T08:07:04.000Z</time>
      </trkpt>
      <trkpt lat="50.97682" lon="2.32573">
        <ele>1.8</ele>
        <time>2019-11-26T08:07:12.000Z</time>
      </trkpt>
      <trkpt lat="50.97694" lon="2.32565">
        <ele>1.4</ele>
        <time>2019-11-26T08:07:14.000Z</time>
      </trkpt>
      <trkpt lat="50.97743" lon="2.32534">
        <ele>2</ele>
        <time>2019-11-26T08:07:22.000Z</time>
      </trkpt>
      <trkpt lat="50.97777" lon="2.32507">
        <ele>1.3</ele>
        <time>2019-11-26T08:07:28.000Z</time>
      </trkpt>
      <trkpt lat="50.97829" lon="2.32466">
        <ele>2</ele>
        <time>2019-11-26T08:07:37.000Z</time>
      </trkpt>
      <trkpt lat="50.97882" lon="2.32423">
        <ele>1</ele>
        <time>2019-11-26T08:07:46.000Z</time>
      </trkpt>
      <trkpt lat="50.97935" lon="2.32382">
        <ele>2</ele>
        <time>2019-11-26T08:07:55.000Z</time>
      </trkpt>
      <trkpt lat="50.97988" lon="2.32364">
        <ele>2</ele>
        <time>2019-11-26T08:08:03.000Z</time>
      </trkpt>
      <trkpt lat="50.98041" lon="2.32342">
        <ele>2</ele>
        <time>2019-11-26T08:08:11.000Z</time>
      </trkpt>
      <trkpt lat="50.9809" lon="2.3231">
        <ele>2</ele>
        <time>2019-11-26T08:08:19.000Z</time>
      </trkpt>
      <trkpt lat="50.98115" lon="2.32293">
        <ele>2</ele>
        <time>2019-11-26T08:08:23.000Z</time>
      </trkpt>
      <trkpt lat="50.98146" lon="2.32274">
        <ele>2</ele>
        <time>2019-11-26T08:08:28.000Z</time>
      </trkpt>
      <trkpt lat="50.98197" lon="2.32244">
        <ele>1</ele>
        <time>2019-11-26T08:08:36.000Z</time>
      </trkpt>
      <trkpt lat="50.98248" lon="2.32212">
        <ele>1</ele>
        <time>2019-11-26T08:08:44.000Z</time>
      </trkpt>
      <trkpt lat="50.98298" lon="2.32178">
        <ele>1</ele>
        <time>2019-11-26T08:08:52.000Z</time>
      </trkpt>
      <trkpt lat="50.98317" lon="2.32166">
        <ele>2</ele>
        <time>2019-11-26T08:08:55.000Z</time>
      </trkpt>
      <trkpt lat="50.98362" lon="2.32175">
        <ele>2</ele>
        <time>2019-11-26T08:09:02.000Z</time>
      </trkpt>
      <trkpt lat="50.98369" lon="2.32178">
        <ele>2</ele>
        <time>2019-11-26T08:09:03.000Z</time>
      </trkpt>
      <trkpt lat="50.98423" lon="2.32194">
        <ele>2</ele>
        <time>2019-11-26T08:09:11.000Z</time>
      </trkpt>
      <trkpt lat="50.98479" lon="2.32207">
        <ele>2</ele>
        <time>2019-11-26T08:09:19.000Z</time>
      </trkpt>
      <trkpt lat="50.98499" lon="2.32216">
        <ele>2</ele>
        <time>2019-11-26T08:09:22.000Z</time>
      </trkpt>
      <trkpt lat="50.9852" lon="2.32243">
        <ele>2</ele>
        <time>2019-11-26T08:09:26.000Z</time>
      </trkpt>
      <trkpt lat="50.98533" lon="2.32265">
        <ele>1</ele>
        <time>2019-11-26T08:09:29.000Z</time>
      </trkpt>
      <trkpt lat="50.98559" lon="2.32264">
        <ele>1</ele>
        <time>2019-11-26T08:09:34.000Z</time>
      </trkpt>
      <trkpt lat="50.98583" lon="2.32249">
        <ele>2</ele>
        <time>2019-11-26T08:09:38.000Z</time>
      </trkpt>
      <trkpt lat="50.98642" lon="2.32228">
        <ele>2</ele>
        <time>2019-11-26T08:09:47.000Z</time>
      </trkpt>
      <trkpt lat="50.98696" lon="2.32211">
        <ele>2</ele>
        <time>2019-11-26T08:09:55.000Z</time>
      </trkpt>
      <trkpt lat="50.98755" lon="2.32192">
        <ele>2</ele>
        <time>2019-11-26T08:10:04.000Z</time>
      </trkpt>
      <trkpt lat="50.9881" lon="2.32175">
        <ele>2</ele>
        <time>2019-11-26T08:10:12.000Z</time>
      </trkpt>
      <trkpt lat="50.98865" lon="2.32158">
        <ele>2</ele>
        <time>2019-11-26T08:10:20.000Z</time>
      </trkpt>
      <trkpt lat="50.9892" lon="2.32137">
        <ele>1.2</ele>
        <time>2019-11-26T08:10:28.000Z</time>
      </trkpt>
      <trkpt lat="50.98975" lon="2.3212">
        <ele>2</ele>
        <time>2019-11-26T08:10:36.000Z</time>
      </trkpt>
      <trkpt lat="50.9903" lon="2.32103">
        <ele>2</ele>
        <time>2019-11-26T08:10:44.000Z</time>
      </trkpt>
      <trkpt lat="50.99082" lon="2.32078">
        <ele>2</ele>
        <time>2019-11-26T08:10:52.000Z</time>
      </trkpt>
      <trkpt lat="50.99133" lon="2.32045">
        <ele>1.9</ele>
        <time>2019-11-26T08:11:00.000Z</time>
      </trkpt>
      <trkpt lat="50.99182" lon="2.32009">
        <ele>1.9</ele>
        <time>2019-11-26T08:11:08.000Z</time>
      </trkpt>
      <trkpt lat="50.99232" lon="2.31973">
        <ele>2</ele>
        <time>2019-11-26T08:11:16.000Z</time>
      </trkpt>
      <trkpt lat="50.99281" lon="2.31936">
        <ele>1</ele>
        <time>2019-11-26T08:11:24.000Z</time>
      </trkpt>
      <trkpt lat="50.993" lon="2.31922">
        <ele>1</ele>
        <time>2019-11-26T08:11:27.000Z</time>
      </trkpt>
      <trkpt lat="50.99343" lon="2.3189">
        <ele>1</ele>
        <time>2019-11-26T08:11:34.000Z</time>
      </trkpt>
      <trkpt lat="50.99393" lon="2.31855">
        <ele>1</ele>
        <time>2019-11-26T08:11:42.000Z</time>
      </trkpt>
      <trkpt lat="50.99443" lon="2.31818">
        <ele>1</ele>
        <time>2019-11-26T08:11:50.000Z</time>
      </trkpt>
      <trkpt lat="50.99467" lon="2.31799">
        <ele>1</ele>
        <time>2019-11-26T08:11:54.000Z</time>
      </trkpt>
      <trkpt lat="50.99513" lon="2.31765">
        <ele>1</ele>
        <time>2019-11-26T08:12:02.000Z</time>
      </trkpt>
      <trkpt lat="50.99549" lon="2.31795">
        <ele>1</ele>
        <time>2019-11-26T08:12:10.000Z</time>
      </trkpt>
      <trkpt lat="50.9957" lon="2.31833">
        <ele>1</ele>
        <time>2019-11-26T08:12:15.000Z</time>
      </trkpt>
      <trkpt lat="50.99618" lon="2.31838">
        <ele>1</ele>
        <time>2019-11-26T08:12:23.000Z</time>
      </trkpt>
      <trkpt lat="50.99641" lon="2.3182">
        <ele>1</ele>
        <time>2019-11-26T08:12:28.000Z</time>
      </trkpt>
      <trkpt lat="50.99664" lon="2.31852">
        <ele>1</ele>
        <time>2019-11-26T08:12:37.000Z</time>
      </trkpt>
      <trkpt lat="50.99672" lon="2.31866">
        <ele>1</ele>
        <time>2019-11-26T08:12:39.000Z</time>
      </trkpt>
      <trkpt lat="50.99683" lon="2.31888">
        <ele>1</ele>
        <time>2019-11-26T08:12:42.000Z</time>
      </trkpt>
      <trkpt lat="50.9972" lon="2.31958">
        <ele>1</ele>
        <time>2019-11-26T08:12:51.000Z</time>
      </trkpt>
      <trkpt lat="50.99759" lon="2.32031">
        <ele>2</ele>
        <time>2019-11-26T08:13:00.000Z</time>
      </trkpt>
      <trkpt lat="50.99794" lon="2.32097">
        <ele>1</ele>
        <time>2019-11-26T08:13:08.000Z</time>
      </trkpt>
      <trkpt lat="50.99828" lon="2.32166">
        <ele>1</ele>
        <time>2019-11-26T08:13:16.000Z</time>
      </trkpt>
      <trkpt lat="50.99849" lon="2.32211">
        <ele>1</ele>
        <time>2019-11-26T08:13:21.000Z</time>
      </trkpt>
      <trkpt lat="50.9988" lon="2.32286">
        <ele>2.2</ele>
        <time>2019-11-26T08:13:29.000Z</time>
      </trkpt>
      <trkpt lat="50.99908" lon="2.32365">
        <ele>2.1</ele>
        <time>2019-11-26T08:13:37.000Z</time>
      </trkpt>
      <trkpt lat="50.99934" lon="2.32448">
        <ele>1</ele>
        <time>2019-11-26T08:13:45.000Z</time>
      </trkpt>
      <trkpt lat="50.99954" lon="2.32522">
        <ele>2</ele>
        <time>2019-11-26T08:13:52.000Z</time>
      </trkpt>
      <trkpt lat="50.99974" lon="2.32607">
        <ele>2</ele>
        <time>2019-11-26T08:14:00.000Z</time>
      </trkpt>
      <trkpt lat="50.99987" lon="2.32672">
        <ele>1</ele>
        <time>2019-11-26T08:14:06.000Z</time>
      </trkpt>
      <trkpt lat="50.99995" lon="2.32717">
        <ele>1</ele>
        <time>2019-11-26T08:14:10.000Z</time>
      </trkpt>
      <trkpt lat="51.00009" lon="2.32806">
        <ele>2</ele>
        <time>2019-11-26T08:14:18.000Z</time>
      </trkpt>
      <trkpt lat="51.00015" lon="2.32853">
        <ele>2</ele>
        <time>2019-11-26T08:14:22.000Z</time>
      </trkpt>
      <trkpt lat="51.00019" lon="2.32947">
        <ele>2</ele>
        <time>2019-11-26T08:14:30.000Z</time>
      </trkpt>
      <trkpt lat="51.00013" lon="2.33039">
        <ele>3</ele>
        <time>2019-11-26T08:14:38.000Z</time>
      </trkpt>
      <trkpt lat="50.99991" lon="2.3312">
        <ele>3</ele>
        <time>2019-11-26T08:14:46.000Z</time>
      </trkpt>
      <trkpt lat="50.99972" lon="2.33202">
        <ele>3</ele>
        <time>2019-11-26T08:14:54.000Z</time>
      </trkpt>
      <trkpt lat="50.99958" lon="2.33287">
        <ele>2</ele>
        <time>2019-11-26T08:15:02.000Z</time>
      </trkpt>
      <trkpt lat="50.99954" lon="2.33372">
        <ele>2</ele>
        <time>2019-11-26T08:15:10.000Z</time>
      </trkpt>
      <trkpt lat="50.99953" lon="2.33423">
        <ele>2</ele>
        <time>2019-11-26T08:15:15.000Z</time>
      </trkpt>
      <trkpt lat="50.99919" lon="2.3346">
        <ele>2</ele>
        <time>2019-11-26T08:15:22.000Z</time>
      </trkpt>
      <trkpt lat="50.99887" lon="2.33472">
        <ele>3</ele>
        <time>2019-11-26T08:15:27.000Z</time>
      </trkpt>
      <trkpt lat="50.99853" lon="2.33483">
        <ele>3</ele>
        <time>2019-11-26T08:15:32.000Z</time>
      </trkpt>
      <trkpt lat="50.99807" lon="2.33495">
        <ele>3</ele>
        <time>2019-11-26T08:15:39.000Z</time>
      </trkpt>
      <trkpt lat="50.99748" lon="2.33503">
        <ele>3</ele>
        <time>2019-11-26T08:15:48.000Z</time>
      </trkpt>
      <trkpt lat="50.99717" lon="2.33507">
        <ele>3</ele>
        <time>2019-11-26T08:15:53.000Z</time>
      </trkpt>
      <trkpt lat="50.99676" lon="2.33522">
        <ele>3</ele>
        <time>2019-11-26T08:16:00.000Z</time>
      </trkpt>
      <trkpt lat="50.99671" lon="2.33525">
        <ele>3</ele>
        <time>2019-11-26T08:16:01.000Z</time>
      </trkpt>
      <trkpt lat="50.99665" lon="2.33554">
        <ele>3</ele>
        <time>2019-11-26T08:16:06.000Z</time>
      </trkpt>
      <trkpt lat="50.9966" lon="2.33582">
        <ele>3</ele>
        <time>2019-11-26T08:16:11.000Z</time>
      </trkpt>
      <trkpt lat="50.99645" lon="2.33595">
        <ele>3</ele>
        <time>2019-11-26T08:16:19.000Z</time>
      </trkpt>
      <trkpt lat="50.99643" lon="2.33604">
        <ele>3</ele>
        <time>2019-11-26T08:16:40.000Z</time>
      </trkpt>
      <trkpt lat="50.99644" lon="2.33613">
        <ele>3</ele>
        <time>2019-11-26T08:16:42.000Z</time>
      </trkpt>
      <trkpt lat="50.99644" lon="2.33623">
        <ele>3</ele>
        <time>2019-11-26T08:16:44.000Z</time>
      </trkpt>
      <trkpt lat="50.99667" lon="2.33658">
        <ele>3</ele>
        <time>2019-11-26T08:16:52.000Z</time>
      </trkpt>
      <trkpt lat="50.99675" lon="2.33672">
        <ele>3</ele>
        <time>2019-11-26T08:16:55.000Z</time>
      </trkpt>
      <trkpt lat="50.99677" lon="2.33677">
        <ele>3</ele>
        <time>2019-11-26T08:16:56.000Z</time>
      </trkpt>
      <trkpt lat="50.99696" lon="2.33711">
        <ele>3</ele>
        <time>2019-11-26T08:17:05.000Z</time>
      </trkpt>
      <trkpt lat="50.99702" lon="2.33737">
        <ele>3</ele>
        <time>2019-11-26T08:17:10.000Z</time>
      </trkpt>
      <trkpt lat="50.99706" lon="2.33756">
        <ele>3</ele>
        <time>2019-11-26T08:17:13.000Z</time>
      </trkpt>
      <trkpt lat="50.99714" lon="2.3378">
        <ele>3</ele>
        <time>2019-11-26T08:17:17.000Z</time>
      </trkpt>
      <trkpt lat="50.99729" lon="2.33833">
        <ele>4</ele>
        <time>2019-11-26T08:17:29.000Z</time>
      </trkpt>
      <trkpt lat="50.99737" lon="2.33885">
        <ele>4</ele>
        <time>2019-11-26T08:17:39.000Z</time>
      </trkpt>
      <trkpt lat="50.99743" lon="2.33953">
        <ele>4</ele>
        <time>2019-11-26T08:17:50.000Z</time>
      </trkpt>
      <trkpt lat="50.99748" lon="2.33999">
        <ele>3</ele>
        <time>2019-11-26T08:17:57.000Z</time>
      </trkpt>
      <trkpt lat="50.99757" lon="2.34045">
        <ele>3</ele>
        <time>2019-11-26T08:18:05.000Z</time>
      </trkpt>
      <trkpt lat="50.99757" lon="2.34048">
        <ele>3</ele>
        <time>2019-11-26T08:18:08.000Z</time>
      </trkpt>
      <trkpt lat="50.99758" lon="2.34053">
        <ele>3</ele>
        <time>2019-11-26T08:18:24.000Z</time>
      </trkpt>
      <trkpt lat="50.99758" lon="2.34056">
        <ele>3</ele>
        <time>2019-11-26T08:18:25.000Z</time>
      </trkpt>
      <trkpt lat="50.99766" lon="2.34111">
        <ele>3</ele>
        <time>2019-11-26T08:18:34.000Z</time>
      </trkpt>
      <trkpt lat="50.99748" lon="2.3416">
        <ele>4</ele>
        <time>2019-11-26T08:18:43.000Z</time>
      </trkpt>
      <trkpt lat="50.99741" lon="2.3417">
        <ele>4</ele>
        <time>2019-11-26T08:18:46.000Z</time>
      </trkpt>
      <trkpt lat="50.99727" lon="2.34192">
        <ele>4</ele>
        <time>2019-11-26T08:18:52.000Z</time>
      </trkpt>
      <trkpt lat="50.99711" lon="2.34193">
        <ele>4</ele>
        <time>2019-11-26T08:18:56.000Z</time>
      </trkpt>
      <trkpt lat="50.99706" lon="2.34193">
        <ele>3</ele>
        <time>2019-11-26T08:18:57.000Z</time>
      </trkpt>
      <trkpt lat="50.99684" lon="2.342">
        <ele>3</ele>
        <time>2019-11-26T08:19:02.000Z</time>
      </trkpt>
      <trkpt lat="50.99676" lon="2.34206">
        <ele>3</ele>
        <time>2019-11-26T08:19:04.000Z</time>
      </trkpt>
      <trkpt lat="50.99669" lon="2.34214">
        <ele>3</ele>
        <time>2019-11-26T08:19:06.000Z</time>
      </trkpt>
      <trkpt lat="50.99655" lon="2.34249">
        <ele>3</ele>
        <time>2019-11-26T08:19:12.000Z</time>
      </trkpt>
      <trkpt lat="50.99653" lon="2.34263">
        <ele>3</ele>
        <time>2019-11-26T08:19:14.000Z</time>
      </trkpt>
      <trkpt lat="50.99655" lon="2.34355">
        <ele>3</ele>
        <time>2019-11-26T08:19:26.000Z</time>
      </trkpt>
      <trkpt lat="50.99656" lon="2.34363">
        <ele>3</ele>
        <time>2019-11-26T08:19:27.000Z</time>
      </trkpt>
      <trkpt lat="50.9967" lon="2.34405">
        <ele>2</ele>
        <time>2019-11-26T08:19:33.000Z</time>
      </trkpt>
      <trkpt lat="50.99677" lon="2.34425">
        <ele>2</ele>
        <time>2019-11-26T08:19:36.000Z</time>
      </trkpt>
      <trkpt lat="50.9967" lon="2.34467">
        <ele>2</ele>
        <time>2019-11-26T08:19:42.000Z</time>
      </trkpt>
      <trkpt lat="50.9966" lon="2.34495">
        <ele>2</ele>
        <time>2019-11-26T08:19:46.000Z</time>
      </trkpt>
      <trkpt lat="50.99659" lon="2.34524">
        <ele>2</ele>
        <time>2019-11-26T08:19:50.000Z</time>
      </trkpt>
      <trkpt lat="50.99657" lon="2.34611">
        <ele>2</ele>
        <time>2019-11-26T08:20:02.000Z</time>
      </trkpt>
      <trkpt lat="50.99656" lon="2.347">
        <ele>2</ele>
        <time>2019-11-26T08:20:16.000Z</time>
      </trkpt>
      <trkpt lat="50.99662" lon="2.34718">
        <ele>2</ele>
        <time>2019-11-26T08:20:22.000Z</time>
      </trkpt>
      <trkpt lat="50.99665" lon="2.34737">
        <ele>2</ele>
        <time>2019-11-26T08:20:26.000Z</time>
      </trkpt>
      <trkpt lat="50.99668" lon="2.34766">
        <ele>2</ele>
        <time>2019-11-26T08:20:31.000Z</time>
      </trkpt>
      <trkpt lat="50.99674" lon="2.34825">
        <ele>2</ele>
        <time>2019-11-26T08:20:41.000Z</time>
      </trkpt>
      <trkpt lat="50.99686" lon="2.34909">
        <ele>2</ele>
        <time>2019-11-26T08:20:57.000Z</time>
      </trkpt>
      <trkpt lat="50.99699" lon="2.34968">
        <ele>1</ele>
        <time>2019-11-26T08:21:08.000Z</time>
      </trkpt>
      <trkpt lat="50.99672" lon="2.35013">
        <ele>1</ele>
        <time>2019-11-26T08:21:19.000Z</time>
      </trkpt>
      <trkpt lat="50.99657" lon="2.35027">
        <ele>1</ele>
        <time>2019-11-26T08:21:24.000Z</time>
      </trkpt>
      <trkpt lat="50.99618" lon="2.35052">
        <ele>1</ele>
        <time>2019-11-26T08:21:35.000Z</time>
      </trkpt>
      <trkpt lat="50.99614" lon="2.35065">
        <ele>1</ele>
        <time>2019-11-26T08:21:41.000Z</time>
      </trkpt>
      <trkpt lat="50.99616" lon="2.35073">
        <ele>1</ele>
        <time>2019-11-26T08:21:43.000Z</time>
      </trkpt>
      <trkpt lat="50.99618" lon="2.35082">
        <ele>1</ele>
        <time>2019-11-26T08:21:45.000Z</time>
      </trkpt>
      <trkpt lat="50.9963" lon="2.35152">
        <ele>1</ele>
        <time>2019-11-26T08:21:57.000Z</time>
      </trkpt>
      <trkpt lat="50.99655" lon="2.35231">
        <ele>2</ele>
        <time>2019-11-26T08:22:10.000Z</time>
      </trkpt>
      <trkpt lat="50.99675" lon="2.35307">
        <ele>2</ele>
        <time>2019-11-26T08:22:21.000Z</time>
      </trkpt>
      <trkpt lat="50.99674" lon="2.35311">
        <ele>2</ele>
        <time>2019-11-26T08:22:22.000Z</time>
      </trkpt>
      <trkpt lat="50.99663" lon="2.35318">
        <ele>2</ele>
        <time>2019-11-26T08:22:26.000Z</time>
      </trkpt>
      <trkpt lat="50.99623" lon="2.35329">
        <ele>2</ele>
        <time>2019-11-26T08:22:34.000Z</time>
      </trkpt>
      <trkpt lat="50.99602" lon="2.35337">
        <ele>1</ele>
        <time>2019-11-26T08:22:38.000Z</time>
      </trkpt>
      <trkpt lat="50.99556" lon="2.35353">
        <ele>2</ele>
        <time>2019-11-26T08:22:47.000Z</time>
      </trkpt>
      <trkpt lat="50.99554" lon="2.35388">
        <ele>2</ele>
        <time>2019-11-26T08:22:52.000Z</time>
      </trkpt>
      <trkpt lat="50.99568" lon="2.35463">
        <ele>2</ele>
        <time>2019-11-26T08:23:01.000Z</time>
      </trkpt>
      <trkpt lat="50.99576" lon="2.35507">
        <ele>2</ele>
        <time>2019-11-26T08:23:06.000Z</time>
      </trkpt>
      <trkpt lat="50.99584" lon="2.35549">
        <ele>2</ele>
        <time>2019-11-26T08:23:11.000Z</time>
      </trkpt>
      <trkpt lat="50.99581" lon="2.35568">
        <ele>2</ele>
        <time>2019-11-26T08:23:14.000Z</time>
      </trkpt>
      <trkpt lat="50.99568" lon="2.35578">
        <ele>2</ele>
        <time>2019-11-26T08:23:17.000Z</time>
      </trkpt>
      <trkpt lat="50.99537" lon="2.35593">
        <ele>2</ele>
        <time>2019-11-26T08:23:23.000Z</time>
      </trkpt>
      <trkpt lat="50.99505" lon="2.35611">
        <ele>2</ele>
        <time>2019-11-26T08:23:30.000Z</time>
      </trkpt>
      <trkpt lat="50.99503" lon="2.35614">
        <ele>2</ele>
        <time>2019-11-26T08:23:31.000Z</time>
      </trkpt>
      <trkpt lat="50.99509" lon="2.3564">
        <ele>1</ele>
        <time>2019-11-26T08:23:37.000Z</time>
      </trkpt>
      <trkpt lat="50.9951" lon="2.35644">
        <ele>1</ele>
        <time>2019-11-26T08:23:38.000Z</time>
      </trkpt>
      <trkpt lat="50.99516" lon="2.35662">
        <ele>1</ele>
        <time>2019-11-26T08:23:41.000Z</time>
      </trkpt>
      <trkpt lat="50.99534" lon="2.35716">
        <ele>1</ele>
        <time>2019-11-26T08:23:48.000Z</time>
      </trkpt>
      <trkpt lat="50.9956" lon="2.35797">
        <ele>2</ele>
        <time>2019-11-26T08:23:58.000Z</time>
      </trkpt>
      <trkpt lat="50.99568" lon="2.35839">
        <ele>3</ele>
        <time>2019-11-26T08:24:03.000Z</time>
      </trkpt>
      <trkpt lat="50.99551" lon="2.3586">
        <ele>2</ele>
        <time>2019-11-26T08:24:08.000Z</time>
      </trkpt>
      <trkpt lat="50.99512" lon="2.35873">
        <ele>2</ele>
        <time>2019-11-26T08:24:15.000Z</time>
      </trkpt>
      <trkpt lat="50.99507" lon="2.35875">
        <ele>2</ele>
        <time>2019-11-26T08:24:16.000Z</time>
      </trkpt>
      <trkpt lat="50.99454" lon="2.35896">
        <ele>1</ele>
        <time>2019-11-26T08:24:26.000Z</time>
      </trkpt>
      <trkpt lat="50.9945" lon="2.35899">
        <ele>1</ele>
        <time>2019-11-26T08:24:27.000Z</time>
      </trkpt>
      <trkpt lat="50.99444" lon="2.35925">
        <ele>1</ele>
        <time>2019-11-26T08:24:31.000Z</time>
      </trkpt>
      <trkpt lat="50.99443" lon="2.35975">
        <ele>1</ele>
        <time>2019-11-26T08:24:37.000Z</time>
      </trkpt>
      <trkpt lat="50.99439" lon="2.35989">
        <ele>1</ele>
        <time>2019-11-26T08:24:39.000Z</time>
      </trkpt>
      <trkpt lat="50.99425" lon="2.36">
        <ele>1</ele>
        <time>2019-11-26T08:24:42.000Z</time>
      </trkpt>
      <trkpt lat="50.99387" lon="2.36015">
        <ele>1</ele>
        <time>2019-11-26T08:24:49.000Z</time>
      </trkpt>
      <trkpt lat="50.99377" lon="2.36059">
        <ele>1</ele>
        <time>2019-11-26T08:24:55.000Z</time>
      </trkpt>
      <trkpt lat="50.9938" lon="2.36147">
        <ele>2</ele>
        <time>2019-11-26T08:25:05.000Z</time>
      </trkpt>
      <trkpt lat="50.99384" lon="2.36239">
        <ele>2</ele>
        <time>2019-11-26T08:25:15.000Z</time>
      </trkpt>
      <trkpt lat="50.99394" lon="2.36279">
        <ele>2</ele>
        <time>2019-11-26T08:25:20.000Z</time>
      </trkpt>
      <trkpt lat="50.99392" lon="2.36307">
        <ele>1</ele>
        <time>2019-11-26T08:25:24.000Z</time>
      </trkpt>
      <trkpt lat="50.99392" lon="2.36361">
        <ele>1</ele>
        <time>2019-11-26T08:25:31.000Z</time>
      </trkpt>
      <trkpt lat="50.99393" lon="2.36399">
        <ele>1</ele>
        <time>2019-11-26T08:25:37.000Z</time>
      </trkpt>
      <trkpt lat="50.99397" lon="2.36444">
        <ele>1</ele>
        <time>2019-11-26T08:25:43.000Z</time>
      </trkpt>
      <trkpt lat="50.99397" lon="2.36465">
        <ele>1</ele>
        <time>2019-11-26T08:25:47.000Z</time>
      </trkpt>
      <trkpt lat="50.99396" lon="2.36469">
        <ele>1</ele>
        <time>2019-11-26T08:25:48.000Z</time>
      </trkpt>
      <trkpt lat="50.99384" lon="2.3648">
        <ele>1</ele>
        <time>2019-11-26T08:25:52.000Z</time>
      </trkpt>
      <trkpt lat="50.9936" lon="2.365">
        <ele>1</ele>
        <time>2019-11-26T08:25:57.000Z</time>
      </trkpt>
      <trkpt lat="50.99312" lon="2.3654">
        <ele>1.2</ele>
        <time>2019-11-26T08:26:06.000Z</time>
      </trkpt>
      <trkpt lat="50.99286" lon="2.36564">
        <ele>1.3</ele>
        <time>2019-11-26T08:26:11.000Z</time>
      </trkpt>
      <trkpt lat="50.99266" lon="2.36581">
        <ele>2</ele>
        <time>2019-11-26T08:26:15.000Z</time>
      </trkpt>
      <trkpt lat="50.99258" lon="2.3659">
        <ele>2</ele>
        <time>2019-11-26T08:26:17.000Z</time>
      </trkpt>
      <trkpt lat="50.9926" lon="2.36634">
        <ele>2</ele>
        <time>2019-11-26T08:26:24.000Z</time>
      </trkpt>
      <trkpt lat="50.99289" lon="2.36714">
        <ele>1.6</ele>
        <time>2019-11-26T08:26:34.000Z</time>
      </trkpt>
      <trkpt lat="50.99293" lon="2.36722">
        <ele>1.6</ele>
        <time>2019-11-26T08:26:35.000Z</time>
      </trkpt>
      <trkpt lat="50.9931" lon="2.36746">
        <ele>1.1</ele>
        <time>2019-11-26T08:26:39.000Z</time>
      </trkpt>
      <trkpt lat="50.9933" lon="2.36764">
        <ele>1</ele>
        <time>2019-11-26T08:26:43.000Z</time>
      </trkpt>
      <trkpt lat="50.99377" lon="2.36812">
        <ele>1.4</ele>
        <time>2019-11-26T08:26:52.000Z</time>
      </trkpt>
      <trkpt lat="50.99409" lon="2.36844">
        <ele>1.4</ele>
        <time>2019-11-26T08:26:59.000Z</time>
      </trkpt>
      <trkpt lat="50.99417" lon="2.36855">
        <ele>1</ele>
        <time>2019-11-26T08:27:01.000Z</time>
      </trkpt>
      <trkpt lat="50.99427" lon="2.36864">
        <ele>1</ele>
        <time>2019-11-26T08:27:03.000Z</time>
      </trkpt>
      <trkpt lat="50.99442" lon="2.36879">
        <ele>1</ele>
        <time>2019-11-26T08:27:06.000Z</time>
      </trkpt>
      <trkpt lat="50.99489" lon="2.36929">
        <ele>1</ele>
        <time>2019-11-26T08:27:15.000Z</time>
      </trkpt>
      <trkpt lat="50.99534" lon="2.36981">
        <ele>1</ele>
        <time>2019-11-26T08:27:24.000Z</time>
      </trkpt>
      <trkpt lat="50.99561" lon="2.37022">
        <ele>2</ele>
        <time>2019-11-26T08:27:30.000Z</time>
      </trkpt>
      <trkpt lat="50.99574" lon="2.37043">
        <ele>1</ele>
        <time>2019-11-26T08:27:33.000Z</time>
      </trkpt>
      <trkpt lat="50.99592" lon="2.37073">
        <ele>1</ele>
        <time>2019-11-26T08:27:37.000Z</time>
      </trkpt>
      <trkpt lat="50.99623" lon="2.37148">
        <ele>1</ele>
        <time>2019-11-26T08:27:46.000Z</time>
      </trkpt>
      <trkpt lat="50.99651" lon="2.37221">
        <ele>1.5</ele>
        <time>2019-11-26T08:27:55.000Z</time>
      </trkpt>
      <trkpt lat="50.99679" lon="2.37295">
        <ele>1</ele>
        <time>2019-11-26T08:28:05.000Z</time>
      </trkpt>
      <trkpt lat="50.99705" lon="2.37361">
        <ele>1</ele>
        <time>2019-11-26T08:28:14.000Z</time>
      </trkpt>
      <trkpt lat="50.99724" lon="2.37408">
        <ele>1</ele>
        <time>2019-11-26T08:28:21.000Z</time>
      </trkpt>
      <trkpt lat="50.99753" lon="2.37476">
        <ele>1</ele>
        <time>2019-11-26T08:28:31.000Z</time>
      </trkpt>
      <trkpt lat="50.99771" lon="2.37531">
        <ele>1</ele>
        <time>2019-11-26T08:28:40.000Z</time>
      </trkpt>
      <trkpt lat="50.99772" lon="2.37533">
        <ele>1</ele>
        <time>2019-11-26T08:28:41.000Z</time>
      </trkpt>
      <trkpt lat="50.99784" lon="2.3756">
        <ele>1.2</ele>
        <time>2019-11-26T08:28:47.000Z</time>
      </trkpt>
      <trkpt lat="50.99793" lon="2.37584">
        <ele>1.6</ele>
        <time>2019-11-26T08:28:51.000Z</time>
      </trkpt>
      <trkpt lat="50.99812" lon="2.37629">
        <ele>2.2</ele>
        <time>2019-11-26T08:29:01.000Z</time>
      </trkpt>
      <trkpt lat="50.99811" lon="2.37634">
        <ele>2.2</ele>
        <time>2019-11-26T08:29:02.000Z</time>
      </trkpt>
      <trkpt lat="50.99809" lon="2.37646">
        <ele>2.3</ele>
        <time>2019-11-26T08:29:04.000Z</time>
      </trkpt>
      <trkpt lat="50.99819" lon="2.3768">
        <ele>2.8</ele>
        <time>2019-11-26T08:29:09.000Z</time>
      </trkpt>
      <trkpt lat="50.99834" lon="2.37717">
        <ele>1</ele>
        <time>2019-11-26T08:29:14.000Z</time>
      </trkpt>
      <trkpt lat="50.99863" lon="2.378">
        <ele>1</ele>
        <time>2019-11-26T08:29:24.000Z</time>
      </trkpt>
      <trkpt lat="50.99894" lon="2.37869">
        <ele>2</ele>
        <time>2019-11-26T08:29:33.000Z</time>
      </trkpt>
      <trkpt lat="50.99909" lon="2.37905">
        <ele>2</ele>
        <time>2019-11-26T08:29:38.000Z</time>
      </trkpt>
      <trkpt lat="50.99944" lon="2.37982">
        <ele>2</ele>
        <time>2019-11-26T08:29:48.000Z</time>
      </trkpt>
      <trkpt lat="50.99978" lon="2.38055">
        <ele>2</ele>
        <time>2019-11-26T08:29:57.000Z</time>
      </trkpt>
      <trkpt lat="51.00016" lon="2.38121">
        <ele>2</ele>
        <time>2019-11-26T08:30:06.000Z</time>
      </trkpt>
      <trkpt lat="51.00023" lon="2.38136">
        <ele>2</ele>
        <time>2019-11-26T08:30:08.000Z</time>
      </trkpt>
      <trkpt lat="51.00029" lon="2.38153">
        <ele>2</ele>
        <time>2019-11-26T08:30:10.000Z</time>
      </trkpt>
      <trkpt lat="51.00033" lon="2.3817">
        <ele>1</ele>
        <time>2019-11-26T08:30:12.000Z</time>
      </trkpt>
      <trkpt lat="51.00056" lon="2.38185">
        <ele>2</ele>
        <time>2019-11-26T08:30:17.000Z</time>
      </trkpt>
      <trkpt lat="51.00062" lon="2.38186">
        <ele>2</ele>
        <time>2019-11-26T08:30:18.000Z</time>
      </trkpt>
      <trkpt lat="51.00076" lon="2.38203">
        <ele>2</ele>
        <time>2019-11-26T08:30:21.000Z</time>
      </trkpt>
      <trkpt lat="51.0008" lon="2.38211">
        <ele>2</ele>
        <time>2019-11-26T08:30:22.000Z</time>
      </trkpt>
      <trkpt lat="51.0009" lon="2.38227">
        <ele>2</ele>
        <time>2019-11-26T08:30:24.000Z</time>
      </trkpt>
      <trkpt lat="51.00104" lon="2.38252">
        <ele>2</ele>
        <time>2019-11-26T08:30:27.000Z</time>
      </trkpt>
      <trkpt lat="51.00118" lon="2.38278">
        <ele>1</ele>
        <time>2019-11-26T08:30:30.000Z</time>
      </trkpt>
      <trkpt lat="51.00142" lon="2.38319">
        <ele>1</ele>
        <time>2019-11-26T08:30:35.000Z</time>
      </trkpt>
      <trkpt lat="51.00181" lon="2.38387">
        <ele>1</ele>
        <time>2019-11-26T08:30:44.000Z</time>
      </trkpt>
      <trkpt lat="51.00207" lon="2.38382">
        <ele>1</ele>
        <time>2019-11-26T08:30:49.000Z</time>
      </trkpt>
      <trkpt lat="51.00251" lon="2.3835">
        <ele>1</ele>
        <time>2019-11-26T08:30:57.000Z</time>
      </trkpt>
      <trkpt lat="51.00266" lon="2.38374">
        <ele>1</ele>
        <time>2019-11-26T08:31:02.000Z</time>
      </trkpt>
      <trkpt lat="51.00274" lon="2.38402">
        <ele>1</ele>
        <time>2019-11-26T08:31:05.000Z</time>
      </trkpt>
      <trkpt lat="51.00299" lon="2.38411">
        <ele>2</ele>
        <time>2019-11-26T08:31:10.000Z</time>
      </trkpt>
      <trkpt lat="51.00305" lon="2.38407">
        <ele>2</ele>
        <time>2019-11-26T08:31:11.000Z</time>
      </trkpt>
      <trkpt lat="51.00358" lon="2.38382">
        <ele>3</ele>
        <time>2019-11-26T08:31:19.000Z</time>
      </trkpt>
      <trkpt lat="51.00412" lon="2.38359">
        <ele>3</ele>
        <time>2019-11-26T08:31:27.000Z</time>
      </trkpt>
      <trkpt lat="51.00445" lon="2.38344">
        <ele>4</ele>
        <time>2019-11-26T08:31:32.000Z</time>
      </trkpt>
      <trkpt lat="51.00476" lon="2.3833">
        <ele>4</ele>
        <time>2019-11-26T08:31:37.000Z</time>
      </trkpt>
      <trkpt lat="51.00481" lon="2.38328">
        <ele>4</ele>
        <time>2019-11-26T08:31:38.000Z</time>
      </trkpt>
      <trkpt lat="51.00513" lon="2.38342">
        <ele>5</ele>
        <time>2019-11-26T08:31:46.000Z</time>
      </trkpt>
      <trkpt lat="51.00518" lon="2.38341">
        <ele>6</ele>
        <time>2019-11-26T08:31:47.000Z</time>
      </trkpt>
      <trkpt lat="51.00534" lon="2.38341">
        <ele>6</ele>
        <time>2019-11-26T08:31:50.000Z</time>
      </trkpt>
      <trkpt lat="51.0054" lon="2.38341">
        <ele>6</ele>
        <time>2019-11-26T08:31:51.000Z</time>
      </trkpt>
      <trkpt lat="51.00559" lon="2.38341">
        <ele>6</ele>
        <time>2019-11-26T08:31:54.000Z</time>
      </trkpt>
      <trkpt lat="51.00565" lon="2.3834">
        <ele>6</ele>
        <time>2019-11-26T08:31:55.000Z</time>
      </trkpt>
      <trkpt lat="51.00609" lon="2.38323">
        <ele>5</ele>
        <time>2019-11-26T08:32:03.000Z</time>
      </trkpt>
      <trkpt lat="51.00632" lon="2.38307">
        <ele>5</ele>
        <time>2019-11-26T08:32:07.000Z</time>
      </trkpt>
      <trkpt lat="51.0065" lon="2.38298">
        <ele>5</ele>
        <time>2019-11-26T08:32:10.000Z</time>
      </trkpt>
      <trkpt lat="51.00673" lon="2.38294">
        <ele>5</ele>
        <time>2019-11-26T08:32:14.000Z</time>
      </trkpt>
      <trkpt lat="51.00679" lon="2.38293">
        <ele>5</ele>
        <time>2019-11-26T08:32:15.000Z</time>
      </trkpt>
      <trkpt lat="51.00737" lon="2.38281">
        <ele>5</ele>
        <time>2019-11-26T08:32:24.000Z</time>
      </trkpt>
      <trkpt lat="51.00743" lon="2.38278">
        <ele>5</ele>
        <time>2019-11-26T08:32:25.000Z</time>
      </trkpt>
      <trkpt lat="51.00763" lon="2.38265">
        <ele>5</ele>
        <time>2019-11-26T08:32:28.000Z</time>
      </trkpt>
      <trkpt lat="51.00778" lon="2.38252">
        <ele>5</ele>
        <time>2019-11-26T08:32:31.000Z</time>
      </trkpt>
      <trkpt lat="51.008" lon="2.38258">
        <ele>5</ele>
        <time>2019-11-26T08:32:35.000Z</time>
      </trkpt>
      <trkpt lat="51.00806" lon="2.38261">
        <ele>5</ele>
        <time>2019-11-26T08:32:36.000Z</time>
      </trkpt>
      <trkpt lat="51.00834" lon="2.3825">
        <ele>4</ele>
        <time>2019-11-26T08:32:41.000Z</time>
      </trkpt>
      <trkpt lat="51.0084" lon="2.38246">
        <ele>4</ele>
        <time>2019-11-26T08:32:42.000Z</time>
      </trkpt>
      <trkpt lat="51.00869" lon="2.38221">
        <ele>5</ele>
        <time>2019-11-26T08:32:48.000Z</time>
      </trkpt>
      <trkpt lat="51.00877" lon="2.38219">
        <ele>5</ele>
        <time>2019-11-26T08:32:52.000Z</time>
      </trkpt>
      <trkpt lat="51.00882" lon="2.3822">
        <ele>5</ele>
        <time>2019-11-26T08:33:23.000Z</time>
      </trkpt>
      <trkpt lat="51.00883" lon="2.38221">
        <ele>5</ele>
        <time>2019-11-26T08:33:24.000Z</time>
      </trkpt>
      <trkpt lat="51.00885" lon="2.38222">
        <ele>5</ele>
        <time>2019-11-26T08:33:25.000Z</time>
      </trkpt>
      <trkpt lat="51.00888" lon="2.38224">
        <ele>5</ele>
        <time>2019-11-26T08:33:26.000Z</time>
      </trkpt>
      <trkpt lat="51.00908" lon="2.38245">
        <ele>6</ele>
        <time>2019-11-26T08:33:35.000Z</time>
      </trkpt>
      <trkpt lat="51.00909" lon="2.38251">
        <ele>7</ele>
        <time>2019-11-26T08:33:37.000Z</time>
      </trkpt>
      <trkpt lat="51.0091" lon="2.38265">
        <ele>7</ele>
        <time>2019-11-26T08:33:41.000Z</time>
      </trkpt>
      <trkpt lat="51.00911" lon="2.38268">
        <ele>7</ele>
        <time>2019-11-26T08:33:42.000Z</time>
      </trkpt>
      <trkpt lat="51.00912" lon="2.38271">
        <ele>7</ele>
        <time>2019-11-26T08:33:43.000Z</time>
      </trkpt>
      <trkpt lat="51.0092" lon="2.38294">
        <ele>9</ele>
        <time>2019-11-26T08:33:50.000Z</time>
      </trkpt>
      <trkpt lat="51.00926" lon="2.38312">
        <ele>9</ele>
        <time>2019-11-26T08:33:54.000Z</time>
      </trkpt>
      <trkpt lat="51.00927" lon="2.38317">
        <ele>9</ele>
        <time>2019-11-26T08:33:55.000Z</time>
      </trkpt>
      <trkpt lat="51.00933" lon="2.38326">
        <ele>9</ele>
        <time>2019-11-26T08:33:58.000Z</time>
      </trkpt>
      <trkpt lat="51.00953" lon="2.38351">
        <ele>10</ele>
        <time>2019-11-26T08:34:09.000Z</time>
      </trkpt>
      <trkpt lat="51.00965" lon="2.38365">
        <ele>10</ele>
        <time>2019-11-26T08:34:15.000Z</time>
      </trkpt>
      <trkpt lat="51.00967" lon="2.38369">
        <ele>10</ele>
        <time>2019-11-26T08:34:16.000Z</time>
      </trkpt>
      <trkpt lat="51.00959" lon="2.38423">
        <ele>8</ele>
        <time>2019-11-26T08:34:25.000Z</time>
      </trkpt>
      <trkpt lat="51.00954" lon="2.38464">
        <ele>7</ele>
        <time>2019-11-26T08:34:32.000Z</time>
      </trkpt>
      <trkpt lat="51.00955" lon="2.38479">
        <ele>7</ele>
        <time>2019-11-26T08:34:34.000Z</time>
      </trkpt>
      <trkpt lat="51.0096" lon="2.38501">
        <ele>6</ele>
        <time>2019-11-26T08:34:37.000Z</time>
      </trkpt>
      <trkpt lat="51.00969" lon="2.38542">
        <ele>6</ele>
        <time>2019-11-26T08:34:43.000Z</time>
      </trkpt>
      <trkpt lat="51.00982" lon="2.38574">
        <ele>6</ele>
        <time>2019-11-26T08:34:53.000Z</time>
      </trkpt>
      <trkpt lat="51.00982" lon="2.38577">
        <ele>6</ele>
        <time>2019-11-26T08:34:54.000Z</time>
      </trkpt>
      <trkpt lat="51.00973" lon="2.38598">
        <ele>5</ele>
        <time>2019-11-26T08:35:00.000Z</time>
      </trkpt>
      <trkpt lat="51.00952" lon="2.38606">
        <ele>6</ele>
        <time>2019-11-26T08:35:06.000Z</time>
      </trkpt>
      <trkpt lat="51.00913" lon="2.38612">
        <ele>7</ele>
        <time>2019-11-26T08:35:14.000Z</time>
      </trkpt>
      <trkpt lat="51.00898" lon="2.38624">
        <ele>7</ele>
        <time>2019-11-26T08:35:19.000Z</time>
      </trkpt>
      <trkpt lat="51.00887" lon="2.38636">
        <ele>7</ele>
        <time>2019-11-26T08:35:22.000Z</time>
      </trkpt>
      <trkpt lat="51.00877" lon="2.38655">
        <ele>7</ele>
        <time>2019-11-26T08:35:26.000Z</time>
      </trkpt>
      <trkpt lat="51.00865" lon="2.38688">
        <ele>6</ele>
        <time>2019-11-26T08:35:33.000Z</time>
      </trkpt>
      <trkpt lat="51.00855" lon="2.38689">
        <ele>6</ele>
        <time>2019-11-26T08:35:38.000Z</time>
      </trkpt>
      <trkpt lat="51.00845" lon="2.38692">
        <ele>7</ele>
        <time>2019-11-26T08:35:42.000Z</time>
      </trkpt>
      <trkpt lat="51.00842" lon="2.38694">
        <ele>7</ele>
        <time>2019-11-26T08:35:43.000Z</time>
      </trkpt>
      <trkpt lat="51.00839" lon="2.38695">
        <ele>7</ele>
        <time>2019-11-26T08:35:44.000Z</time>
      </trkpt>
      <trkpt lat="51.008" lon="2.38693">
        <ele>7</ele>
        <time>2019-11-26T08:35:52.000Z</time>
      </trkpt>
      <trkpt lat="51.0079" lon="2.38695">
        <ele>7</ele>
        <time>2019-11-26T08:35:54.000Z</time>
      </trkpt>
      <trkpt lat="51.00768" lon="2.38703">
        <ele>7</ele>
        <time>2019-11-26T08:35:59.000Z</time>
      </trkpt>
      <trkpt lat="51.00754" lon="2.3873">
        <ele>7</ele>
        <time>2019-11-26T08:36:04.000Z</time>
      </trkpt>
      <trkpt lat="51.00751" lon="2.38736">
        <ele>7</ele>
        <time>2019-11-26T08:36:05.000Z</time>
      </trkpt>
      <trkpt lat="51.00739" lon="2.38749">
        <ele>8</ele>
        <time>2019-11-26T08:36:08.000Z</time>
      </trkpt>
      <trkpt lat="51.00714" lon="2.38765">
        <ele>7</ele>
        <time>2019-11-26T08:36:13.000Z</time>
      </trkpt>
      <trkpt lat="51.00704" lon="2.38768">
        <ele>8</ele>
        <time>2019-11-26T08:36:15.000Z</time>
      </trkpt>
      <trkpt lat="51.007" lon="2.38769">
        <ele>8</ele>
        <time>2019-11-26T08:36:16.000Z</time>
      </trkpt>
      <trkpt lat="51.00686" lon="2.38765">
        <ele>8</ele>
        <time>2019-11-26T08:36:19.000Z</time>
      </trkpt>
      <trkpt lat="51.00671" lon="2.38757">
        <ele>9</ele>
        <time>2019-11-26T08:36:22.000Z</time>
      </trkpt>
      <trkpt lat="51.00666" lon="2.38753">
        <ele>9</ele>
        <time>2019-11-26T08:36:23.000Z</time>
      </trkpt>
      <trkpt lat="51.00649" lon="2.38746">
        <ele>9</ele>
        <time>2019-11-26T08:36:28.000Z</time>
      </trkpt>
      <trkpt lat="51.00632" lon="2.38759">
        <ele>8</ele>
        <time>2019-11-26T08:36:32.000Z</time>
      </trkpt>
      <trkpt lat="51.00616" lon="2.38771">
        <ele>7</ele>
        <time>2019-11-26T08:36:35.000Z</time>
      </trkpt>
      <trkpt lat="51.006" lon="2.38784">
        <ele>7</ele>
        <time>2019-11-26T08:36:38.000Z</time>
      </trkpt>
      <trkpt lat="51.00591" lon="2.38793">
        <ele>7</ele>
        <time>2019-11-26T08:36:40.000Z</time>
      </trkpt>
      <trkpt lat="51.0059" lon="2.38815">
        <ele>6</ele>
        <time>2019-11-26T08:36:44.000Z</time>
      </trkpt>
      <trkpt lat="51.00593" lon="2.38824">
        <ele>6</ele>
        <time>2019-11-26T08:36:45.000Z</time>
      </trkpt>
      <trkpt lat="51.00625" lon="2.38899">
        <ele>5</ele>
        <time>2019-11-26T08:36:54.000Z</time>
      </trkpt>
      <trkpt lat="51.00633" lon="2.38912">
        <ele>5</ele>
        <time>2019-11-26T08:36:56.000Z</time>
      </trkpt>
      <trkpt lat="51.00645" lon="2.38925">
        <ele>5</ele>
        <time>2019-11-26T08:36:59.000Z</time>
      </trkpt>
      <trkpt lat="51.00651" lon="2.38938">
        <ele>5</ele>
        <time>2019-11-26T08:37:03.000Z</time>
      </trkpt>
      <trkpt lat="51.00668" lon="2.38952">
        <ele>5</ele>
        <time>2019-11-26T08:37:09.000Z</time>
      </trkpt>
      <trkpt lat="51.00669" lon="2.38957">
        <ele>5</ele>
        <time>2019-11-26T08:37:10.000Z</time>
      </trkpt>
      <trkpt lat="51.0067" lon="2.38962">
        <ele>4</ele>
        <time>2019-11-26T08:37:11.000Z</time>
      </trkpt>
      <trkpt lat="51.0069" lon="2.38987">
        <ele>4</ele>
        <time>2019-11-26T08:37:17.000Z</time>
      </trkpt>
      <trkpt lat="51.00734" lon="2.39007">
        <ele>3</ele>
        <time>2019-11-26T08:37:25.000Z</time>
      </trkpt>
      <trkpt lat="51.00742" lon="2.3904">
        <ele>3</ele>
        <time>2019-11-26T08:37:30.000Z</time>
      </trkpt>
      <trkpt lat="51.0074" lon="2.39099">
        <ele>2</ele>
        <time>2019-11-26T08:37:37.000Z</time>
      </trkpt>
      <trkpt lat="51.00739" lon="2.39192">
        <ele>2</ele>
        <time>2019-11-26T08:37:47.000Z</time>
      </trkpt>
      <trkpt lat="51.00744" lon="2.39283">
        <ele>2.2</ele>
        <time>2019-11-26T08:37:57.000Z</time>
      </trkpt>
      <trkpt lat="51.00751" lon="2.39369">
        <ele>3</ele>
        <time>2019-11-26T08:38:06.000Z</time>
      </trkpt>
      <trkpt lat="51.00753" lon="2.39418">
        <ele>2</ele>
        <time>2019-11-26T08:38:11.000Z</time>
      </trkpt>
      <trkpt lat="51.00748" lon="2.39456">
        <ele>2</ele>
        <time>2019-11-26T08:38:15.000Z</time>
      </trkpt>
      <trkpt lat="51.00736" lon="2.39517">
        <ele>2.6</ele>
        <time>2019-11-26T08:38:22.000Z</time>
      </trkpt>
      <trkpt lat="51.00744" lon="2.39548">
        <ele>3</ele>
        <time>2019-11-26T08:38:26.000Z</time>
      </trkpt>
      <trkpt lat="51.00746" lon="2.39556">
        <ele>3</ele>
        <time>2019-11-26T08:38:27.000Z</time>
      </trkpt>
      <trkpt lat="51.00752" lon="2.39581">
        <ele>1</ele>
        <time>2019-11-26T08:38:30.000Z</time>
      </trkpt>
      <trkpt lat="51.00763" lon="2.39593">
        <ele>2</ele>
        <time>2019-11-26T08:38:33.000Z</time>
      </trkpt>
      <trkpt lat="51.00778" lon="2.39589">
        <ele>2</ele>
        <time>2019-11-26T08:38:36.000Z</time>
      </trkpt>
      <trkpt lat="51.00834" lon="2.39586">
        <ele>1</ele>
        <time>2019-11-26T08:38:45.000Z</time>
      </trkpt>
      <trkpt lat="51.00893" lon="2.39594">
        <ele>2</ele>
        <time>2019-11-26T08:38:54.000Z</time>
      </trkpt>
      <trkpt lat="51.00933" lon="2.39591">
        <ele>1</ele>
        <time>2019-11-26T08:39:00.000Z</time>
      </trkpt>
      <trkpt lat="51.00986" lon="2.39599">
        <ele>1</ele>
        <time>2019-11-26T08:39:08.000Z</time>
      </trkpt>
      <trkpt lat="51.01043" lon="2.39616">
        <ele>2</ele>
        <time>2019-11-26T08:39:16.000Z</time>
      </trkpt>
      <trkpt lat="51.01093" lon="2.39634">
        <ele>2</ele>
        <time>2019-11-26T08:39:23.000Z</time>
      </trkpt>
      <trkpt lat="51.01149" lon="2.39652">
        <ele>1</ele>
        <time>2019-11-26T08:39:31.000Z</time>
      </trkpt>
      <trkpt lat="51.01205" lon="2.39672">
        <ele>1</ele>
        <time>2019-11-26T08:39:39.000Z</time>
      </trkpt>
      <trkpt lat="51.01259" lon="2.39695">
        <ele>1</ele>
        <time>2019-11-26T08:39:47.000Z</time>
      </trkpt>
      <trkpt lat="51.01303" lon="2.39713">
        <ele>1</ele>
        <time>2019-11-26T08:39:53.000Z</time>
      </trkpt>
      <trkpt lat="51.01359" lon="2.39737">
        <ele>1</ele>
        <time>2019-11-26T08:40:01.000Z</time>
      </trkpt>
      <trkpt lat="51.01402" lon="2.39757">
        <ele>2</ele>
        <time>2019-11-26T08:40:08.000Z</time>
      </trkpt>
      <trkpt lat="51.01427" lon="2.39813">
        <ele>2</ele>
        <time>2019-11-26T08:40:19.000Z</time>
      </trkpt>
      <trkpt lat="51.01474" lon="2.39828">
        <ele>2</ele>
        <time>2019-11-26T08:40:27.000Z</time>
      </trkpt>
      <trkpt lat="51.01486" lon="2.39833">
        <ele>1</ele>
        <time>2019-11-26T08:40:29.000Z</time>
      </trkpt>
      <trkpt lat="51.01498" lon="2.39873">
        <ele>1</ele>
        <time>2019-11-26T08:40:35.000Z</time>
      </trkpt>
      <trkpt lat="51.01497" lon="2.3996">
        <ele>1</ele>
        <time>2019-11-26T08:40:44.000Z</time>
      </trkpt>
      <trkpt lat="51.01496" lon="2.39979">
        <ele>1</ele>
        <time>2019-11-26T08:40:46.000Z</time>
      </trkpt>
      <trkpt lat="51.01492" lon="2.40071">
        <ele>1</ele>
        <time>2019-11-26T08:40:56.000Z</time>
      </trkpt>
      <trkpt lat="51.01486" lon="2.40084">
        <ele>1</ele>
        <time>2019-11-26T08:40:59.000Z</time>
      </trkpt>
      <trkpt lat="51.0148" lon="2.40095">
        <ele>1</ele>
        <time>2019-11-26T08:41:03.000Z</time>
      </trkpt>
      <trkpt lat="51.0148" lon="2.40096">
        <ele>1</ele>
        <time>2019-11-26T08:41:04.000Z</time>
      </trkpt>
      <trkpt lat="51.01479" lon="2.401">
        <ele>1</ele>
        <time>2019-11-26T08:41:09.000Z</time>
      </trkpt>
      <trkpt lat="51.01476" lon="2.40104">
        <ele>1</ele>
        <time>2019-11-26T08:41:21.000Z</time>
      </trkpt>
      <trkpt lat="51.01485" lon="2.40144">
        <ele>1</ele>
        <time>2019-11-26T08:41:31.000Z</time>
      </trkpt>
      <trkpt lat="51.0149" lon="2.40147">
        <ele>1</ele>
        <time>2019-11-26T08:41:32.000Z</time>
      </trkpt>
      <trkpt lat="51.01494" lon="2.40151">
        <ele>1</ele>
        <time>2019-11-26T08:41:33.000Z</time>
      </trkpt>
      <trkpt lat="51.01499" lon="2.40157">
        <ele>1</ele>
        <time>2019-11-26T08:41:37.000Z</time>
      </trkpt>
      <trkpt lat="51.015" lon="2.40161">
        <ele>1</ele>
        <time>2019-11-26T08:41:41.000Z</time>
      </trkpt>
      <trkpt lat="51.01506" lon="2.40217">
        <ele>1</ele>
        <time>2019-11-26T08:41:49.000Z</time>
      </trkpt>
      <trkpt lat="51.01506" lon="2.40281">
        <ele>1</ele>
        <time>2019-11-26T08:41:56.000Z</time>
      </trkpt>
      <trkpt lat="51.01503" lon="2.40357">
        <ele>2</ele>
        <time>2019-11-26T08:42:04.000Z</time>
      </trkpt>
      <trkpt lat="51.01504" lon="2.40377">
        <ele>2</ele>
        <time>2019-11-26T08:42:06.000Z</time>
      </trkpt>
      <trkpt lat="51.01503" lon="2.40405">
        <ele>2</ele>
        <time>2019-11-26T08:42:09.000Z</time>
      </trkpt>
      <trkpt lat="51.01499" lon="2.4045">
        <ele>1</ele>
        <time>2019-11-26T08:42:14.000Z</time>
      </trkpt>
      <trkpt lat="51.01498" lon="2.40469">
        <ele>1</ele>
        <time>2019-11-26T08:42:16.000Z</time>
      </trkpt>
      <trkpt lat="51.01496" lon="2.40487">
        <ele>1</ele>
        <time>2019-11-26T08:42:18.000Z</time>
      </trkpt>
      <trkpt lat="51.01474" lon="2.40515">
        <ele>1</ele>
        <time>2019-11-26T08:42:23.000Z</time>
      </trkpt>
      <trkpt lat="51.01469" lon="2.40519">
        <ele>1</ele>
        <time>2019-11-26T08:42:24.000Z</time>
      </trkpt>
      <trkpt lat="51.01414" lon="2.40554">
        <ele>1</ele>
        <time>2019-11-26T08:42:34.000Z</time>
      </trkpt>
      <trkpt lat="51.01409" lon="2.40557">
        <ele>1</ele>
        <time>2019-11-26T08:42:35.000Z</time>
      </trkpt>
      <trkpt lat="51.01356" lon="2.40592">
        <ele>1</ele>
        <time>2019-11-26T08:42:45.000Z</time>
      </trkpt>
      <trkpt lat="51.01352" lon="2.40646">
        <ele>2</ele>
        <time>2019-11-26T08:42:52.000Z</time>
      </trkpt>
      <trkpt lat="51.0137" lon="2.40715">
        <ele>2</ele>
        <time>2019-11-26T08:43:00.000Z</time>
      </trkpt>
      <trkpt lat="51.01354" lon="2.40753">
        <ele>2</ele>
        <time>2019-11-26T08:43:06.000Z</time>
      </trkpt>
      <trkpt lat="51.01341" lon="2.40769">
        <ele>2</ele>
        <time>2019-11-26T08:43:09.000Z</time>
      </trkpt>
      <trkpt lat="51.01333" lon="2.40789">
        <ele>1</ele>
        <time>2019-11-26T08:43:12.000Z</time>
      </trkpt>
      <trkpt lat="51.0133" lon="2.40878">
        <ele>1</ele>
        <time>2019-11-26T08:43:22.000Z</time>
      </trkpt>
      <trkpt lat="51.01344" lon="2.40961">
        <ele>1</ele>
        <time>2019-11-26T08:43:31.000Z</time>
      </trkpt>
      <trkpt lat="51.01345" lon="2.4097">
        <ele>1</ele>
        <time>2019-11-26T08:43:32.000Z</time>
      </trkpt>
      <trkpt lat="51.01357" lon="2.41026">
        <ele>1.9</ele>
        <time>2019-11-26T08:43:38.000Z</time>
      </trkpt>
      <trkpt lat="51.0136" lon="2.4106">
        <ele>3</ele>
        <time>2019-11-26T08:43:42.000Z</time>
      </trkpt>
      <trkpt lat="51.01337" lon="2.41097">
        <ele>1</ele>
        <time>2019-11-26T08:43:48.000Z</time>
      </trkpt>
      <trkpt lat="51.0131" lon="2.41128">
        <ele>1</ele>
        <time>2019-11-26T08:43:54.000Z</time>
      </trkpt>
      <trkpt lat="51.01275" lon="2.41143">
        <ele>1</ele>
        <time>2019-11-26T08:44:01.000Z</time>
      </trkpt>
      <trkpt lat="51.0125" lon="2.41151">
        <ele>1</ele>
        <time>2019-11-26T08:44:06.000Z</time>
      </trkpt>
      <trkpt lat="51.01245" lon="2.41154">
        <ele>1</ele>
        <time>2019-11-26T08:44:07.000Z</time>
      </trkpt>
      <trkpt lat="51.01214" lon="2.41176">
        <ele>2</ele>
        <time>2019-11-26T08:44:15.000Z</time>
      </trkpt>
      <trkpt lat="51.01207" lon="2.41194">
        <ele>2</ele>
        <time>2019-11-26T08:44:20.000Z</time>
      </trkpt>
      <trkpt lat="51.01197" lon="2.41201">
        <ele>2</ele>
        <time>2019-11-26T08:44:24.000Z</time>
      </trkpt>
      <trkpt lat="51.01182" lon="2.41215">
        <ele>2</ele>
        <time>2019-11-26T08:44:28.000Z</time>
      </trkpt>
      <trkpt lat="51.01154" lon="2.41244">
        <ele>2</ele>
        <time>2019-11-26T08:44:35.000Z</time>
      </trkpt>
      <trkpt lat="51.0115" lon="2.41249">
        <ele>2</ele>
        <time>2019-11-26T08:44:36.000Z</time>
      </trkpt>
      <trkpt lat="51.01114" lon="2.4129">
        <ele>1</ele>
        <time>2019-11-26T08:44:45.000Z</time>
      </trkpt>
      <trkpt lat="51.01083" lon="2.41331">
        <ele>2</ele>
        <time>2019-11-26T08:44:53.000Z</time>
      </trkpt>
      <trkpt lat="51.01053" lon="2.41372">
        <ele>2</ele>
        <time>2019-11-26T08:45:01.000Z</time>
      </trkpt>
      <trkpt lat="51.01047" lon="2.41381">
        <ele>2</ele>
        <time>2019-11-26T08:45:03.000Z</time>
      </trkpt>
      <trkpt lat="51.01014" lon="2.41426">
        <ele>2</ele>
        <time>2019-11-26T08:45:13.000Z</time>
      </trkpt>
      <trkpt lat="51.01012" lon="2.41433">
        <ele>2</ele>
        <time>2019-11-26T08:45:15.000Z</time>
      </trkpt>
      <trkpt lat="51.0102" lon="2.41447">
        <ele>2</ele>
        <time>2019-11-26T08:45:20.000Z</time>
      </trkpt>
      <trkpt lat="51.01029" lon="2.41466">
        <ele>2</ele>
        <time>2019-11-26T08:45:24.000Z</time>
      </trkpt>
      <trkpt lat="51.01022" lon="2.41503">
        <ele>2</ele>
        <time>2019-11-26T08:45:29.000Z</time>
      </trkpt>
      <trkpt lat="51.01005" lon="2.41564">
        <ele>2</ele>
        <time>2019-11-26T08:45:37.000Z</time>
      </trkpt>
      <trkpt lat="51.00998" lon="2.41577">
        <ele>2</ele>
        <time>2019-11-26T08:45:39.000Z</time>
      </trkpt>
      <trkpt lat="51.00984" lon="2.41602">
        <ele>1.6</ele>
        <time>2019-11-26T08:45:43.000Z</time>
      </trkpt>
      <trkpt lat="51.00978" lon="2.41616">
        <ele>1.5</ele>
        <time>2019-11-26T08:45:45.000Z</time>
      </trkpt>
      <trkpt lat="51.00961" lon="2.41634">
        <ele>2.4</ele>
        <time>2019-11-26T08:45:49.000Z</time>
      </trkpt>
      <trkpt lat="51.00909" lon="2.41677">
        <ele>1</ele>
        <time>2019-11-26T08:46:00.000Z</time>
      </trkpt>
      <trkpt lat="51.00904" lon="2.41681">
        <ele>1</ele>
        <time>2019-11-26T08:46:01.000Z</time>
      </trkpt>
      <trkpt lat="51.00899" lon="2.41685">
        <ele>1</ele>
        <time>2019-11-26T08:46:02.000Z</time>
      </trkpt>
      <trkpt lat="51.00849" lon="2.41723">
        <ele>1</ele>
        <time>2019-11-26T08:46:12.000Z</time>
      </trkpt>
      <trkpt lat="51.00807" lon="2.41779">
        <ele>1</ele>
        <time>2019-11-26T08:46:22.000Z</time>
      </trkpt>
      <trkpt lat="51.0077" lon="2.41845">
        <ele>2</ele>
        <time>2019-11-26T08:46:32.000Z</time>
      </trkpt>
      <trkpt lat="51.00751" lon="2.41875">
        <ele>2</ele>
        <time>2019-11-26T08:46:37.000Z</time>
      </trkpt>
      <trkpt lat="51.00709" lon="2.41924">
        <ele>2</ele>
        <time>2019-11-26T08:46:46.000Z</time>
      </trkpt>
      <trkpt lat="51.00661" lon="2.41979">
        <ele>2</ele>
        <time>2019-11-26T08:46:56.000Z</time>
      </trkpt>
      <trkpt lat="51.00656" lon="2.41984">
        <ele>2</ele>
        <time>2019-11-26T08:46:57.000Z</time>
      </trkpt>
      <trkpt lat="51.00619" lon="2.42014">
        <ele>2</ele>
        <time>2019-11-26T08:47:04.000Z</time>
      </trkpt>
      <trkpt lat="51.0059" lon="2.42013">
        <ele>2</ele>
        <time>2019-11-26T08:47:09.000Z</time>
      </trkpt>
      <trkpt lat="51.00568" lon="2.42009">
        <ele>2</ele>
        <time>2019-11-26T08:47:13.000Z</time>
      </trkpt>
      <trkpt lat="51.00545" lon="2.42034">
        <ele>1.9</ele>
        <time>2019-11-26T08:47:18.000Z</time>
      </trkpt>
      <trkpt lat="51.00529" lon="2.42062">
        <ele>1.3</ele>
        <time>2019-11-26T08:47:22.000Z</time>
      </trkpt>
      <trkpt lat="51.00491" lon="2.42129">
        <ele>1</ele>
        <time>2019-11-26T08:47:32.000Z</time>
      </trkpt>
      <trkpt lat="51.00447" lon="2.42189">
        <ele>1</ele>
        <time>2019-11-26T08:47:42.000Z</time>
      </trkpt>
      <trkpt lat="51.00427" lon="2.42195">
        <ele>1</ele>
        <time>2019-11-26T08:47:46.000Z</time>
      </trkpt>
      <trkpt lat="51.00413" lon="2.42184">
        <ele>1</ele>
        <time>2019-11-26T08:47:49.000Z</time>
      </trkpt>
      <trkpt lat="51.00359" lon="2.42155">
        <ele>1</ele>
        <time>2019-11-26T08:47:59.000Z</time>
      </trkpt>
      <trkpt lat="51.00354" lon="2.42156">
        <ele>1</ele>
        <time>2019-11-26T08:48:00.000Z</time>
      </trkpt>
      <trkpt lat="51.00334" lon="2.42163">
        <ele>1</ele>
        <time>2019-11-26T08:48:04.000Z</time>
      </trkpt>
      <trkpt lat="51.00324" lon="2.42168">
        <ele>2</ele>
        <time>2019-11-26T08:48:07.000Z</time>
      </trkpt>
      <trkpt lat="51.00321" lon="2.42166">
        <ele>2</ele>
        <time>2019-11-26T08:48:08.000Z</time>
      </trkpt>
      <trkpt lat="51.00315" lon="2.42142">
        <ele>2</ele>
        <time>2019-11-26T08:48:12.000Z</time>
      </trkpt>
      <trkpt lat="51.00303" lon="2.42073">
        <ele>2</ele>
        <time>2019-11-26T08:48:20.000Z</time>
      </trkpt>
      <trkpt lat="51.00287" lon="2.41991">
        <ele>2</ele>
        <time>2019-11-26T08:48:29.000Z</time>
      </trkpt>
      <trkpt lat="51.0027" lon="2.4192">
        <ele>2</ele>
        <time>2019-11-26T08:48:37.000Z</time>
      </trkpt>
      <trkpt lat="51.00248" lon="2.41833">
        <ele>2</ele>
        <time>2019-11-26T08:48:47.000Z</time>
      </trkpt>
      <trkpt lat="51.00231" lon="2.41752">
        <ele>2</ele>
        <time>2019-11-26T08:48:56.000Z</time>
      </trkpt>
      <trkpt lat="51.00225" lon="2.41661">
        <ele>1</ele>
        <time>2019-11-26T08:49:05.000Z</time>
      </trkpt>
      <trkpt lat="51.00217" lon="2.41573">
        <ele>1</ele>
        <time>2019-11-26T08:49:14.000Z</time>
      </trkpt>
      <trkpt lat="51.00193" lon="2.41493">
        <ele>1</ele>
        <time>2019-11-26T08:49:23.000Z</time>
      </trkpt>
      <trkpt lat="51.00162" lon="2.4142">
        <ele>1</ele>
        <time>2019-11-26T08:49:32.000Z</time>
      </trkpt>
      <trkpt lat="51.00133" lon="2.41346">
        <ele>1.6</ele>
        <time>2019-11-26T08:49:41.000Z</time>
      </trkpt>
      <trkpt lat="51.00125" lon="2.41257">
        <ele>2</ele>
        <time>2019-11-26T08:49:50.000Z</time>
      </trkpt>
      <trkpt lat="51.00134" lon="2.41168">
        <ele>2</ele>
        <time>2019-11-26T08:49:59.000Z</time>
      </trkpt>
      <trkpt lat="51.00143" lon="2.41079">
        <ele>1</ele>
        <time>2019-11-26T08:50:08.000Z</time>
      </trkpt>
      <trkpt lat="51.00144" lon="2.4105">
        <ele>2</ele>
        <time>2019-11-26T08:50:11.000Z</time>
      </trkpt>
      <trkpt lat="51.00134" lon="2.40991">
        <ele>3</ele>
        <time>2019-11-26T08:50:17.000Z</time>
      </trkpt>
      <trkpt lat="51.00119" lon="2.40936">
        <ele>2</ele>
        <time>2019-11-26T08:50:23.000Z</time>
      </trkpt>
      <trkpt lat="51.00107" lon="2.40874">
        <ele>2</ele>
        <time>2019-11-26T08:50:30.000Z</time>
      </trkpt>
      <trkpt lat="51.00102" lon="2.40817">
        <ele>2</ele>
        <time>2019-11-26T08:50:36.000Z</time>
      </trkpt>
      <trkpt lat="51.00106" lon="2.40787">
        <ele>1</ele>
        <time>2019-11-26T08:50:39.000Z</time>
      </trkpt>
      <trkpt lat="51.00122" lon="2.40702">
        <ele>1</ele>
        <time>2019-11-26T08:50:48.000Z</time>
      </trkpt>
      <trkpt lat="51.00124" lon="2.40685">
        <ele>1</ele>
        <time>2019-11-26T08:50:50.000Z</time>
      </trkpt>
      <trkpt lat="51.00123" lon="2.40667">
        <ele>1</ele>
        <time>2019-11-26T08:50:54.000Z</time>
      </trkpt>
      <trkpt lat="51.00121" lon="2.40661">
        <ele>2</ele>
        <time>2019-11-26T08:50:58.000Z</time>
      </trkpt>
      <trkpt lat="51.00114" lon="2.4066">
        <ele>2</ele>
        <time>2019-11-26T08:51:02.000Z</time>
      </trkpt>
      <trkpt lat="51.00088" lon="2.40656">
        <ele>2</ele>
        <time>2019-11-26T08:51:09.000Z</time>
      </trkpt>
      <trkpt lat="51.00068" lon="2.40654">
        <ele>1</ele>
        <time>2019-11-26T08:51:14.000Z</time>
      </trkpt>
      <trkpt lat="51.00054" lon="2.4065">
        <ele>1</ele>
        <time>2019-11-26T08:51:19.000Z</time>
      </trkpt>
      <trkpt lat="51.0004" lon="2.40619">
        <ele>1</ele>
        <time>2019-11-26T08:51:26.000Z</time>
      </trkpt>
      <trkpt lat="51.00028" lon="2.40595">
        <ele>1</ele>
        <time>2019-11-26T08:51:31.000Z</time>
      </trkpt>
      <trkpt lat="51.00017" lon="2.40573">
        <ele>2</ele>
        <time>2019-11-26T08:51:36.000Z</time>
      </trkpt>
      <trkpt lat="50.99986" lon="2.40506">
        <ele>2</ele>
        <time>2019-11-26T08:51:51.000Z</time>
      </trkpt>
      <trkpt lat="50.99968" lon="2.40478">
        <ele>2</ele>
        <time>2019-11-26T08:52:00.000Z</time>
      </trkpt>
      <trkpt lat="50.99961" lon="2.40469">
        <ele>2</ele>
        <time>2019-11-26T08:55:03.000Z</time>
      </trkpt>
      <trkpt lat="50.99959" lon="2.40465">
        <ele>2</ele>
        <time>2019-11-26T08:55:04.000Z</time>
      </trkpt>
      <trkpt lat="50.99954" lon="2.40456">
        <ele>2</ele>
        <time>2019-11-26T08:55:06.000Z</time>
      </trkpt>
      <trkpt lat="50.99952" lon="2.40451">
        <ele>2</ele>
        <time>2019-11-26T08:55:07.000Z</time>
      </trkpt>
      <trkpt lat="50.99946" lon="2.40441">
        <ele>2</ele>
        <time>2019-11-26T08:55:09.000Z</time>
      </trkpt>
      <trkpt lat="50.99941" lon="2.40431">
        <ele>2</ele>
        <time>2019-11-26T08:55:11.000Z</time>
      </trkpt>
      <trkpt lat="50.99938" lon="2.40425">
        <ele>2</ele>
        <time>2019-11-26T08:55:12.000Z</time>
      </trkpt>
      <trkpt lat="50.99928" lon="2.40407">
        <ele>2</ele>
        <time>2019-11-26T08:55:18.000Z</time>
      </trkpt>
      <trkpt lat="50.99924" lon="2.40404">
        <ele>2</ele>
        <time>2019-11-26T08:55:21.000Z</time>
      </trkpt>
      <trkpt lat="50.99917" lon="2.40416">
        <ele>2</ele>
        <time>2019-11-26T08:55:25.000Z</time>
      </trkpt>
      <trkpt lat="50.99922" lon="2.40456">
        <ele>2</ele>
        <time>2019-11-26T08:55:31.000Z</time>
      </trkpt>
      <trkpt lat="50.9995" lon="2.40532">
        <ele>2</ele>
        <time>2019-11-26T08:55:41.000Z</time>
      </trkpt>
      <trkpt lat="50.99981" lon="2.40604">
        <ele>2</ele>
        <time>2019-11-26T08:55:51.000Z</time>
      </trkpt>
      <trkpt lat="50.99984" lon="2.40612">
        <ele>2</ele>
        <time>2019-11-26T08:55:52.000Z</time>
      </trkpt>
      <trkpt lat="50.99992" lon="2.40647">
        <ele>2</ele>
        <time>2019-11-26T08:55:56.000Z</time>
      </trkpt>
      <trkpt lat="50.99978" lon="2.40678">
        <ele>1</ele>
        <time>2019-11-26T08:56:01.000Z</time>
      </trkpt>
      <trkpt lat="50.99939" lon="2.40706">
        <ele>2</ele>
        <time>2019-11-26T08:56:09.000Z</time>
      </trkpt>
      <trkpt lat="50.99934" lon="2.40709">
        <ele>2</ele>
        <time>2019-11-26T08:56:10.000Z</time>
      </trkpt>
      <trkpt lat="50.9991" lon="2.4072">
        <ele>2</ele>
        <time>2019-11-26T08:56:14.000Z</time>
      </trkpt>
      <trkpt lat="50.99868" lon="2.40746">
        <ele>3</ele>
        <time>2019-11-26T08:56:21.000Z</time>
      </trkpt>
      <trkpt lat="50.99852" lon="2.40757">
        <ele>2</ele>
        <time>2019-11-26T08:56:24.000Z</time>
      </trkpt>
      <trkpt lat="50.99841" lon="2.40761">
        <ele>2</ele>
        <time>2019-11-26T08:56:26.000Z</time>
      </trkpt>
      <trkpt lat="50.99829" lon="2.4076">
        <ele>3</ele>
        <time>2019-11-26T08:56:28.000Z</time>
      </trkpt>
      <trkpt lat="50.99773" lon="2.40744">
        <ele>3</ele>
        <time>2019-11-26T08:56:37.000Z</time>
      </trkpt>
      <trkpt lat="50.99719" lon="2.40729">
        <ele>2</ele>
        <time>2019-11-26T08:56:46.000Z</time>
      </trkpt>
      <trkpt lat="50.99697" lon="2.40724">
        <ele>2</ele>
        <time>2019-11-26T08:56:50.000Z</time>
      </trkpt>
      <trkpt lat="50.99686" lon="2.40723">
        <ele>2</ele>
        <time>2019-11-26T08:56:53.000Z</time>
      </trkpt>
      <trkpt lat="50.99676" lon="2.4074">
        <ele>1</ele>
        <time>2019-11-26T08:56:57.000Z</time>
      </trkpt>
      <trkpt lat="50.99673" lon="2.40746">
        <ele>1</ele>
        <time>2019-11-26T08:56:58.000Z</time>
      </trkpt>
      <trkpt lat="50.99644" lon="2.40767">
        <ele>2</ele>
        <time>2019-11-26T08:57:05.000Z</time>
      </trkpt>
      <trkpt lat="50.99629" lon="2.4077">
        <ele>2</ele>
        <time>2019-11-26T08:57:08.000Z</time>
      </trkpt>
      <trkpt lat="50.99585" lon="2.40769">
        <ele>3</ele>
        <time>2019-11-26T08:57:15.000Z</time>
      </trkpt>
      <trkpt lat="50.99566" lon="2.40771">
        <ele>4</ele>
        <time>2019-11-26T08:57:18.000Z</time>
      </trkpt>
      <trkpt lat="50.99559" lon="2.40771">
        <ele>4</ele>
        <time>2019-11-26T08:57:19.000Z</time>
      </trkpt>
      <trkpt lat="50.995" lon="2.40759">
        <ele>5</ele>
        <time>2019-11-26T08:57:28.000Z</time>
      </trkpt>
      <trkpt lat="50.99482" lon="2.40751">
        <ele>5</ele>
        <time>2019-11-26T08:57:31.000Z</time>
      </trkpt>
      <trkpt lat="50.99469" lon="2.40748">
        <ele>4</ele>
        <time>2019-11-26T08:57:33.000Z</time>
      </trkpt>
      <trkpt lat="50.99432" lon="2.40741">
        <ele>4</ele>
        <time>2019-11-26T08:57:39.000Z</time>
      </trkpt>
      <trkpt lat="50.99413" lon="2.40772">
        <ele>4</ele>
        <time>2019-11-26T08:57:44.000Z</time>
      </trkpt>
      <trkpt lat="50.99412" lon="2.4078">
        <ele>5</ele>
        <time>2019-11-26T08:57:45.000Z</time>
      </trkpt>
      <trkpt lat="50.99411" lon="2.40812">
        <ele>5</ele>
        <time>2019-11-26T08:57:49.000Z</time>
      </trkpt>
      <trkpt lat="50.99412" lon="2.40838">
        <ele>5</ele>
        <time>2019-11-26T08:57:52.000Z</time>
      </trkpt>
      <trkpt lat="50.99401" lon="2.40877">
        <ele>6</ele>
        <time>2019-11-26T08:57:57.000Z</time>
      </trkpt>
      <trkpt lat="50.99391" lon="2.40896">
        <ele>6</ele>
        <time>2019-11-26T08:58:00.000Z</time>
      </trkpt>
      <trkpt lat="50.99388" lon="2.40927">
        <ele>6</ele>
        <time>2019-11-26T08:58:04.000Z</time>
      </trkpt>
      <trkpt lat="50.99379" lon="2.40958">
        <ele>6</ele>
        <time>2019-11-26T08:58:08.000Z</time>
      </trkpt>
      <trkpt lat="50.99373" lon="2.40973">
        <ele>7</ele>
        <time>2019-11-26T08:58:10.000Z</time>
      </trkpt>
      <trkpt lat="50.9935" lon="2.40995">
        <ele>7</ele>
        <time>2019-11-26T08:58:15.000Z</time>
      </trkpt>
      <trkpt lat="50.99328" lon="2.4101">
        <ele>7</ele>
        <time>2019-11-26T08:58:19.000Z</time>
      </trkpt>
      <trkpt lat="50.99309" lon="2.41027">
        <ele>7</ele>
        <time>2019-11-26T08:58:23.000Z</time>
      </trkpt>
      <trkpt lat="50.99295" lon="2.41041">
        <ele>7</ele>
        <time>2019-11-26T08:58:26.000Z</time>
      </trkpt>
      <trkpt lat="50.99285" lon="2.41072">
        <ele>7</ele>
        <time>2019-11-26T08:58:30.000Z</time>
      </trkpt>
      <trkpt lat="50.99273" lon="2.41131">
        <ele>6</ele>
        <time>2019-11-26T08:58:37.000Z</time>
      </trkpt>
      <trkpt lat="50.99266" lon="2.41176">
        <ele>5</ele>
        <time>2019-11-26T08:58:42.000Z</time>
      </trkpt>
      <trkpt lat="50.99252" lon="2.41253">
        <ele>4</ele>
        <time>2019-11-26T08:58:50.000Z</time>
      </trkpt>
      <trkpt lat="50.99234" lon="2.4128">
        <ele>3</ele>
        <time>2019-11-26T08:58:54.000Z</time>
      </trkpt>
      <trkpt lat="50.99206" lon="2.41308">
        <ele>3</ele>
        <time>2019-11-26T08:58:59.000Z</time>
      </trkpt>
      <trkpt lat="50.9917" lon="2.41331">
        <ele>2</ele>
        <time>2019-11-26T08:59:05.000Z</time>
      </trkpt>
      <trkpt lat="50.99159" lon="2.41337">
        <ele>2</ele>
        <time>2019-11-26T08:59:07.000Z</time>
      </trkpt>
      <trkpt lat="50.99133" lon="2.41327">
        <ele>2</ele>
        <time>2019-11-26T08:59:12.000Z</time>
      </trkpt>
      <trkpt lat="50.99129" lon="2.41325">
        <ele>2</ele>
        <time>2019-11-26T08:59:13.000Z</time>
      </trkpt>
      <trkpt lat="50.99106" lon="2.41329">
        <ele>2</ele>
        <time>2019-11-26T08:59:18.000Z</time>
      </trkpt>
      <trkpt lat="50.99087" lon="2.41337">
        <ele>1</ele>
        <time>2019-11-26T08:59:21.000Z</time>
      </trkpt>
      <trkpt lat="50.99068" lon="2.41361">
        <ele>1</ele>
        <time>2019-11-26T08:59:25.000Z</time>
      </trkpt>
      <trkpt lat="50.99063" lon="2.41366">
        <ele>1</ele>
        <time>2019-11-26T08:59:26.000Z</time>
      </trkpt>
      <trkpt lat="50.9904" lon="2.41378">
        <ele>1</ele>
        <time>2019-11-26T08:59:30.000Z</time>
      </trkpt>
      <trkpt lat="50.9903" lon="2.41382">
        <ele>1</ele>
        <time>2019-11-26T08:59:32.000Z</time>
      </trkpt>
      <trkpt lat="50.98998" lon="2.41403">
        <ele>3</ele>
        <time>2019-11-26T08:59:38.000Z</time>
      </trkpt>
      <trkpt lat="50.98987" lon="2.41408">
        <ele>3</ele>
        <time>2019-11-26T08:59:40.000Z</time>
      </trkpt>
      <trkpt lat="50.98965" lon="2.41425">
        <ele>4</ele>
        <time>2019-11-26T08:59:44.000Z</time>
      </trkpt>
      <trkpt lat="50.98934" lon="2.41454">
        <ele>4</ele>
        <time>2019-11-26T08:59:50.000Z</time>
      </trkpt>
      <trkpt lat="50.98912" lon="2.41458">
        <ele>5</ele>
        <time>2019-11-26T08:59:54.000Z</time>
      </trkpt>
      <trkpt lat="50.98863" lon="2.41463">
        <ele>5</ele>
        <time>2019-11-26T09:00:02.000Z</time>
      </trkpt>
      <trkpt lat="50.98833" lon="2.41468">
        <ele>4</ele>
        <time>2019-11-26T09:00:07.000Z</time>
      </trkpt>
      <trkpt lat="50.98777" lon="2.41442">
        <ele>5</ele>
        <time>2019-11-26T09:00:18.000Z</time>
      </trkpt>
      <trkpt lat="50.98741" lon="2.41432">
        <ele>5</ele>
        <time>2019-11-26T09:00:24.000Z</time>
      </trkpt>
      <trkpt lat="50.98729" lon="2.41425">
        <ele>5</ele>
        <time>2019-11-26T09:00:26.000Z</time>
      </trkpt>
      <trkpt lat="50.98703" lon="2.41415">
        <ele>5</ele>
        <time>2019-11-26T09:00:32.000Z</time>
      </trkpt>
      <trkpt lat="50.98697" lon="2.41378">
        <ele>6</ele>
        <time>2019-11-26T09:00:37.000Z</time>
      </trkpt>
      <trkpt lat="50.98688" lon="2.41308">
        <ele>6</ele>
        <time>2019-11-26T09:00:45.000Z</time>
      </trkpt>
      <trkpt lat="50.98643" lon="2.41272">
        <ele>5</ele>
        <time>2019-11-26T09:00:54.000Z</time>
      </trkpt>
      <trkpt lat="50.98631" lon="2.413">
        <ele>4</ele>
        <time>2019-11-26T09:00:59.000Z</time>
      </trkpt>
      <trkpt lat="50.98628" lon="2.41324">
        <ele>4</ele>
        <time>2019-11-26T09:01:02.000Z</time>
      </trkpt>
      <trkpt lat="50.98623" lon="2.41352">
        <ele>3</ele>
        <time>2019-11-26T09:01:06.000Z</time>
      </trkpt>
      <trkpt lat="50.98616" lon="2.4138">
        <ele>3</ele>
        <time>2019-11-26T09:01:11.000Z</time>
      </trkpt>
      <trkpt lat="50.98606" lon="2.41438">
        <ele>3</ele>
        <time>2019-11-26T09:01:21.000Z</time>
      </trkpt>
      <trkpt lat="50.98601" lon="2.41466">
        <ele>3</ele>
        <time>2019-11-26T09:01:26.000Z</time>
      </trkpt>
      <trkpt lat="50.98598" lon="2.41501">
        <ele>4</ele>
        <time>2019-11-26T09:01:32.000Z</time>
      </trkpt>
      <trkpt lat="50.98598" lon="2.41509">
        <ele>4</ele>
        <time>2019-11-26T09:01:34.000Z</time>
      </trkpt>
      <trkpt lat="50.98597" lon="2.41548">
        <ele>3</ele>
        <time>2019-11-26T09:01:43.000Z</time>
      </trkpt>
      <trkpt lat="50.98595" lon="2.41569">
        <ele>4</ele>
        <time>2019-11-26T09:01:47.000Z</time>
      </trkpt>
      <trkpt lat="50.98594" lon="2.41574">
        <ele>4</ele>
        <time>2019-11-26T09:01:48.000Z</time>
      </trkpt>
      <trkpt lat="50.98581" lon="2.41586">
        <ele>4</ele>
        <time>2019-11-26T09:01:52.000Z</time>
      </trkpt>
      <trkpt lat="50.9855" lon="2.416">
        <ele>3</ele>
        <time>2019-11-26T09:01:58.000Z</time>
      </trkpt>
      <trkpt lat="50.98545" lon="2.41602">
        <ele>3</ele>
        <time>2019-11-26T09:01:59.000Z</time>
      </trkpt>
      <trkpt lat="50.98539" lon="2.41636">
        <ele>4</ele>
        <time>2019-11-26T09:02:06.000Z</time>
      </trkpt>
      <trkpt lat="50.9854" lon="2.41644">
        <ele>4</ele>
        <time>2019-11-26T09:02:07.000Z</time>
      </trkpt>
      <trkpt lat="50.98537" lon="2.41708">
        <ele>4</ele>
        <time>2019-11-26T09:02:14.000Z</time>
      </trkpt>
      <trkpt lat="50.98525" lon="2.41784">
        <ele>4</ele>
        <time>2019-11-26T09:02:23.000Z</time>
      </trkpt>
      <trkpt lat="50.98519" lon="2.41798">
        <ele>4</ele>
        <time>2019-11-26T09:02:25.000Z</time>
      </trkpt>
      <trkpt lat="50.98493" lon="2.41822">
        <ele>3</ele>
        <time>2019-11-26T09:02:31.000Z</time>
      </trkpt>
      <trkpt lat="50.98483" lon="2.41826">
        <ele>3</ele>
        <time>2019-11-26T09:02:33.000Z</time>
      </trkpt>
      <trkpt lat="50.98446" lon="2.41865">
        <ele>2</ele>
        <time>2019-11-26T09:02:41.000Z</time>
      </trkpt>
      <trkpt lat="50.98434" lon="2.4189">
        <ele>2</ele>
        <time>2019-11-26T09:02:44.000Z</time>
      </trkpt>
      <trkpt lat="50.984" lon="2.41918">
        <ele>2</ele>
        <time>2019-11-26T09:02:50.000Z</time>
      </trkpt>
      <trkpt lat="50.98349" lon="2.41935">
        <ele>2</ele>
        <time>2019-11-26T09:02:59.000Z</time>
      </trkpt>
      <trkpt lat="50.98343" lon="2.41938">
        <ele>2</ele>
        <time>2019-11-26T09:03:00.000Z</time>
      </trkpt>
      <trkpt lat="50.98298" lon="2.41986">
        <ele>1</ele>
        <time>2019-11-26T09:03:09.000Z</time>
      </trkpt>
      <trkpt lat="50.98293" lon="2.41991">
        <ele>1</ele>
        <time>2019-11-26T09:03:10.000Z</time>
      </trkpt>
      <trkpt lat="50.98272" lon="2.42009">
        <ele>1</ele>
        <time>2019-11-26T09:03:14.000Z</time>
      </trkpt>
      <trkpt lat="50.98223" lon="2.42052">
        <ele>2</ele>
        <time>2019-11-26T09:03:23.000Z</time>
      </trkpt>
      <trkpt lat="50.98184" lon="2.42117">
        <ele>2</ele>
        <time>2019-11-26T09:03:32.000Z</time>
      </trkpt>
      <trkpt lat="50.98143" lon="2.42174">
        <ele>3</ele>
        <time>2019-11-26T09:03:41.000Z</time>
      </trkpt>
      <trkpt lat="50.98112" lon="2.42209">
        <ele>3</ele>
        <time>2019-11-26T09:03:48.000Z</time>
      </trkpt>
      <trkpt lat="50.98079" lon="2.42213">
        <ele>3</ele>
        <time>2019-11-26T09:03:54.000Z</time>
      </trkpt>
      <trkpt lat="50.98067" lon="2.42209">
        <ele>3</ele>
        <time>2019-11-26T09:03:56.000Z</time>
      </trkpt>
      <trkpt lat="50.98042" lon="2.42212">
        <ele>3</ele>
        <time>2019-11-26T09:04:00.000Z</time>
      </trkpt>
      <trkpt lat="50.98024" lon="2.4222">
        <ele>3</ele>
        <time>2019-11-26T09:04:03.000Z</time>
      </trkpt>
      <trkpt lat="50.98011" lon="2.42229">
        <ele>3</ele>
        <time>2019-11-26T09:04:05.000Z</time>
      </trkpt>
      <trkpt lat="50.97968" lon="2.42242">
        <ele>3</ele>
        <time>2019-11-26T09:04:12.000Z</time>
      </trkpt>
      <trkpt lat="50.97936" lon="2.42237">
        <ele>4</ele>
        <time>2019-11-26T09:04:17.000Z</time>
      </trkpt>
      <trkpt lat="50.97922" lon="2.42239">
        <ele>4</ele>
        <time>2019-11-26T09:04:19.000Z</time>
      </trkpt>
      <trkpt lat="50.97865" lon="2.42256">
        <ele>4</ele>
        <time>2019-11-26T09:04:28.000Z</time>
      </trkpt>
      <trkpt lat="50.97821" lon="2.42252">
        <ele>3</ele>
        <time>2019-11-26T09:04:35.000Z</time>
      </trkpt>
      <trkpt lat="50.97801" lon="2.42243">
        <ele>2</ele>
        <time>2019-11-26T09:04:38.000Z</time>
      </trkpt>
      <trkpt lat="50.9777" lon="2.4222">
        <ele>2</ele>
        <time>2019-11-26T09:04:43.000Z</time>
      </trkpt>
      <trkpt lat="50.97746" lon="2.42215">
        <ele>1</ele>
        <time>2019-11-26T09:04:47.000Z</time>
      </trkpt>
      <trkpt lat="50.97692" lon="2.42217">
        <ele>1</ele>
        <time>2019-11-26T09:04:55.000Z</time>
      </trkpt>
      <trkpt lat="50.97671" lon="2.42218">
        <ele>1</ele>
        <time>2019-11-26T09:04:59.000Z</time>
      </trkpt>
      <trkpt lat="50.97648" lon="2.42213">
        <ele>1</ele>
        <time>2019-11-26T09:05:04.000Z</time>
      </trkpt>
      <trkpt lat="50.97622" lon="2.42223">
        <ele>1</ele>
        <time>2019-11-26T09:05:08.000Z</time>
      </trkpt>
      <trkpt lat="50.97581" lon="2.42254">
        <ele>1</ele>
        <time>2019-11-26T09:05:15.000Z</time>
      </trkpt>
      <trkpt lat="50.97537" lon="2.4231">
        <ele>1</ele>
        <time>2019-11-26T09:05:25.000Z</time>
      </trkpt>
      <trkpt lat="50.97514" lon="2.42359">
        <ele>1</ele>
        <time>2019-11-26T09:05:34.000Z</time>
      </trkpt>
      <trkpt lat="50.97511" lon="2.42397">
        <ele>1</ele>
        <time>2019-11-26T09:05:40.000Z</time>
      </trkpt>
      <trkpt lat="50.9751" lon="2.42402">
        <ele>1</ele>
        <time>2019-11-26T09:05:41.000Z</time>
      </trkpt>
      <trkpt lat="50.97506" lon="2.42405">
        <ele>1</ele>
        <time>2019-11-26T09:05:45.000Z</time>
      </trkpt>
      <trkpt lat="50.97504" lon="2.42388">
        <ele>1</ele>
        <time>2019-11-26T09:05:50.000Z</time>
      </trkpt>
      <trkpt lat="50.97503" lon="2.42371">
        <ele>1</ele>
        <time>2019-11-26T09:05:54.000Z</time>
      </trkpt>
      <trkpt lat="50.97491" lon="2.42362">
        <ele>1</ele>
        <time>2019-11-26T09:05:59.000Z</time>
      </trkpt>
      <trkpt lat="50.97482" lon="2.4237">
        <ele>1</ele>
        <time>2019-11-26T09:06:03.000Z</time>
      </trkpt>
      <trkpt lat="50.97453" lon="2.42403">
        <ele>1</ele>
        <time>2019-11-26T09:06:12.000Z</time>
      </trkpt>
      <trkpt lat="50.97444" lon="2.42416">
        <ele>1</ele>
        <time>2019-11-26T09:06:15.000Z</time>
      </trkpt>
      <trkpt lat="50.97403" lon="2.42476">
        <ele>2</ele>
        <time>2019-11-26T09:06:29.000Z</time>
      </trkpt>
      <trkpt lat="50.97383" lon="2.42518">
        <ele>2</ele>
        <time>2019-11-26T09:06:36.000Z</time>
      </trkpt>
      <trkpt lat="50.97362" lon="2.426">
        <ele>2</ele>
        <time>2019-11-26T09:06:48.000Z</time>
      </trkpt>
      <trkpt lat="50.97384" lon="2.42682">
        <ele>3</ele>
        <time>2019-11-26T09:07:05.000Z</time>
      </trkpt>
      <trkpt lat="50.9739" lon="2.42696">
        <ele>3</ele>
        <time>2019-11-26T09:07:09.000Z</time>
      </trkpt>
      <trkpt lat="50.97403" lon="2.42698">
        <ele>3</ele>
        <time>2019-11-26T09:07:13.000Z</time>
      </trkpt>
      <trkpt lat="50.97458" lon="2.42705">
        <ele>3</ele>
        <time>2019-11-26T09:07:27.000Z</time>
      </trkpt>
      <trkpt lat="50.97476" lon="2.42787">
        <ele>2</ele>
        <time>2019-11-26T09:07:43.000Z</time>
      </trkpt>
      <trkpt lat="50.97477" lon="2.42865">
        <ele>1</ele>
        <time>2019-11-26T09:07:56.000Z</time>
      </trkpt>
      <trkpt lat="50.9745" lon="2.42941">
        <ele>1</ele>
        <time>2019-11-26T09:08:12.000Z</time>
      </trkpt>
      <trkpt lat="50.97451" lon="2.42993">
        <ele>1</ele>
        <time>2019-11-26T09:08:20.000Z</time>
      </trkpt>
      <trkpt lat="50.97451" lon="2.43009">
        <time>2019-11-26T09:08:22.000Z</time>
      </trkpt>
      <trkpt lat="50.97451" lon="2.43098">
        <time>2019-11-26T09:08:34.000Z</time>
      </trkpt>
      <trkpt lat="50.97464" lon="2.43184">
        <ele>1</ele>
        <time>2019-11-26T09:08:47.000Z</time>
      </trkpt>
      <trkpt lat="50.97467" lon="2.43213">
        <ele>1</ele>
        <time>2019-11-26T09:08:52.000Z</time>
      </trkpt>
      <trkpt lat="50.97478" lon="2.43249">
        <ele>1</ele>
        <time>2019-11-26T09:08:58.000Z</time>
      </trkpt>
      <trkpt lat="50.97481" lon="2.43261">
        <ele>1</ele>
        <time>2019-11-26T09:09:00.000Z</time>
      </trkpt>
      <trkpt lat="50.97488" lon="2.43348">
        <ele>1</ele>
        <time>2019-11-26T09:09:12.000Z</time>
      </trkpt>
      <trkpt lat="50.97472" lon="2.43432">
        <ele>1.5</ele>
        <time>2019-11-26T09:09:22.000Z</time>
      </trkpt>
      <trkpt lat="50.97435" lon="2.43493">
        <ele>1</ele>
        <time>2019-11-26T09:09:32.000Z</time>
      </trkpt>
      <trkpt lat="50.97385" lon="2.43536">
        <ele>2</ele>
        <time>2019-11-26T09:09:43.000Z</time>
      </trkpt>
      <trkpt lat="50.97334" lon="2.43581">
        <ele>2</ele>
        <time>2019-11-26T09:09:54.000Z</time>
      </trkpt>
      <trkpt lat="50.97325" lon="2.43589">
        <ele>2</ele>
        <time>2019-11-26T09:09:56.000Z</time>
      </trkpt>
      <trkpt lat="50.97305" lon="2.43593">
        <ele>2</ele>
        <time>2019-11-26T09:10:00.000Z</time>
      </trkpt>
      <trkpt lat="50.97273" lon="2.43531">
        <ele>2</ele>
        <time>2019-11-26T09:10:11.000Z</time>
      </trkpt>
      <trkpt lat="50.97272" lon="2.43504">
        <ele>2</ele>
        <time>2019-11-26T09:10:14.000Z</time>
      </trkpt>
      <trkpt lat="50.97269" lon="2.43486">
        <ele>2</ele>
        <time>2019-11-26T09:10:16.000Z</time>
      </trkpt>
      <trkpt lat="50.97248" lon="2.43397">
        <ele>3</ele>
        <time>2019-11-26T09:10:26.000Z</time>
      </trkpt>
      <trkpt lat="50.97235" lon="2.43359">
        <ele>3</ele>
        <time>2019-11-26T09:10:31.000Z</time>
      </trkpt>
      <trkpt lat="50.97235" lon="2.43324">
        <ele>3</ele>
        <time>2019-11-26T09:10:40.000Z</time>
      </trkpt>
      <trkpt lat="50.97249" lon="2.43331">
        <ele>3</ele>
        <time>2019-11-26T09:10:44.000Z</time>
      </trkpt>
      <trkpt lat="50.97267" lon="2.43357">
        <ele>3</ele>
        <time>2019-11-26T09:10:50.000Z</time>
      </trkpt>
      <trkpt lat="50.97271" lon="2.43389">
        <ele>2</ele>
        <time>2019-11-26T09:10:54.000Z</time>
      </trkpt>
      <trkpt lat="50.97278" lon="2.43452">
        <ele>2</ele>
        <time>2019-11-26T09:11:03.000Z</time>
      </trkpt>
      <trkpt lat="50.97268" lon="2.43459">
        <ele>2</ele>
        <time>2019-11-26T09:11:09.000Z</time>
      </trkpt>
      <trkpt lat="50.97267" lon="2.43461">
        <ele>2</ele>
        <time>2019-11-26T09:11:12.000Z</time>
      </trkpt>
      <trkpt lat="50.97265" lon="2.43456">
        <ele>2</ele>
        <time>2019-11-26T09:11:16.000Z</time>
      </trkpt>
      <trkpt lat="50.97261" lon="2.43429">
        <ele>3</ele>
        <time>2019-11-26T09:11:22.000Z</time>
      </trkpt>
      <trkpt lat="50.97241" lon="2.43444">
        <ele>3</ele>
        <time>2019-11-26T09:11:28.000Z</time>
      </trkpt>
      <trkpt lat="50.97231" lon="2.43447">
        <ele>3</ele>
        <time>2019-11-26T09:11:33.000Z</time>
      </trkpt>
      <trkpt lat="50.97204" lon="2.43376">
        <ele>3</ele>
        <time>2019-11-26T09:11:45.000Z</time>
      </trkpt>
      <trkpt lat="50.972" lon="2.43362">
        <ele>3</ele>
        <time>2019-11-26T09:11:47.000Z</time>
      </trkpt>
      <trkpt lat="50.97193" lon="2.43324">
        <ele>3</ele>
        <time>2019-11-26T09:11:54.000Z</time>
      </trkpt>
      <trkpt lat="50.97181" lon="2.4332">
        <ele>3</ele>
        <time>2019-11-26T09:11:58.000Z</time>
      </trkpt>
      <trkpt lat="50.97153" lon="2.43323">
        <ele>3</ele>
        <time>2019-11-26T09:12:07.000Z</time>
      </trkpt>
      <trkpt lat="50.97153" lon="2.43346">
        <ele>4</ele>
        <time>2019-11-26T09:12:11.000Z</time>
      </trkpt>
      <trkpt lat="50.97155" lon="2.43357">
        <ele>4</ele>
        <time>2019-11-26T09:12:13.000Z</time>
      </trkpt>
      <trkpt lat="50.97147" lon="2.43367">
        <ele>4</ele>
        <time>2019-11-26T09:12:17.000Z</time>
      </trkpt>
      <trkpt lat="50.97133" lon="2.43396">
        <ele>4</ele>
        <time>2019-11-26T09:12:23.000Z</time>
      </trkpt>
      <trkpt lat="50.97128" lon="2.43405">
        <ele>4</ele>
        <time>2019-11-26T09:12:25.000Z</time>
      </trkpt>
      <trkpt lat="50.97118" lon="2.43426">
        <ele>5</ele>
        <time>2019-11-26T09:12:30.000Z</time>
      </trkpt>
      <trkpt lat="50.97114" lon="2.43437">
        <ele>5</ele>
        <time>2019-11-26T09:12:32.000Z</time>
      </trkpt>
      <trkpt lat="50.97098" lon="2.43466">
        <ele>5</ele>
        <time>2019-11-26T09:12:37.000Z</time>
      </trkpt>
      <trkpt lat="50.97089" lon="2.43496">
        <ele>6</ele>
        <time>2019-11-26T09:12:41.000Z</time>
      </trkpt>
      <trkpt lat="50.97087" lon="2.43511">
        <ele>6</ele>
        <time>2019-11-26T09:12:43.000Z</time>
      </trkpt>
      <trkpt lat="50.97068" lon="2.43567">
        <ele>8</ele>
        <time>2019-11-26T09:12:52.000Z</time>
      </trkpt>
      <trkpt lat="50.97055" lon="2.43587">
        <ele>9</ele>
        <time>2019-11-26T09:12:56.000Z</time>
      </trkpt>
      <trkpt lat="50.97038" lon="2.43604">
        <ele>10</ele>
        <time>2019-11-26T09:13:02.000Z</time>
      </trkpt>
      <trkpt lat="50.97032" lon="2.43626">
        <ele>10</ele>
        <time>2019-11-26T09:13:06.000Z</time>
      </trkpt>
      <trkpt lat="50.97028" lon="2.43643">
        <ele>10</ele>
        <time>2019-11-26T09:13:09.000Z</time>
      </trkpt>
      <trkpt lat="50.97021" lon="2.4367">
        <ele>11</ele>
        <time>2019-11-26T09:13:13.000Z</time>
      </trkpt>
      <trkpt lat="50.97014" lon="2.43699">
        <ele>11</ele>
        <time>2019-11-26T09:13:17.000Z</time>
      </trkpt>
      <trkpt lat="50.97009" lon="2.43728">
        <ele>11</ele>
        <time>2019-11-26T09:13:21.000Z</time>
      </trkpt>
      <trkpt lat="50.97008" lon="2.43752">
        <ele>12</ele>
        <time>2019-11-26T09:13:24.000Z</time>
      </trkpt>
      <trkpt lat="50.97008" lon="2.43785">
        <ele>11</ele>
        <time>2019-11-26T09:13:29.000Z</time>
      </trkpt>
      <trkpt lat="50.97007" lon="2.43801">
        <ele>11</ele>
        <time>2019-11-26T09:13:31.000Z</time>
      </trkpt>
      <trkpt lat="50.97014" lon="2.43834">
        <ele>12</ele>
        <time>2019-11-26T09:13:35.000Z</time>
      </trkpt>
      <trkpt lat="50.97029" lon="2.43882">
        <ele>11</ele>
        <time>2019-11-26T09:13:41.000Z</time>
      </trkpt>
      <trkpt lat="50.97034" lon="2.43907">
        <ele>12</ele>
        <time>2019-11-26T09:13:44.000Z</time>
      </trkpt>
      <trkpt lat="50.97045" lon="2.4394">
        <ele>12</ele>
        <time>2019-11-26T09:13:48.000Z</time>
      </trkpt>
      <trkpt lat="50.97047" lon="2.43948">
        <ele>12</ele>
        <time>2019-11-26T09:13:49.000Z</time>
      </trkpt>
      <trkpt lat="50.97048" lon="2.43956">
        <ele>12</ele>
        <time>2019-11-26T09:13:50.000Z</time>
      </trkpt>
      <trkpt lat="50.97052" lon="2.43971">
        <ele>12</ele>
        <time>2019-11-26T09:13:52.000Z</time>
      </trkpt>
      <trkpt lat="50.97054" lon="2.43978">
        <ele>12</ele>
        <time>2019-11-26T09:13:53.000Z</time>
      </trkpt>
      <trkpt lat="50.97057" lon="2.43991">
        <ele>12</ele>
        <time>2019-11-26T09:13:55.000Z</time>
      </trkpt>
      <trkpt lat="50.9706" lon="2.44013">
        <ele>13</ele>
        <time>2019-11-26T09:13:59.000Z</time>
      </trkpt>
      <trkpt lat="50.97051" lon="2.44022">
        <ele>13</ele>
        <time>2019-11-26T09:14:02.000Z</time>
      </trkpt>
      <trkpt lat="50.97025" lon="2.4404">
        <ele>14</ele>
        <time>2019-11-26T09:14:09.000Z</time>
      </trkpt>
      <trkpt lat="50.97009" lon="2.44061">
        <ele>14</ele>
        <time>2019-11-26T09:14:13.000Z</time>
      </trkpt>
      <trkpt lat="50.96971" lon="2.44085">
        <ele>16</ele>
        <time>2019-11-26T09:14:21.000Z</time>
      </trkpt>
      <trkpt lat="50.96943" lon="2.44108">
        <ele>16</ele>
        <time>2019-11-26T09:14:27.000Z</time>
      </trkpt>
      <trkpt lat="50.96921" lon="2.44148">
        <ele>17</ele>
        <time>2019-11-26T09:14:34.000Z</time>
      </trkpt>
      <trkpt lat="50.96896" lon="2.44166">
        <ele>18</ele>
        <time>2019-11-26T09:14:40.000Z</time>
      </trkpt>
      <trkpt lat="50.96869" lon="2.44212">
        <ele>16</ele>
        <time>2019-11-26T09:14:47.000Z</time>
      </trkpt>
      <trkpt lat="50.96828" lon="2.44279">
        <ele>15</ele>
        <time>2019-11-26T09:14:57.000Z</time>
      </trkpt>
      <trkpt lat="50.96823" lon="2.44286">
        <ele>15</ele>
        <time>2019-11-26T09:14:58.000Z</time>
      </trkpt>
      <trkpt lat="50.96816" lon="2.44301">
        <ele>15</ele>
        <time>2019-11-26T09:15:00.000Z</time>
      </trkpt>
      <trkpt lat="50.96788" lon="2.44297">
        <ele>15</ele>
        <time>2019-11-26T09:15:07.000Z</time>
      </trkpt>
      <trkpt lat="50.96777" lon="2.44281">
        <ele>15</ele>
        <time>2019-11-26T09:15:10.000Z</time>
      </trkpt>
      <trkpt lat="50.96757" lon="2.44245">
        <ele>16</ele>
        <time>2019-11-26T09:15:15.000Z</time>
      </trkpt>
      <trkpt lat="50.96718" lon="2.4417">
        <ele>15</ele>
        <time>2019-11-26T09:15:24.000Z</time>
      </trkpt>
      <trkpt lat="50.96705" lon="2.44145">
        <ele>15</ele>
        <time>2019-11-26T09:15:27.000Z</time>
      </trkpt>
      <trkpt lat="50.96696" lon="2.44137">
        <ele>15</ele>
        <time>2019-11-26T09:15:29.000Z</time>
      </trkpt>
      <trkpt lat="50.9669" lon="2.44137">
        <ele>15</ele>
        <time>2019-11-26T09:15:31.000Z</time>
      </trkpt>
      <trkpt lat="50.96679" lon="2.44138">
        <ele>15</ele>
        <time>2019-11-26T09:15:36.000Z</time>
      </trkpt>
      <trkpt lat="50.96675" lon="2.44135">
        <ele>15</ele>
        <time>2019-11-26T09:15:38.000Z</time>
      </trkpt>
      <trkpt lat="50.96651" lon="2.44115">
        <ele>15</ele>
        <time>2019-11-26T09:15:44.000Z</time>
      </trkpt>
      <trkpt lat="50.96645" lon="2.44099">
        <ele>15</ele>
        <time>2019-11-26T09:15:49.000Z</time>
      </trkpt>
      <trkpt lat="50.96627" lon="2.44062">
        <ele>15</ele>
        <time>2019-11-26T09:15:57.000Z</time>
      </trkpt>
      <trkpt lat="50.96575" lon="2.44026">
        <ele>12</ele>
        <time>2019-11-26T09:16:07.000Z</time>
      </trkpt>
      <trkpt lat="50.96551" lon="2.44011">
        <ele>12</ele>
        <time>2019-11-26T09:16:11.000Z</time>
      </trkpt>
      <trkpt lat="50.96541" lon="2.44002">
        <ele>11</ele>
        <time>2019-11-26T09:16:13.000Z</time>
      </trkpt>
      <trkpt lat="50.96535" lon="2.43993">
        <ele>10</ele>
        <time>2019-11-26T09:16:15.000Z</time>
      </trkpt>
      <trkpt lat="50.96542" lon="2.43955">
        <ele>10</ele>
        <time>2019-11-26T09:16:22.000Z</time>
      </trkpt>
      <trkpt lat="50.96545" lon="2.4395">
        <ele>10</ele>
        <time>2019-11-26T09:16:23.000Z</time>
      </trkpt>
      <trkpt lat="50.96552" lon="2.4394">
        <ele>10</ele>
        <time>2019-11-26T09:16:25.000Z</time>
      </trkpt>
      <trkpt lat="50.96556" lon="2.43935">
        <ele>10</ele>
        <time>2019-11-26T09:16:26.000Z</time>
      </trkpt>
      <trkpt lat="50.9658" lon="2.43902">
        <ele>10</ele>
        <time>2019-11-26T09:16:35.000Z</time>
      </trkpt>
      <trkpt lat="50.9658" lon="2.43901">
        <ele>10</ele>
        <time>2019-11-26T09:16:36.000Z</time>
      </trkpt>
      <trkpt lat="50.9658" lon="2.43888">
        <ele>9</ele>
        <time>2019-11-26T09:17:36.000Z</time>
      </trkpt>
      <trkpt lat="50.96579" lon="2.43883">
        <ele>9</ele>
        <time>2019-11-26T09:17:37.000Z</time>
      </trkpt>
      <trkpt lat="50.9658" lon="2.43872">
        <ele>9</ele>
        <time>2019-11-26T09:17:39.000Z</time>
      </trkpt>
      <trkpt lat="50.9658" lon="2.43867">
        <ele>9</ele>
        <time>2019-11-26T09:17:40.000Z</time>
      </trkpt>
      <trkpt lat="50.96583" lon="2.43857">
        <ele>9</ele>
        <time>2019-11-26T09:17:42.000Z</time>
      </trkpt>
      <trkpt lat="50.96586" lon="2.43847">
        <ele>10</ele>
        <time>2019-11-26T09:17:44.000Z</time>
      </trkpt>
      <trkpt lat="50.96586" lon="2.43832">
        <ele>9</ele>
        <time>2019-11-26T09:17:46.000Z</time>
      </trkpt>
      <trkpt lat="50.96585" lon="2.43815">
        <ele>9</ele>
        <time>2019-11-26T09:17:48.000Z</time>
      </trkpt>
      <trkpt lat="50.96585" lon="2.43806">
        <ele>9</ele>
        <time>2019-11-26T09:17:49.000Z</time>
      </trkpt>
      <trkpt lat="50.96562" lon="2.43747">
        <ele>6</ele>
        <time>2019-11-26T09:17:57.000Z</time>
      </trkpt>
      <trkpt lat="50.96548" lon="2.43728">
        <ele>5</ele>
        <time>2019-11-26T09:18:00.000Z</time>
      </trkpt>
      <trkpt lat="50.96545" lon="2.43699">
        <ele>5</ele>
        <time>2019-11-26T09:18:04.000Z</time>
      </trkpt>
      <trkpt lat="50.96555" lon="2.43676">
        <ele>5</ele>
        <time>2019-11-26T09:18:07.000Z</time>
      </trkpt>
      <trkpt lat="50.96588" lon="2.43595">
        <ele>4</ele>
        <time>2019-11-26T09:18:16.000Z</time>
      </trkpt>
      <trkpt lat="50.96596" lon="2.43544">
        <ele>4</ele>
        <time>2019-11-26T09:18:21.000Z</time>
      </trkpt>
      <trkpt lat="50.96608" lon="2.4352">
        <ele>4</ele>
        <time>2019-11-26T09:18:24.000Z</time>
      </trkpt>
      <trkpt lat="50.96611" lon="2.43489">
        <ele>3</ele>
        <time>2019-11-26T09:18:27.000Z</time>
      </trkpt>
      <trkpt lat="50.96607" lon="2.43467">
        <ele>3</ele>
        <time>2019-11-26T09:18:29.000Z</time>
      </trkpt>
      <trkpt lat="50.96604" lon="2.43457">
        <ele>3</ele>
        <time>2019-11-26T09:18:30.000Z</time>
      </trkpt>
      <trkpt lat="50.96587" lon="2.43396">
        <ele>3</ele>
        <time>2019-11-26T09:18:36.000Z</time>
      </trkpt>
      <trkpt lat="50.96573" lon="2.4335">
        <ele>2</ele>
        <time>2019-11-26T09:18:41.000Z</time>
      </trkpt>
      <trkpt lat="50.96551" lon="2.43302">
        <ele>2</ele>
        <time>2019-11-26T09:18:47.000Z</time>
      </trkpt>
      <trkpt lat="50.96528" lon="2.4327">
        <ele>2</ele>
        <time>2019-11-26T09:18:52.000Z</time>
      </trkpt>
      <trkpt lat="50.96509" lon="2.43248">
        <ele>1</ele>
        <time>2019-11-26T09:18:56.000Z</time>
      </trkpt>
      <trkpt lat="50.96489" lon="2.43221">
        <ele>1</ele>
        <time>2019-11-26T09:19:01.000Z</time>
      </trkpt>
      <trkpt lat="50.96485" lon="2.43208">
        <ele>1</ele>
        <time>2019-11-26T09:19:08.000Z</time>
      </trkpt>
      <trkpt lat="50.96484" lon="2.43205">
        <ele>1</ele>
        <time>2019-11-26T09:19:09.000Z</time>
      </trkpt>
      <trkpt lat="50.96469" lon="2.43202">
        <ele>1</ele>
        <time>2019-11-26T09:19:13.000Z</time>
      </trkpt>
      <trkpt lat="50.96465" lon="2.432">
        <ele>1</ele>
        <time>2019-11-26T09:19:14.000Z</time>
      </trkpt>
      <trkpt lat="50.96442" lon="2.43184">
        <ele>1</ele>
        <time>2019-11-26T09:19:21.000Z</time>
      </trkpt>
      <trkpt lat="50.96463" lon="2.43159">
        <ele>1</ele>
        <time>2019-11-26T09:19:29.000Z</time>
      </trkpt>
      <trkpt lat="50.96483" lon="2.43135">
        <ele>1</ele>
        <time>2019-11-26T09:19:33.000Z</time>
      </trkpt>
      <trkpt lat="50.96527" lon="2.43072">
        <ele>2</ele>
        <time>2019-11-26T09:19:42.000Z</time>
      </trkpt>
      <trkpt lat="50.96567" lon="2.43003">
        <ele>3</ele>
        <time>2019-11-26T09:19:51.000Z</time>
      </trkpt>
      <trkpt lat="50.96584" lon="2.42975">
        <ele>3</ele>
        <time>2019-11-26T09:19:55.000Z</time>
      </trkpt>
      <trkpt lat="50.966" lon="2.42958">
        <ele>3</ele>
        <time>2019-11-26T09:19:58.000Z</time>
      </trkpt>
      <trkpt lat="50.96641" lon="2.42892">
        <ele>3</ele>
        <time>2019-11-26T09:20:07.000Z</time>
      </trkpt>
      <trkpt lat="50.96654" lon="2.42868">
        <ele>3</ele>
        <time>2019-11-26T09:20:10.000Z</time>
      </trkpt>
      <trkpt lat="50.96693" lon="2.42799">
        <ele>3</ele>
        <time>2019-11-26T09:20:19.000Z</time>
      </trkpt>
      <trkpt lat="50.96735" lon="2.4274">
        <ele>3</ele>
        <time>2019-11-26T09:20:28.000Z</time>
      </trkpt>
      <trkpt lat="50.96783" lon="2.42699">
        <ele>3</ele>
        <time>2019-11-26T09:20:36.000Z</time>
      </trkpt>
      <trkpt lat="50.96834" lon="2.42663">
        <ele>3</ele>
        <time>2019-11-26T09:20:44.000Z</time>
      </trkpt>
      <trkpt lat="50.96859" lon="2.42645">
        <ele>3</ele>
        <time>2019-11-26T09:20:48.000Z</time>
      </trkpt>
      <trkpt lat="50.96886" lon="2.4262">
        <ele>3</ele>
        <time>2019-11-26T09:20:53.000Z</time>
      </trkpt>
      <trkpt lat="50.969" lon="2.42596">
        <ele>3</ele>
        <time>2019-11-26T09:20:57.000Z</time>
      </trkpt>
      <trkpt lat="50.96908" lon="2.42581">
        <ele>3</ele>
        <time>2019-11-26T09:21:01.000Z</time>
      </trkpt>
      <trkpt lat="50.96912" lon="2.42575">
        <ele>3</ele>
        <time>2019-11-26T09:21:05.000Z</time>
      </trkpt>
      <trkpt lat="50.96911" lon="2.42574">
        <ele>3</ele>
        <time>2019-11-26T09:21:07.000Z</time>
      </trkpt>
      <trkpt lat="50.96919" lon="2.42567">
        <ele>3</ele>
        <time>2019-11-26T09:23:53.000Z</time>
      </trkpt>
      <trkpt lat="50.96922" lon="2.42566">
        <ele>3</ele>
        <time>2019-11-26T09:23:54.000Z</time>
      </trkpt>
      <trkpt lat="50.96931" lon="2.42564">
        <ele>3</ele>
        <time>2019-11-26T09:23:58.000Z</time>
      </trkpt>
      <trkpt lat="50.96935" lon="2.4255">
        <ele>3</ele>
        <time>2019-11-26T09:24:01.000Z</time>
      </trkpt>
      <trkpt lat="50.96934" lon="2.42536">
        <ele>3</ele>
        <time>2019-11-26T09:24:03.000Z</time>
      </trkpt>
      <trkpt lat="50.96928" lon="2.42514">
        <ele>3</ele>
        <time>2019-11-26T09:24:06.000Z</time>
      </trkpt>
      <trkpt lat="50.96918" lon="2.42491">
        <ele>3</ele>
        <time>2019-11-26T09:24:09.000Z</time>
      </trkpt>
      <trkpt lat="50.96908" lon="2.4248">
        <ele>2</ele>
        <time>2019-11-26T09:24:11.000Z</time>
      </trkpt>
      <trkpt lat="50.96874" lon="2.42486">
        <ele>2</ele>
        <time>2019-11-26T09:24:17.000Z</time>
      </trkpt>
      <trkpt lat="50.96865" lon="2.42493">
        <ele>2</ele>
        <time>2019-11-26T09:24:19.000Z</time>
      </trkpt>
      <trkpt lat="50.96842" lon="2.42479">
        <ele>2</ele>
        <time>2019-11-26T09:24:25.000Z</time>
      </trkpt>
      <trkpt lat="50.96837" lon="2.42469">
        <ele>2</ele>
        <time>2019-11-26T09:24:27.000Z</time>
      </trkpt>
      <trkpt lat="50.96799" lon="2.4241">
        <ele>1.8</ele>
        <time>2019-11-26T09:24:43.000Z</time>
      </trkpt>
      <trkpt lat="50.96796" lon="2.424">
        <ele>1.4</ele>
        <time>2019-11-26T09:24:45.000Z</time>
      </trkpt>
      <trkpt lat="50.96792" lon="2.42384">
        <ele>1.1</ele>
        <time>2019-11-26T09:24:49.000Z</time>
      </trkpt>
      <trkpt lat="50.96779" lon="2.4234">
        <ele>1</ele>
        <time>2019-11-26T09:24:56.000Z</time>
      </trkpt>
      <trkpt lat="50.9677" lon="2.42306">
        <ele>1</ele>
        <time>2019-11-26T09:25:00.000Z</time>
      </trkpt>
      <trkpt lat="50.96746" lon="2.42225">
        <ele>1.2</ele>
        <time>2019-11-26T09:25:10.000Z</time>
      </trkpt>
      <trkpt lat="50.96743" lon="2.42214">
        <ele>1.3</ele>
        <time>2019-11-26T09:25:12.000Z</time>
      </trkpt>
      <trkpt lat="50.96736" lon="2.42194">
        <ele>1.5</ele>
        <time>2019-11-26T09:25:16.000Z</time>
      </trkpt>
      <trkpt lat="50.96726" lon="2.42163">
        <ele>2</ele>
        <time>2019-11-26T09:25:20.000Z</time>
      </trkpt>
      <trkpt lat="50.96691" lon="2.42106">
        <ele>2</ele>
        <time>2019-11-26T09:25:29.000Z</time>
      </trkpt>
      <trkpt lat="50.96671" lon="2.42073">
        <ele>1.6</ele>
        <time>2019-11-26T09:25:35.000Z</time>
      </trkpt>
      <trkpt lat="50.96667" lon="2.42068">
        <ele>1.4</ele>
        <time>2019-11-26T09:25:36.000Z</time>
      </trkpt>
      <trkpt lat="50.96646" lon="2.42036">
        <ele>1.7</ele>
        <time>2019-11-26T09:25:41.000Z</time>
      </trkpt>
      <trkpt lat="50.9663" lon="2.42009">
        <ele>1.2</ele>
        <time>2019-11-26T09:25:45.000Z</time>
      </trkpt>
      <trkpt lat="50.9659" lon="2.4194">
        <ele>1</ele>
        <time>2019-11-26T09:25:55.000Z</time>
      </trkpt>
      <trkpt lat="50.96578" lon="2.4192">
        <ele>1</ele>
        <time>2019-11-26T09:25:58.000Z</time>
      </trkpt>
      <trkpt lat="50.96547" lon="2.41872">
        <ele>1.5</ele>
        <time>2019-11-26T09:26:05.000Z</time>
      </trkpt>
      <trkpt lat="50.96506" lon="2.41812">
        <ele>1.2</ele>
        <time>2019-11-26T09:26:14.000Z</time>
      </trkpt>
      <trkpt lat="50.96481" lon="2.41769">
        <ele>1.2</ele>
        <time>2019-11-26T09:26:20.000Z</time>
      </trkpt>
      <trkpt lat="50.96467" lon="2.41738">
        <ele>1.6</ele>
        <time>2019-11-26T09:26:24.000Z</time>
      </trkpt>
      <trkpt lat="50.96464" lon="2.4173">
        <ele>1.3</ele>
        <time>2019-11-26T09:26:25.000Z</time>
      </trkpt>
      <trkpt lat="50.96445" lon="2.41646">
        <ele>1</ele>
        <time>2019-11-26T09:26:34.000Z</time>
      </trkpt>
      <trkpt lat="50.96435" lon="2.41571">
        <ele>1</ele>
        <time>2019-11-26T09:26:42.000Z</time>
      </trkpt>
      <trkpt lat="50.96429" lon="2.4154">
        <ele>1</ele>
        <time>2019-11-26T09:26:46.000Z</time>
      </trkpt>
      <trkpt lat="50.96429" lon="2.41533">
        <ele>1</ele>
        <time>2019-11-26T09:26:47.000Z</time>
      </trkpt>
      <trkpt lat="50.96428" lon="2.41528">
        <ele>1</ele>
        <time>2019-11-26T09:26:48.000Z</time>
      </trkpt>
      <trkpt lat="50.9642" lon="2.41511">
        <ele>2</ele>
        <time>2019-11-26T09:26:54.000Z</time>
      </trkpt>
      <trkpt lat="50.96414" lon="2.41502">
        <ele>2</ele>
        <time>2019-11-26T09:26:57.000Z</time>
      </trkpt>
      <trkpt lat="50.96404" lon="2.41491">
        <ele>2</ele>
        <time>2019-11-26T09:27:01.000Z</time>
      </trkpt>
      <trkpt lat="50.9637" lon="2.41434">
        <ele>3</ele>
        <time>2019-11-26T09:27:11.000Z</time>
      </trkpt>
      <trkpt lat="50.96336" lon="2.41388">
        <ele>4</ele>
        <time>2019-11-26T09:27:18.000Z</time>
      </trkpt>
      <trkpt lat="50.96302" lon="2.41347">
        <ele>3</ele>
        <time>2019-11-26T09:27:25.000Z</time>
      </trkpt>
      <trkpt lat="50.9628" lon="2.41333">
        <ele>3</ele>
        <time>2019-11-26T09:27:29.000Z</time>
      </trkpt>
      <trkpt lat="50.96243" lon="2.41314">
        <ele>2</ele>
        <time>2019-11-26T09:27:36.000Z</time>
      </trkpt>
      <trkpt lat="50.96228" lon="2.41307">
        <ele>2</ele>
        <time>2019-11-26T09:27:39.000Z</time>
      </trkpt>
      <trkpt lat="50.96205" lon="2.41269">
        <ele>3</ele>
        <time>2019-11-26T09:27:45.000Z</time>
      </trkpt>
      <trkpt lat="50.96196" lon="2.41241">
        <ele>4</ele>
        <time>2019-11-26T09:27:49.000Z</time>
      </trkpt>
      <trkpt lat="50.96167" lon="2.41217">
        <ele>4</ele>
        <time>2019-11-26T09:27:55.000Z</time>
      </trkpt>
      <trkpt lat="50.96138" lon="2.41201">
        <ele>4</ele>
        <time>2019-11-26T09:28:00.000Z</time>
      </trkpt>
      <trkpt lat="50.96124" lon="2.41183">
        <ele>4</ele>
        <time>2019-11-26T09:28:03.000Z</time>
      </trkpt>
      <trkpt lat="50.96114" lon="2.41162">
        <ele>4</ele>
        <time>2019-11-26T09:28:06.000Z</time>
      </trkpt>
      <trkpt lat="50.96102" lon="2.41134">
        <ele>3</ele>
        <time>2019-11-26T09:28:10.000Z</time>
      </trkpt>
      <trkpt lat="50.96071" lon="2.41092">
        <ele>2</ele>
        <time>2019-11-26T09:28:18.000Z</time>
      </trkpt>
      <trkpt lat="50.9604" lon="2.41029">
        <ele>3</ele>
        <time>2019-11-26T09:28:27.000Z</time>
      </trkpt>
      <trkpt lat="50.96021" lon="2.40976">
        <ele>3</ele>
        <time>2019-11-26T09:28:34.000Z</time>
      </trkpt>
      <trkpt lat="50.96019" lon="2.40968">
        <ele>2</ele>
        <time>2019-11-26T09:28:35.000Z</time>
      </trkpt>
      <trkpt lat="50.9601" lon="2.4091">
        <ele>2</ele>
        <time>2019-11-26T09:28:42.000Z</time>
      </trkpt>
      <trkpt lat="50.96009" lon="2.40867">
        <ele>2</ele>
        <time>2019-11-26T09:28:47.000Z</time>
      </trkpt>
      <trkpt lat="50.96014" lon="2.40836">
        <ele>2</ele>
        <time>2019-11-26T09:28:51.000Z</time>
      </trkpt>
      <trkpt lat="50.96033" lon="2.40761">
        <ele>2</ele>
        <time>2019-11-26T09:29:00.000Z</time>
      </trkpt>
      <trkpt lat="50.96036" lon="2.40745">
        <ele>2</ele>
        <time>2019-11-26T09:29:02.000Z</time>
      </trkpt>
      <trkpt lat="50.9604" lon="2.40722">
        <ele>2</ele>
        <time>2019-11-26T09:29:05.000Z</time>
      </trkpt>
      <trkpt lat="50.9606" lon="2.40698">
        <ele>3</ele>
        <time>2019-11-26T09:29:10.000Z</time>
      </trkpt>
      <trkpt lat="50.96065" lon="2.40669">
        <ele>3</ele>
        <time>2019-11-26T09:29:15.000Z</time>
      </trkpt>
      <trkpt lat="50.96061" lon="2.40662">
        <ele>3</ele>
        <time>2019-11-26T09:29:16.000Z</time>
      </trkpt>
      <trkpt lat="50.96058" lon="2.40655">
        <ele>2</ele>
        <time>2019-11-26T09:29:17.000Z</time>
      </trkpt>
      <trkpt lat="50.96065" lon="2.40618">
        <ele>2</ele>
        <time>2019-11-26T09:29:22.000Z</time>
      </trkpt>
      <trkpt lat="50.96083" lon="2.40587">
        <ele>2</ele>
        <time>2019-11-26T09:29:27.000Z</time>
      </trkpt>
      <trkpt lat="50.96086" lon="2.40576">
        <ele>2</ele>
        <time>2019-11-26T09:29:30.000Z</time>
      </trkpt>
      <trkpt lat="50.96086" lon="2.40574">
        <ele>2</ele>
        <time>2019-11-26T09:29:31.000Z</time>
      </trkpt>
      <trkpt lat="50.96087" lon="2.40563">
        <ele>2</ele>
        <time>2019-11-26T09:29:35.000Z</time>
      </trkpt>
      <trkpt lat="50.96088" lon="2.40558">
        <ele>2</ele>
        <time>2019-11-26T09:29:36.000Z</time>
      </trkpt>
      <trkpt lat="50.96067" lon="2.40559">
        <ele>2</ele>
        <time>2019-11-26T09:29:45.000Z</time>
      </trkpt>
      <trkpt lat="50.96045" lon="2.40596">
        <ele>2</ele>
        <time>2019-11-26T09:29:51.000Z</time>
      </trkpt>
      <trkpt lat="50.96031" lon="2.40625">
        <ele>2</ele>
        <time>2019-11-26T09:29:55.000Z</time>
      </trkpt>
      <trkpt lat="50.96029" lon="2.40632">
        <ele>2</ele>
        <time>2019-11-26T09:29:56.000Z</time>
      </trkpt>
      <trkpt lat="50.96013" lon="2.40717">
        <ele>2</ele>
        <time>2019-11-26T09:30:06.000Z</time>
      </trkpt>
      <trkpt lat="50.96011" lon="2.40724">
        <ele>2</ele>
        <time>2019-11-26T09:30:07.000Z</time>
      </trkpt>
      <trkpt lat="50.95987" lon="2.40731">
        <ele>2</ele>
        <time>2019-11-26T09:30:13.000Z</time>
      </trkpt>
      <trkpt lat="50.95982" lon="2.40727">
        <ele>2</ele>
        <time>2019-11-26T09:30:14.000Z</time>
      </trkpt>
      <trkpt lat="50.95942" lon="2.40773">
        <ele>2</ele>
        <time>2019-11-26T09:30:25.000Z</time>
      </trkpt>
      <trkpt lat="50.95961" lon="2.40827">
        <ele>2</ele>
        <time>2019-11-26T09:30:32.000Z</time>
      </trkpt>
      <trkpt lat="50.95966" lon="2.40834">
        <ele>2</ele>
        <time>2019-11-26T09:30:33.000Z</time>
      </trkpt>
      <trkpt lat="50.95965" lon="2.40917">
        <ele>1</ele>
        <time>2019-11-26T09:30:42.000Z</time>
      </trkpt>
      <trkpt lat="50.95935" lon="2.40972">
        <ele>1</ele>
        <time>2019-11-26T09:30:49.000Z</time>
      </trkpt>
      <trkpt lat="50.95919" lon="2.40989">
        <ele>1</ele>
        <time>2019-11-26T09:30:52.000Z</time>
      </trkpt>
      <trkpt lat="50.9587" lon="2.41026">
        <ele>1.7</ele>
        <time>2019-11-26T09:31:01.000Z</time>
      </trkpt>
      <trkpt lat="50.9582" lon="2.41071">
        <ele>1.7</ele>
        <time>2019-11-26T09:31:10.000Z</time>
      </trkpt>
      <trkpt lat="50.95775" lon="2.41125">
        <ele>1.5</ele>
        <time>2019-11-26T09:31:19.000Z</time>
      </trkpt>
      <trkpt lat="50.9574" lon="2.41195">
        <ele>1</ele>
        <time>2019-11-26T09:31:28.000Z</time>
      </trkpt>
      <trkpt lat="50.95729" lon="2.41235">
        <ele>1</ele>
        <time>2019-11-26T09:31:33.000Z</time>
      </trkpt>
      <trkpt lat="50.95702" lon="2.41316">
        <ele>1</ele>
        <time>2019-11-26T09:31:43.000Z</time>
      </trkpt>
      <trkpt lat="50.95691" lon="2.41336">
        <ele>2</ele>
        <time>2019-11-26T09:31:46.000Z</time>
      </trkpt>
      <trkpt lat="50.95669" lon="2.41364">
        <ele>2</ele>
        <time>2019-11-26T09:31:51.000Z</time>
      </trkpt>
      <trkpt lat="50.95678" lon="2.41411">
        <ele>2</ele>
        <time>2019-11-26T09:31:57.000Z</time>
      </trkpt>
      <trkpt lat="50.95706" lon="2.41482">
        <ele>2</ele>
        <time>2019-11-26T09:32:05.000Z</time>
      </trkpt>
      <trkpt lat="50.95731" lon="2.41567">
        <ele>1</ele>
        <time>2019-11-26T09:32:14.000Z</time>
      </trkpt>
      <trkpt lat="50.95752" lon="2.41653">
        <ele>2</ele>
        <time>2019-11-26T09:32:23.000Z</time>
      </trkpt>
      <trkpt lat="50.95763" lon="2.41746">
        <ele>2</ele>
        <time>2019-11-26T09:32:32.000Z</time>
      </trkpt>
      <trkpt lat="50.95784" lon="2.41833">
        <ele>1</ele>
        <time>2019-11-26T09:32:41.000Z</time>
      </trkpt>
      <trkpt lat="50.95812" lon="2.41913">
        <ele>1</ele>
        <time>2019-11-26T09:32:50.000Z</time>
      </trkpt>
      <trkpt lat="50.95785" lon="2.41957">
        <ele>1</ele>
        <time>2019-11-26T09:32:58.000Z</time>
      </trkpt>
      <trkpt lat="50.95727" lon="2.41978">
        <ele>2</ele>
        <time>2019-11-26T09:33:08.000Z</time>
      </trkpt>
      <trkpt lat="50.95718" lon="2.41983">
        <ele>2</ele>
        <time>2019-11-26T09:33:10.000Z</time>
      </trkpt>
      <trkpt lat="50.95716" lon="2.42007">
        <ele>2</ele>
        <time>2019-11-26T09:33:14.000Z</time>
      </trkpt>
      <trkpt lat="50.95718" lon="2.42013">
        <ele>2</ele>
        <time>2019-11-26T09:33:15.000Z</time>
      </trkpt>
      <trkpt lat="50.95724" lon="2.42025">
        <ele>2</ele>
        <time>2019-11-26T09:33:17.000Z</time>
      </trkpt>
      <trkpt lat="50.95731" lon="2.42037">
        <ele>2</ele>
        <time>2019-11-26T09:33:19.000Z</time>
      </trkpt>
      <trkpt lat="50.95736" lon="2.42051">
        <ele>2</ele>
        <time>2019-11-26T09:33:21.000Z</time>
      </trkpt>
      <trkpt lat="50.95741" lon="2.42064">
        <ele>2</ele>
        <time>2019-11-26T09:33:23.000Z</time>
      </trkpt>
      <trkpt lat="50.95749" lon="2.42082">
        <ele>2</ele>
        <time>2019-11-26T09:33:26.000Z</time>
      </trkpt>
      <trkpt lat="50.95783" lon="2.42152">
        <ele>2</ele>
        <time>2019-11-26T09:33:37.000Z</time>
      </trkpt>
      <trkpt lat="50.95812" lon="2.42218">
        <ele>3</ele>
        <time>2019-11-26T09:33:48.000Z</time>
      </trkpt>
      <trkpt lat="50.9581" lon="2.4225">
        <ele>3</ele>
        <time>2019-11-26T09:33:53.000Z</time>
      </trkpt>
      <trkpt lat="50.9582" lon="2.42335">
        <ele>3</ele>
        <time>2019-11-26T09:34:03.000Z</time>
      </trkpt>
      <trkpt lat="50.95826" lon="2.42372">
        <ele>3</ele>
        <time>2019-11-26T09:34:08.000Z</time>
      </trkpt>
      <trkpt lat="50.95828" lon="2.42388">
        <ele>3</ele>
        <time>2019-11-26T09:34:10.000Z</time>
      </trkpt>
      <trkpt lat="50.95839" lon="2.42475">
        <ele>3</ele>
        <time>2019-11-26T09:34:20.000Z</time>
      </trkpt>
      <trkpt lat="50.95855" lon="2.42535">
        <ele>3</ele>
        <time>2019-11-26T09:34:28.000Z</time>
      </trkpt>
      <trkpt lat="50.95856" lon="2.42543">
        <ele>3</ele>
        <time>2019-11-26T09:34:29.000Z</time>
      </trkpt>
      <trkpt lat="50.95862" lon="2.42581">
        <ele>3</ele>
        <time>2019-11-26T09:34:34.000Z</time>
      </trkpt>
      <trkpt lat="50.95853" lon="2.42622">
        <ele>2</ele>
        <time>2019-11-26T09:34:40.000Z</time>
      </trkpt>
      <trkpt lat="50.95854" lon="2.42628">
        <ele>2</ele>
        <time>2019-11-26T09:34:41.000Z</time>
      </trkpt>
      <trkpt lat="50.95861" lon="2.42713">
        <ele>1</ele>
        <time>2019-11-26T09:34:54.000Z</time>
      </trkpt>
      <trkpt lat="50.95869" lon="2.4274">
        <ele>1</ele>
        <time>2019-11-26T09:34:59.000Z</time>
      </trkpt>
      <trkpt lat="50.95874" lon="2.42777">
        <ele>1</ele>
        <time>2019-11-26T09:35:04.000Z</time>
      </trkpt>
      <trkpt lat="50.95874" lon="2.42785">
        <ele>1</ele>
        <time>2019-11-26T09:35:05.000Z</time>
      </trkpt>
      <trkpt lat="50.95876" lon="2.42876">
        <ele>1</ele>
        <time>2019-11-26T09:35:16.000Z</time>
      </trkpt>
      <trkpt lat="50.95878" lon="2.42924">
        <ele>1</ele>
        <time>2019-11-26T09:35:22.000Z</time>
      </trkpt>
      <trkpt lat="50.95884" lon="2.42965">
        <ele>2</ele>
        <time>2019-11-26T09:35:28.000Z</time>
      </trkpt>
      <trkpt lat="50.95884" lon="2.43022">
        <ele>2</ele>
        <time>2019-11-26T09:35:40.000Z</time>
      </trkpt>
      <trkpt lat="50.9587" lon="2.43015">
        <ele>2</ele>
        <time>2019-11-26T09:35:46.000Z</time>
      </trkpt>
      <trkpt lat="50.95849" lon="2.43006">
        <ele>2</ele>
        <time>2019-11-26T09:35:51.000Z</time>
      </trkpt>
      <trkpt lat="50.95795" lon="2.42979">
        <ele>2</ele>
        <time>2019-11-26T09:36:03.000Z</time>
      </trkpt>
      <trkpt lat="50.95762" lon="2.42959">
        <ele>2</ele>
        <time>2019-11-26T09:36:11.000Z</time>
      </trkpt>
      <trkpt lat="50.95749" lon="2.42951">
        <ele>2</ele>
        <time>2019-11-26T09:36:14.000Z</time>
      </trkpt>
      <trkpt lat="50.9572" lon="2.42929">
        <ele>2</ele>
        <time>2019-11-26T09:36:21.000Z</time>
      </trkpt>
      <trkpt lat="50.95689" lon="2.42905">
        <ele>2</ele>
        <time>2019-11-26T09:36:28.000Z</time>
      </trkpt>
      <trkpt lat="50.95643" lon="2.42863">
        <ele>3</ele>
        <time>2019-11-26T09:36:39.000Z</time>
      </trkpt>
      <trkpt lat="50.95608" lon="2.42828">
        <ele>3</ele>
        <time>2019-11-26T09:36:47.000Z</time>
      </trkpt>
      <trkpt lat="50.95603" lon="2.42823">
        <ele>3</ele>
        <time>2019-11-26T09:36:48.000Z</time>
      </trkpt>
      <trkpt lat="50.95586" lon="2.42806">
        <ele>3</ele>
        <time>2019-11-26T09:36:52.000Z</time>
      </trkpt>
      <trkpt lat="50.95559" lon="2.42776">
        <ele>4</ele>
        <time>2019-11-26T09:36:59.000Z</time>
      </trkpt>
      <trkpt lat="50.95514" lon="2.42727">
        <ele>4</ele>
        <time>2019-11-26T09:37:10.000Z</time>
      </trkpt>
      <trkpt lat="50.95468" lon="2.42678">
        <ele>4</ele>
        <time>2019-11-26T09:37:21.000Z</time>
      </trkpt>
      <trkpt lat="50.95423" lon="2.42627">
        <ele>4</ele>
        <time>2019-11-26T09:37:32.000Z</time>
      </trkpt>
      <trkpt lat="50.95392" lon="2.42591">
        <ele>5</ele>
        <time>2019-11-26T09:37:40.000Z</time>
      </trkpt>
      <trkpt lat="50.95368" lon="2.42565">
        <ele>5</ele>
        <time>2019-11-26T09:37:46.000Z</time>
      </trkpt>
      <trkpt lat="50.95338" lon="2.42532">
        <ele>5</ele>
        <time>2019-11-26T09:37:53.000Z</time>
      </trkpt>
      <trkpt lat="50.95293" lon="2.42482">
        <ele>6</ele>
        <time>2019-11-26T09:38:04.000Z</time>
      </trkpt>
      <trkpt lat="50.95246" lon="2.42429">
        <ele>5</ele>
        <time>2019-11-26T09:38:16.000Z</time>
      </trkpt>
      <trkpt lat="50.95243" lon="2.42426">
        <ele>5</ele>
        <time>2019-11-26T09:38:17.000Z</time>
      </trkpt>
      <trkpt lat="50.95237" lon="2.42423">
        <ele>5</ele>
        <time>2019-11-26T09:38:19.000Z</time>
      </trkpt>
      <trkpt lat="50.95235" lon="2.42423">
        <ele>5</ele>
        <time>2019-11-26T09:38:20.000Z</time>
      </trkpt>
      <trkpt lat="50.9523" lon="2.4245">
        <ele>6</ele>
        <time>2019-11-26T09:38:25.000Z</time>
      </trkpt>
      <trkpt lat="50.95229" lon="2.42467">
        <ele>6</ele>
        <time>2019-11-26T09:38:27.000Z</time>
      </trkpt>
      <trkpt lat="50.95226" lon="2.42529">
        <ele>6</ele>
        <time>2019-11-26T09:38:34.000Z</time>
      </trkpt>
      <trkpt lat="50.95222" lon="2.42589">
        <ele>6</ele>
        <time>2019-11-26T09:38:41.000Z</time>
      </trkpt>
      <trkpt lat="50.9522" lon="2.42608">
        <ele>6</ele>
        <time>2019-11-26T09:38:44.000Z</time>
      </trkpt>
      <trkpt lat="50.95216" lon="2.42612">
        <ele>6</ele>
        <time>2019-11-26T09:38:49.000Z</time>
      </trkpt>
      <trkpt lat="50.95214" lon="2.42613">
        <ele>6</ele>
        <time>2019-11-26T09:39:09.000Z</time>
      </trkpt>
      <trkpt lat="50.95215" lon="2.42619">
        <ele>6</ele>
        <time>2019-11-26T09:39:11.000Z</time>
      </trkpt>
      <trkpt lat="50.95224" lon="2.42625">
        <ele>6</ele>
        <time>2019-11-26T09:39:14.000Z</time>
      </trkpt>
      <trkpt lat="50.95228" lon="2.42626">
        <ele>6</ele>
        <time>2019-11-26T09:39:15.000Z</time>
      </trkpt>
      <trkpt lat="50.95282" lon="2.42633">
        <ele>5</ele>
        <time>2019-11-26T09:39:25.000Z</time>
      </trkpt>
      <trkpt lat="50.95338" lon="2.42632">
        <ele>4</ele>
        <time>2019-11-26T09:39:34.000Z</time>
      </trkpt>
      <trkpt lat="50.95345" lon="2.42631">
        <ele>4</ele>
        <time>2019-11-26T09:39:35.000Z</time>
      </trkpt>
      <trkpt lat="50.95357" lon="2.42626">
        <ele>4</ele>
        <time>2019-11-26T09:39:37.000Z</time>
      </trkpt>
      <trkpt lat="50.95363" lon="2.42624">
        <ele>5</ele>
        <time>2019-11-26T09:39:38.000Z</time>
      </trkpt>
      <trkpt lat="50.9538" lon="2.42632">
        <ele>4</ele>
        <time>2019-11-26T09:39:42.000Z</time>
      </trkpt>
      <trkpt lat="50.95383" lon="2.42637">
        <ele>4</ele>
        <time>2019-11-26T09:39:44.000Z</time>
      </trkpt>
      <trkpt lat="50.95384" lon="2.42639">
        <ele>4</ele>
        <time>2019-11-26T09:39:46.000Z</time>
      </trkpt>
      <trkpt lat="50.95395" lon="2.42648">
        <ele>4</ele>
        <time>2019-11-26T09:39:50.000Z</time>
      </trkpt>
      <trkpt lat="50.95404" lon="2.42657">
        <ele>4</ele>
        <time>2019-11-26T09:39:52.000Z</time>
      </trkpt>
      <trkpt lat="50.95413" lon="2.42668">
        <ele>4</ele>
        <time>2019-11-26T09:39:54.000Z</time>
      </trkpt>
      <trkpt lat="50.95427" lon="2.42689">
        <ele>4</ele>
        <time>2019-11-26T09:39:57.000Z</time>
      </trkpt>
      <trkpt lat="50.95444" lon="2.42706">
        <ele>4</ele>
        <time>2019-11-26T09:40:00.000Z</time>
      </trkpt>
      <trkpt lat="50.9545" lon="2.4271">
        <ele>4</ele>
        <time>2019-11-26T09:40:01.000Z</time>
      </trkpt>
      <trkpt lat="50.95467" lon="2.42728">
        <ele>4</ele>
        <time>2019-11-26T09:40:04.000Z</time>
      </trkpt>
      <trkpt lat="50.95496" lon="2.42759">
        <ele>4</ele>
        <time>2019-11-26T09:40:09.000Z</time>
      </trkpt>
      <trkpt lat="50.95542" lon="2.42807">
        <ele>4</ele>
        <time>2019-11-26T09:40:17.000Z</time>
      </trkpt>
      <trkpt lat="50.9559" lon="2.42862">
        <ele>3</ele>
        <time>2019-11-26T09:40:26.000Z</time>
      </trkpt>
      <trkpt lat="50.95612" lon="2.42887">
        <ele>3</ele>
        <time>2019-11-26T09:40:30.000Z</time>
      </trkpt>
      <trkpt lat="50.9566" lon="2.42932">
        <ele>3</ele>
        <time>2019-11-26T09:40:38.000Z</time>
      </trkpt>
      <trkpt lat="50.95709" lon="2.42973">
        <ele>2</ele>
        <time>2019-11-26T09:40:46.000Z</time>
      </trkpt>
      <trkpt lat="50.9576" lon="2.43009">
        <ele>2</ele>
        <time>2019-11-26T09:40:54.000Z</time>
      </trkpt>
      <trkpt lat="50.95767" lon="2.43013">
        <ele>2</ele>
        <time>2019-11-26T09:40:55.000Z</time>
      </trkpt>
      <trkpt lat="50.95821" lon="2.43044">
        <ele>2</ele>
        <time>2019-11-26T09:41:03.000Z</time>
      </trkpt>
      <trkpt lat="50.95877" lon="2.43072">
        <ele>2</ele>
        <time>2019-11-26T09:41:11.000Z</time>
      </trkpt>
      <trkpt lat="50.95927" lon="2.43091">
        <ele>2</ele>
        <time>2019-11-26T09:41:18.000Z</time>
      </trkpt>
      <trkpt lat="50.95934" lon="2.43093">
        <ele>2</ele>
        <time>2019-11-26T09:41:19.000Z</time>
      </trkpt>
      <trkpt lat="50.9599" lon="2.43107">
        <ele>2</ele>
        <time>2019-11-26T09:41:27.000Z</time>
      </trkpt>
      <trkpt lat="50.96034" lon="2.4314">
        <ele>2</ele>
        <time>2019-11-26T09:41:38.000Z</time>
      </trkpt>
      <trkpt lat="50.96049" lon="2.43129">
        <ele>1</ele>
        <time>2019-11-26T09:41:41.000Z</time>
      </trkpt>
      <trkpt lat="50.96053" lon="2.43127">
        <ele>1</ele>
        <time>2019-11-26T09:41:42.000Z</time>
      </trkpt>
      <trkpt lat="50.9607" lon="2.43126">
        <ele>1</ele>
        <time>2019-11-26T09:41:49.000Z</time>
      </trkpt>
      <trkpt lat="50.96081" lon="2.43121">
        <ele>1</ele>
        <time>2019-11-26T09:41:51.000Z</time>
      </trkpt>
      <trkpt lat="50.96108" lon="2.43114">
        <ele>1</ele>
        <time>2019-11-26T09:41:55.000Z</time>
      </trkpt>
      <trkpt lat="50.96147" lon="2.43113">
        <ele>2</ele>
        <time>2019-11-26T09:42:01.000Z</time>
      </trkpt>
      <trkpt lat="50.96206" lon="2.43102">
        <ele>2</ele>
        <time>2019-11-26T09:42:10.000Z</time>
      </trkpt>
      <trkpt lat="50.96252" lon="2.43091">
        <ele>1</ele>
        <time>2019-11-26T09:42:17.000Z</time>
      </trkpt>
      <trkpt lat="50.9631" lon="2.4307">
        <ele>1</ele>
        <time>2019-11-26T09:42:26.000Z</time>
      </trkpt>
      <trkpt lat="50.96327" lon="2.43065">
        <ele>1</ele>
        <time>2019-11-26T09:42:29.000Z</time>
      </trkpt>
      <trkpt lat="50.96339" lon="2.43071">
        <ele>1</ele>
        <time>2019-11-26T09:42:33.000Z</time>
      </trkpt>
      <trkpt lat="50.96347" lon="2.4308">
        <ele>1</ele>
        <time>2019-11-26T09:42:37.000Z</time>
      </trkpt>
      <trkpt lat="50.96357" lon="2.43112">
        <ele>1</ele>
        <time>2019-11-26T09:42:42.000Z</time>
      </trkpt>
      <trkpt lat="50.96359" lon="2.43118">
        <ele>1</ele>
        <time>2019-11-26T09:42:43.000Z</time>
      </trkpt>
      <trkpt lat="50.96368" lon="2.43137">
        <ele>1</ele>
        <time>2019-11-26T09:42:46.000Z</time>
      </trkpt>
      <trkpt lat="50.96383" lon="2.43215">
        <ele>1</ele>
        <time>2019-11-26T09:42:59.000Z</time>
      </trkpt>
      <trkpt lat="50.96383" lon="2.4322">
        <ele>1</ele>
        <time>2019-11-26T09:43:01.000Z</time>
      </trkpt>
      <trkpt lat="50.96383" lon="2.4322">
        <ele>1</ele>
        <time>2019-11-26T09:43:02.000Z</time>
      </trkpt>
      <trkpt lat="50.96385" lon="2.43227">
        <ele>1</ele>
        <time>2019-11-26T09:44:30.000Z</time>
      </trkpt>
      <trkpt lat="50.96387" lon="2.43229">
        <ele>1</ele>
        <time>2019-11-26T09:44:31.000Z</time>
      </trkpt>
      <trkpt lat="50.96394" lon="2.43228">
        <ele>1</ele>
        <time>2019-11-26T09:44:34.000Z</time>
      </trkpt>
      <trkpt lat="50.96413" lon="2.43226">
        <ele>1</ele>
        <time>2019-11-26T09:44:39.000Z</time>
      </trkpt>
      <trkpt lat="50.96418" lon="2.43224">
        <ele>1</ele>
        <time>2019-11-26T09:44:40.000Z</time>
      </trkpt>
      <trkpt lat="50.96435" lon="2.43217">
        <ele>1</ele>
        <time>2019-11-26T09:44:43.000Z</time>
      </trkpt>
      <trkpt lat="50.96459" lon="2.43214">
        <ele>1</ele>
        <time>2019-11-26T09:44:47.000Z</time>
      </trkpt>
      <trkpt lat="50.96517" lon="2.43218">
        <ele>2</ele>
        <time>2019-11-26T09:44:56.000Z</time>
      </trkpt>
      <trkpt lat="50.96559" lon="2.43221">
        <ele>2</ele>
        <time>2019-11-26T09:45:10.000Z</time>
      </trkpt>
      <trkpt lat="50.96572" lon="2.43203">
        <ele>2</ele>
        <time>2019-11-26T09:45:15.000Z</time>
      </trkpt>
      <trkpt lat="50.96574" lon="2.43198">
        <ele>2</ele>
        <time>2019-11-26T09:45:16.000Z</time>
      </trkpt>
      <trkpt lat="50.96578" lon="2.43183">
        <ele>3</ele>
        <time>2019-11-26T09:45:18.000Z</time>
      </trkpt>
      <trkpt lat="50.96601" lon="2.43141">
        <ele>4</ele>
        <time>2019-11-26T09:45:26.000Z</time>
      </trkpt>
      <trkpt lat="50.96614" lon="2.43115">
        <ele>4</ele>
        <time>2019-11-26T09:45:30.000Z</time>
      </trkpt>
      <trkpt lat="50.96623" lon="2.43099">
        <ele>4</ele>
        <time>2019-11-26T09:45:33.000Z</time>
      </trkpt>
      <trkpt lat="50.9663" lon="2.43079">
        <ele>4</ele>
        <time>2019-11-26T09:45:36.000Z</time>
      </trkpt>
      <trkpt lat="50.96645" lon="2.43027">
        <ele>5</ele>
        <time>2019-11-26T09:45:42.000Z</time>
      </trkpt>
      <trkpt lat="50.96648" lon="2.43017">
        <ele>5</ele>
        <time>2019-11-26T09:45:43.000Z</time>
      </trkpt>
      <trkpt lat="50.96657" lon="2.42952">
        <ele>4</ele>
        <time>2019-11-26T09:45:50.000Z</time>
      </trkpt>
      <trkpt lat="50.96696" lon="2.42923">
        <ele>5</ele>
        <time>2019-11-26T09:46:00.000Z</time>
      </trkpt>
      <trkpt lat="50.96706" lon="2.42901">
        <ele>5</ele>
        <time>2019-11-26T09:46:03.000Z</time>
      </trkpt>
      <trkpt lat="50.96749" lon="2.42843">
        <ele>5</ele>
        <time>2019-11-26T09:46:13.000Z</time>
      </trkpt>
      <trkpt lat="50.96757" lon="2.42832">
        <ele>5</ele>
        <time>2019-11-26T09:46:15.000Z</time>
      </trkpt>
      <trkpt lat="50.96777" lon="2.42767">
        <ele>4</ele>
        <time>2019-11-26T09:46:24.000Z</time>
      </trkpt>
      <trkpt lat="50.96828" lon="2.42736">
        <ele>4</ele>
        <time>2019-11-26T09:46:34.000Z</time>
      </trkpt>
      <trkpt lat="50.9688" lon="2.42699">
        <ele>4</ele>
        <time>2019-11-26T09:46:44.000Z</time>
      </trkpt>
      <trkpt lat="50.96898" lon="2.42685">
        <ele>4</ele>
        <time>2019-11-26T09:46:48.000Z</time>
      </trkpt>
      <trkpt lat="50.96902" lon="2.42681">
        <ele>4</ele>
        <time>2019-11-26T09:46:49.000Z</time>
      </trkpt>
      <trkpt lat="50.96928" lon="2.42675">
        <ele>4</ele>
        <time>2019-11-26T09:46:54.000Z</time>
      </trkpt>
      <trkpt lat="50.9698" lon="2.42684">
        <ele>3</ele>
        <time>2019-11-26T09:47:05.000Z</time>
      </trkpt>
      <trkpt lat="50.96983" lon="2.42688">
        <ele>3</ele>
        <time>2019-11-26T09:47:06.000Z</time>
      </trkpt>
      <trkpt lat="50.96997" lon="2.42701">
        <ele>3</ele>
        <time>2019-11-26T09:47:09.000Z</time>
      </trkpt>
      <trkpt lat="50.97051" lon="2.42723">
        <ele>2</ele>
        <time>2019-11-26T09:47:18.000Z</time>
      </trkpt>
      <trkpt lat="50.97069" lon="2.4273">
        <ele>2</ele>
        <time>2019-11-26T09:47:21.000Z</time>
      </trkpt>
      <trkpt lat="50.97081" lon="2.42729">
        <ele>2</ele>
        <time>2019-11-26T09:47:24.000Z</time>
      </trkpt>
      <trkpt lat="50.97085" lon="2.42722">
        <ele>1</ele>
        <time>2019-11-26T09:47:26.000Z</time>
      </trkpt>
      <trkpt lat="50.97087" lon="2.42715">
        <ele>1</ele>
        <time>2019-11-26T09:47:28.000Z</time>
      </trkpt>
      <trkpt lat="50.97088" lon="2.42713">
        <ele>1</ele>
        <time>2019-11-26T09:47:30.000Z</time>
      </trkpt>
      <trkpt lat="50.97088" lon="2.42712">
        <ele>1</ele>
        <time>2019-11-26T09:47:31.000Z</time>
      </trkpt>
      <trkpt lat="50.971" lon="2.42722">
        <ele>1</ele>
        <time>2019-11-26T09:47:57.000Z</time>
      </trkpt>
      <trkpt lat="50.97101" lon="2.42726">
        <ele>1</ele>
        <time>2019-11-26T09:47:58.000Z</time>
      </trkpt>
      <trkpt lat="50.97106" lon="2.42744">
        <ele>2</ele>
        <time>2019-11-26T09:48:02.000Z</time>
      </trkpt>
      <trkpt lat="50.97125" lon="2.42771">
        <ele>2</ele>
        <time>2019-11-26T09:48:09.000Z</time>
      </trkpt>
      <trkpt lat="50.97138" lon="2.42823">
        <ele>2</ele>
        <time>2019-11-26T09:48:15.000Z</time>
      </trkpt>
      <trkpt lat="50.97159" lon="2.42905">
        <ele>2</ele>
        <time>2019-11-26T09:48:25.000Z</time>
      </trkpt>
      <trkpt lat="50.97166" lon="2.42939">
        <ele>3</ele>
        <time>2019-11-26T09:48:30.000Z</time>
      </trkpt>
      <trkpt lat="50.97165" lon="2.42943">
        <ele>3</ele>
        <time>2019-11-26T09:48:31.000Z</time>
      </trkpt>
      <trkpt lat="50.97161" lon="2.42954">
        <ele>3</ele>
        <time>2019-11-26T09:48:36.000Z</time>
      </trkpt>
      <trkpt lat="50.97162" lon="2.42958">
        <ele>3</ele>
        <time>2019-11-26T09:48:38.000Z</time>
      </trkpt>
      <trkpt lat="50.97163" lon="2.42959">
        <ele>3</ele>
        <time>2019-11-26T09:48:40.000Z</time>
      </trkpt>
      <trkpt lat="50.97163" lon="2.4296">
        <ele>3</ele>
        <time>2019-11-26T09:48:41.000Z</time>
      </trkpt>
      <trkpt lat="50.97171" lon="2.42974">
        <ele>3</ele>
        <time>2019-11-26T09:48:54.000Z</time>
      </trkpt>
      <trkpt lat="50.97176" lon="2.42989">
        <ele>3</ele>
        <time>2019-11-26T09:48:57.000Z</time>
      </trkpt>
      <trkpt lat="50.97171" lon="2.43073">
        <ele>3</ele>
        <time>2019-11-26T09:49:12.000Z</time>
      </trkpt>
      <trkpt lat="50.97169" lon="2.43085">
        <ele>3</ele>
        <time>2019-11-26T09:49:14.000Z</time>
      </trkpt>
      <trkpt lat="50.97166" lon="2.43106">
        <ele>3</ele>
        <time>2019-11-26T09:49:18.000Z</time>
      </trkpt>
      <trkpt lat="50.97165" lon="2.43116">
        <ele>3</ele>
        <time>2019-11-26T09:49:20.000Z</time>
      </trkpt>
      <trkpt lat="50.97158" lon="2.43162">
        <ele>2</ele>
        <time>2019-11-26T09:49:30.000Z</time>
      </trkpt>
      <trkpt lat="50.97136" lon="2.43223">
        <ele>3</ele>
        <time>2019-11-26T09:49:42.000Z</time>
      </trkpt>
      <trkpt lat="50.97125" lon="2.43251">
        <ele>3</ele>
        <time>2019-11-26T09:49:50.000Z</time>
      </trkpt>
      <trkpt lat="50.97117" lon="2.43284">
        <ele>4</ele>
        <time>2019-11-26T09:49:57.000Z</time>
      </trkpt>
      <trkpt lat="50.97115" lon="2.43292">
        <ele>4</ele>
        <time>2019-11-26T09:49:58.000Z</time>
      </trkpt>
      <trkpt lat="50.97103" lon="2.43319">
        <ele>4</ele>
        <time>2019-11-26T09:50:02.000Z</time>
      </trkpt>
      <trkpt lat="50.97099" lon="2.43325">
        <ele>4</ele>
        <time>2019-11-26T09:50:03.000Z</time>
      </trkpt>
      <trkpt lat="50.97081" lon="2.43346">
        <ele>5</ele>
        <time>2019-11-26T09:50:07.000Z</time>
      </trkpt>
      <trkpt lat="50.97036" lon="2.43399">
        <ele>6</ele>
        <time>2019-11-26T09:50:17.000Z</time>
      </trkpt>
      <trkpt lat="50.97029" lon="2.43411">
        <ele>7</ele>
        <time>2019-11-26T09:50:19.000Z</time>
      </trkpt>
      <trkpt lat="50.97011" lon="2.43475">
        <ele>8</ele>
        <time>2019-11-26T09:50:29.000Z</time>
      </trkpt>
      <trkpt lat="50.97011" lon="2.43486">
        <ele>8</ele>
        <time>2019-11-26T09:50:32.000Z</time>
      </trkpt>
      <trkpt lat="50.97017" lon="2.43496">
        <ele>8</ele>
        <time>2019-11-26T09:50:35.000Z</time>
      </trkpt>
      <trkpt lat="50.97022" lon="2.43508">
        <ele>8</ele>
        <time>2019-11-26T09:50:38.000Z</time>
      </trkpt>
      <trkpt lat="50.97022" lon="2.43513">
        <ele>8</ele>
        <time>2019-11-26T09:50:39.000Z</time>
      </trkpt>
      <trkpt lat="50.97014" lon="2.43537">
        <ele>9</ele>
        <time>2019-11-26T09:50:43.000Z</time>
      </trkpt>
      <trkpt lat="50.97009" lon="2.43561">
        <ele>9</ele>
        <time>2019-11-26T09:50:46.000Z</time>
      </trkpt>
      <trkpt lat="50.96996" lon="2.43633">
        <ele>12</ele>
        <time>2019-11-26T09:50:56.000Z</time>
      </trkpt>
      <trkpt lat="50.96995" lon="2.43639">
        <ele>12</ele>
        <time>2019-11-26T09:50:57.000Z</time>
      </trkpt>
      <trkpt lat="50.96993" lon="2.43645">
        <ele>12</ele>
        <time>2019-11-26T09:50:58.000Z</time>
      </trkpt>
      <trkpt lat="50.96981" lon="2.43662">
        <ele>12</ele>
        <time>2019-11-26T09:51:03.000Z</time>
      </trkpt>
      <trkpt lat="50.96973" lon="2.43668">
        <ele>13</ele>
        <time>2019-11-26T09:51:06.000Z</time>
      </trkpt>
      <trkpt lat="50.96963" lon="2.43678">
        <ele>13</ele>
        <time>2019-11-26T09:51:10.000Z</time>
      </trkpt>
      <trkpt lat="50.96939" lon="2.43709">
        <ele>14</ele>
        <time>2019-11-26T09:51:17.000Z</time>
      </trkpt>
      <trkpt lat="50.96934" lon="2.43721">
        <ele>14</ele>
        <time>2019-11-26T09:51:19.000Z</time>
      </trkpt>
      <trkpt lat="50.96932" lon="2.43758">
        <ele>15</ele>
        <time>2019-11-26T09:51:24.000Z</time>
      </trkpt>
      <trkpt lat="50.96933" lon="2.43765">
        <ele>15</ele>
        <time>2019-11-26T09:51:25.000Z</time>
      </trkpt>
      <trkpt lat="50.96936" lon="2.43779">
        <ele>15</ele>
        <time>2019-11-26T09:51:27.000Z</time>
      </trkpt>
      <trkpt lat="50.96942" lon="2.43801">
        <ele>15</ele>
        <time>2019-11-26T09:51:30.000Z</time>
      </trkpt>
      <trkpt lat="50.9695" lon="2.43831">
        <ele>1</ele>
        <time>2019-11-26T09:51:34.000Z</time>
      </trkpt>
      <trkpt lat="50.96968" lon="2.43902">
        <ele>1.7999999523163</ele>
        <time>2019-11-26T09:51:43.000Z</time>
      </trkpt>
      <trkpt lat="50.96955" lon="2.43923">
        <ele>1.7999999523163</ele>
        <time>2019-11-26T09:51:47.000Z</time>
      </trkpt>
      <trkpt lat="50.96936" lon="2.43942">
        <ele>2.2000000476837</ele>
        <time>2019-11-26T09:51:52.000Z</time>
      </trkpt>
      <trkpt lat="50.96926" lon="2.43952">
        <ele>2.4000000953674</ele>
        <time>2019-11-26T09:51:55.000Z</time>
      </trkpt>
      <trkpt lat="50.96924" lon="2.43959">
        <ele>2.4000000953674</ele>
        <time>2019-11-26T09:51:57.000Z</time>
      </trkpt>
      <trkpt lat="50.9694" lon="2.43996">
        <ele>3.2000000476837</ele>
        <time>2019-11-26T09:52:05.000Z</time>
      </trkpt>
      <trkpt lat="50.96943" lon="2.44006">
        <ele>3.4000000953674</ele>
        <time>2019-11-26T09:52:08.000Z</time>
      </trkpt>
      <trkpt lat="50.96944" lon="2.44008">
        <ele>3.5999999046326</ele>
        <time>2019-11-26T09:52:10.000Z</time>
      </trkpt>
      <trkpt lat="50.96944" lon="2.44018">
        <ele>3.7999999523163</ele>
        <time>2019-11-26T09:52:17.000Z</time>
      </trkpt>
      <trkpt lat="50.96925" lon="2.44043">
        <ele>2.4000000953674</ele>
        <time>2019-11-26T09:52:26.000Z</time>
      </trkpt>
      <trkpt lat="50.96897" lon="2.44075">
        <ele>1.7999999523163</ele>
        <time>2019-11-26T09:52:35.000Z</time>
      </trkpt>
      <trkpt lat="50.96865" lon="2.44111">
        <ele>1.7999999523163</ele>
        <time>2019-11-26T09:52:44.000Z</time>
      </trkpt>
      <trkpt lat="50.96849" lon="2.44129">
        <ele>2</ele>
        <time>2019-11-26T09:52:49.000Z</time>
      </trkpt>
      <trkpt lat="50.96847" lon="2.44135">
        <ele>2.2000000476837</ele>
        <time>2019-11-26T09:52:51.000Z</time>
      </trkpt>
      <trkpt lat="50.96843" lon="2.44164">
        <ele>2.2000000476837</ele>
        <time>2019-11-26T09:52:55.000Z</time>
      </trkpt>
      <trkpt lat="50.96844" lon="2.44172">
        <ele>2.2000000476837</ele>
        <time>2019-11-26T09:52:56.000Z</time>
      </trkpt>
      <trkpt lat="50.96838" lon="2.44237">
        <ele>2.2000000476837</ele>
        <time>2019-11-26T09:53:06.000Z</time>
      </trkpt>
      <trkpt lat="50.96811" lon="2.44291">
        <ele>1.7999999523163</ele>
        <time>2019-11-26T09:53:15.000Z</time>
      </trkpt>
      <trkpt lat="50.96803" lon="2.44303">
        <ele>1.7999999523163</ele>
        <time>2019-11-26T09:53:18.000Z</time>
      </trkpt>
      <trkpt lat="50.96789" lon="2.44291">
        <ele>1.7999999523163</ele>
        <time>2019-11-26T09:53:24.000Z</time>
      </trkpt>
      <trkpt lat="50.96775" lon="2.44268">
        <ele>1.7999999523163</ele>
        <time>2019-11-26T09:53:29.000Z</time>
      </trkpt>
      <trkpt lat="50.96765" lon="2.44193">
        <ele>1.7999999523163</ele>
        <time>2019-11-26T09:53:44.000Z</time>
      </trkpt>
      <trkpt lat="50.96774" lon="2.44165">
        <ele>2.2000000476837</ele>
        <time>2019-11-26T09:53:50.000Z</time>
      </trkpt>
      <trkpt lat="50.96773" lon="2.44162">
        <ele>2.2000000476837</ele>
        <time>2019-11-26T09:53:51.000Z</time>
      </trkpt>
      <trkpt lat="50.96764" lon="2.44147">
        <ele>2.5999999046326</ele>
        <time>2019-11-26T09:53:56.000Z</time>
      </trkpt>
      <trkpt lat="50.96726" lon="2.44079">
        <ele>2.4000000953674</ele>
        <time>2019-11-26T09:54:12.000Z</time>
      </trkpt>
      <trkpt lat="50.96685" lon="2.4402">
        <ele>2.2000000476837</ele>
        <time>2019-11-26T09:54:25.000Z</time>
      </trkpt>
      <trkpt lat="50.96675" lon="2.44006">
        <ele>2.4000000953674</ele>
        <time>2019-11-26T09:54:29.000Z</time>
      </trkpt>
      <trkpt lat="50.96655" lon="2.44013">
        <ele>2.4000000953674</ele>
        <time>2019-11-26T09:54:37.000Z</time>
      </trkpt>
      <trkpt lat="50.9665" lon="2.44016">
        <ele>2.4000000953674</ele>
        <time>2019-11-26T09:54:39.000Z</time>
      </trkpt>
      <trkpt lat="50.96639" lon="2.44023">
        <ele>2.4000000953674</ele>
        <time>2019-11-26T09:54:43.000Z</time>
      </trkpt>
      <trkpt lat="50.96612" lon="2.44017">
        <ele>1.3999999761581</ele>
        <time>2019-11-26T09:54:50.000Z</time>
      </trkpt>
      <trkpt lat="50.96602" lon="2.44011">
        <ele>1</ele>
        <time>2019-11-26T09:54:53.000Z</time>
      </trkpt>
      <trkpt lat="50.96571" lon="2.43991">
        <ele>0.60000002384186</ele>
        <time>2019-11-26T09:55:01.000Z</time>
      </trkpt>
      <trkpt lat="50.96569" lon="2.43987">
        <ele>0.60000002384186</ele>
        <time>2019-11-26T09:55:02.000Z</time>
      </trkpt>
      <trkpt lat="50.96575" lon="2.43968">
        <ele>0.60000002384186</ele>
        <time>2019-11-26T09:55:08.000Z</time>
      </trkpt>
      <trkpt lat="50.96597" lon="2.43938">
        <ele>0.60000002384186</ele>
        <time>2019-11-26T09:55:15.000Z</time>
      </trkpt>
      <trkpt lat="50.96633" lon="2.43872">
        <ele>1</ele>
        <time>2019-11-26T09:55:28.000Z</time>
      </trkpt>
      <trkpt lat="50.96657" lon="2.43837">
        <ele>1.2000000476837</ele>
        <time>2019-11-26T09:55:34.000Z</time>
      </trkpt>
      <trkpt lat="50.96677" lon="2.43809">
        <ele>1.3999999761581</ele>
        <time>2019-11-26T09:55:39.000Z</time>
      </trkpt>
      <trkpt lat="50.96689" lon="2.43807">
        <ele>1.6000000238419</ele>
        <time>2019-11-26T09:55:43.000Z</time>
      </trkpt>
      <trkpt lat="50.96691" lon="2.43802">
        <ele>1.7999999523163</ele>
        <time>2019-11-26T09:55:45.000Z</time>
      </trkpt>
      <trkpt lat="50.96697" lon="2.43786">
        <ele>1.7999999523163</ele>
        <time>2019-11-26T09:55:48.000Z</time>
      </trkpt>
      <trkpt lat="50.96709" lon="2.43755">
        <ele>2.4000000953674</ele>
        <time>2019-11-26T09:55:53.000Z</time>
      </trkpt>
      <trkpt lat="50.96709" lon="2.43699">
        <ele>2</ele>
        <time>2019-11-26T09:56:03.000Z</time>
      </trkpt>
      <trkpt lat="50.96716" lon="2.43689">
        <ele>1.7999999523163</ele>
        <time>2019-11-26T09:56:07.000Z</time>
      </trkpt>
      <trkpt lat="50.96719" lon="2.43683">
        <ele>1.6000000238419</ele>
        <time>2019-11-26T09:56:10.000Z</time>
      </trkpt>
      <trkpt lat="50.9672" lon="2.43655">
        <ele>1.2000000476837</ele>
        <time>2019-11-26T09:56:15.000Z</time>
      </trkpt>
      <trkpt lat="50.9672" lon="2.43637">
        <ele>0.80000001192093</ele>
        <time>2019-11-26T09:56:17.000Z</time>
      </trkpt>
      <trkpt lat="50.96719" lon="2.4362">
        <ele>9</ele>
        <time>2019-11-26T09:56:19.000Z</time>
      </trkpt>
      <trkpt lat="50.96719" lon="2.43605">
        <ele>9</ele>
        <time>2019-11-26T09:56:22.000Z</time>
      </trkpt>
      <trkpt lat="50.96719" lon="2.43586">
        <ele>9</ele>
        <time>2019-11-26T09:56:26.000Z</time>
      </trkpt>
      <trkpt lat="50.96718" lon="2.43563">
        <ele>8</ele>
        <time>2019-11-26T09:56:29.000Z</time>
      </trkpt>
      <trkpt lat="50.96717" lon="2.43548">
        <ele>8</ele>
        <time>2019-11-26T09:56:34.000Z</time>
      </trkpt>
      <trkpt lat="50.96715" lon="2.43543">
        <ele>7</ele>
        <time>2019-11-26T09:56:41.000Z</time>
      </trkpt>
      <trkpt lat="50.9671" lon="2.43529">
        <ele>7</ele>
        <time>2019-11-26T09:56:44.000Z</time>
      </trkpt>
      <trkpt lat="50.96707" lon="2.43516">
        <ele>7</ele>
        <time>2019-11-26T09:56:46.000Z</time>
      </trkpt>
      <trkpt lat="50.96698" lon="2.43484">
        <ele>6</ele>
        <time>2019-11-26T09:56:51.000Z</time>
      </trkpt>
      <trkpt lat="50.96694" lon="2.43462">
        <ele>6</ele>
        <time>2019-11-26T09:56:54.000Z</time>
      </trkpt>
      <trkpt lat="50.96692" lon="2.43447">
        <ele>6</ele>
        <time>2019-11-26T09:56:56.000Z</time>
      </trkpt>
      <trkpt lat="50.96699" lon="2.43422">
        <ele>6</ele>
        <time>2019-11-26T09:57:01.000Z</time>
      </trkpt>
      <trkpt lat="50.96702" lon="2.43408">
        <ele>5</ele>
        <time>2019-11-26T09:57:03.000Z</time>
      </trkpt>
      <trkpt lat="50.967" lon="2.43382">
        <ele>5</ele>
        <time>2019-11-26T09:57:06.000Z</time>
      </trkpt>
      <trkpt lat="50.96697" lon="2.43364">
        <ele>5</ele>
        <time>2019-11-26T09:57:08.000Z</time>
      </trkpt>
      <trkpt lat="50.96694" lon="2.43346">
        <ele>5</ele>
        <time>2019-11-26T09:57:10.000Z</time>
      </trkpt>
      <trkpt lat="50.96684" lon="2.43302">
        <ele>5</ele>
        <time>2019-11-26T09:57:15.000Z</time>
      </trkpt>
      <trkpt lat="50.96676" lon="2.43267">
        <ele>5</ele>
        <time>2019-11-26T09:57:19.000Z</time>
      </trkpt>
      <trkpt lat="50.9669" lon="2.43233">
        <ele>5</ele>
        <time>2019-11-26T09:57:26.000Z</time>
      </trkpt>
      <trkpt lat="50.96725" lon="2.4322">
        <ele>5</ele>
        <time>2019-11-26T09:57:33.000Z</time>
      </trkpt>
      <trkpt lat="50.96776" lon="2.43234">
        <ele>6</ele>
        <time>2019-11-26T09:57:43.000Z</time>
      </trkpt>
      <trkpt lat="50.96779" lon="2.43182">
        <ele>6</ele>
        <time>2019-11-26T09:57:50.000Z</time>
      </trkpt>
      <trkpt lat="50.96767" lon="2.43127">
        <ele>6</ele>
        <time>2019-11-26T09:57:56.000Z</time>
      </trkpt>
      <trkpt lat="50.96776" lon="2.43037">
        <ele>6</ele>
        <time>2019-11-26T09:58:06.000Z</time>
      </trkpt>
      <trkpt lat="50.9678" lon="2.43014">
        <ele>6</ele>
        <time>2019-11-26T09:58:09.000Z</time>
      </trkpt>
      <trkpt lat="50.96801" lon="2.43017">
        <ele>6</ele>
        <time>2019-11-26T09:58:14.000Z</time>
      </trkpt>
      <trkpt lat="50.96852" lon="2.43034">
        <ele>5</ele>
        <time>2019-11-26T09:58:24.000Z</time>
      </trkpt>
      <trkpt lat="50.96855" lon="2.43031">
        <ele>5</ele>
        <time>2019-11-26T09:58:25.000Z</time>
      </trkpt>
      <trkpt lat="50.96861" lon="2.43">
        <ele>5</ele>
        <time>2019-11-26T09:58:29.000Z</time>
      </trkpt>
      <trkpt lat="50.96867" lon="2.42912">
        <ele>5</ele>
        <time>2019-11-26T09:58:38.000Z</time>
      </trkpt>
      <trkpt lat="50.96878" lon="2.42844">
        <ele>5</ele>
        <time>2019-11-26T09:58:46.000Z</time>
      </trkpt>
      <trkpt lat="50.96895" lon="2.42755">
        <ele>4</ele>
        <time>2019-11-26T09:58:57.000Z</time>
      </trkpt>
      <trkpt lat="50.9691" lon="2.4267">
        <ele>4</ele>
        <time>2019-11-26T09:59:06.000Z</time>
      </trkpt>
      <trkpt lat="50.96929" lon="2.42589">
        <ele>3</ele>
        <time>2019-11-26T09:59:18.000Z</time>
      </trkpt>
      <trkpt lat="50.96945" lon="2.42571">
        <ele>3</ele>
        <time>2019-11-26T09:59:22.000Z</time>
      </trkpt>
      <trkpt lat="50.9697" lon="2.42548">
        <ele>2</ele>
        <time>2019-11-26T09:59:27.000Z</time>
      </trkpt>
      <trkpt lat="50.97006" lon="2.42514">
        <ele>2</ele>
        <time>2019-11-26T09:59:34.000Z</time>
      </trkpt>
      <trkpt lat="50.97057" lon="2.4247">
        <ele>1</ele>
        <time>2019-11-26T09:59:44.000Z</time>
      </trkpt>
      <trkpt lat="50.97099" lon="2.42433">
        <ele>1</ele>
        <time>2019-11-26T09:59:54.000Z</time>
      </trkpt>
      <trkpt lat="50.97101" lon="2.42451">
        <ele>1</ele>
        <time>2019-11-26T09:59:59.000Z</time>
      </trkpt>
      <trkpt lat="50.97103" lon="2.42462">
        <ele>1</ele>
        <time>2019-11-26T10:00:02.000Z</time>
      </trkpt>
      <trkpt lat="50.97111" lon="2.4246">
        <ele>1</ele>
        <time>2019-11-26T10:00:07.000Z</time>
      </trkpt>
      <trkpt lat="50.97116" lon="2.42445">
        <ele>1</ele>
        <time>2019-11-26T10:00:10.000Z</time>
      </trkpt>
      <trkpt lat="50.97119" lon="2.42439">
        <ele>1</ele>
        <time>2019-11-26T10:00:11.000Z</time>
      </trkpt>
      <trkpt lat="50.97132" lon="2.42424">
        <ele>2</ele>
        <time>2019-11-26T10:00:14.000Z</time>
      </trkpt>
      <trkpt lat="50.97136" lon="2.4242">
        <ele>2</ele>
        <time>2019-11-26T10:00:15.000Z</time>
      </trkpt>
      <trkpt lat="50.97168" lon="2.42392">
        <ele>2</ele>
        <time>2019-11-26T10:00:23.000Z</time>
      </trkpt>
      <trkpt lat="50.97174" lon="2.42406">
        <ele>2</ele>
        <time>2019-11-26T10:00:27.000Z</time>
      </trkpt>
      <trkpt lat="50.97172" lon="2.42418">
        <ele>2</ele>
        <time>2019-11-26T10:00:32.000Z</time>
      </trkpt>
      <trkpt lat="50.97172" lon="2.4242">
        <ele>2</ele>
        <time>2019-11-26T10:00:33.000Z</time>
      </trkpt>
      <trkpt lat="50.97173" lon="2.42443">
        <ele>2</ele>
        <time>2019-11-26T10:00:40.000Z</time>
      </trkpt>
      <trkpt lat="50.97178" lon="2.42464">
        <ele>2</ele>
        <time>2019-11-26T10:00:44.000Z</time>
      </trkpt>
      <trkpt lat="50.97188" lon="2.42513">
        <ele>2</ele>
        <time>2019-11-26T10:00:52.000Z</time>
      </trkpt>
      <trkpt lat="50.9723" lon="2.42563">
        <ele>1</ele>
        <time>2019-11-26T10:01:08.000Z</time>
      </trkpt>
      <trkpt lat="50.97248" lon="2.42548">
        <ele>1</ele>
        <time>2019-11-26T10:01:13.000Z</time>
      </trkpt>
      <trkpt lat="50.9726" lon="2.42537">
        <ele>1</ele>
        <time>2019-11-26T10:01:16.000Z</time>
      </trkpt>
      <trkpt lat="50.97269" lon="2.4253">
        <ele>1</ele>
        <time>2019-11-26T10:01:18.000Z</time>
      </trkpt>
      <trkpt lat="50.97303" lon="2.42501">
        <ele>1</ele>
        <time>2019-11-26T10:01:26.000Z</time>
      </trkpt>
      <trkpt lat="50.9735" lon="2.42448">
        <ele>2</ele>
        <time>2019-11-26T10:01:38.000Z</time>
      </trkpt>
      <trkpt lat="50.97356" lon="2.42437">
        <ele>2</ele>
        <time>2019-11-26T10:01:40.000Z</time>
      </trkpt>
      <trkpt lat="50.97365" lon="2.42412">
        <ele>1</ele>
        <time>2019-11-26T10:01:44.000Z</time>
      </trkpt>
      <trkpt lat="50.97367" lon="2.42405">
        <ele>1</ele>
        <time>2019-11-26T10:01:45.000Z</time>
      </trkpt>
      <trkpt lat="50.9738" lon="2.42341">
        <ele>1</ele>
        <time>2019-11-26T10:01:56.000Z</time>
      </trkpt>
      <trkpt lat="50.97369" lon="2.4233">
        <ele>2.8</ele>
        <time>2019-11-26T10:01:59.000Z</time>
      </trkpt>
      <trkpt lat="50.97361" lon="2.42319">
        <ele>2.5</ele>
        <time>2019-11-26T10:02:01.000Z</time>
      </trkpt>
      <trkpt lat="50.97315" lon="2.42348">
        <ele>2.2</ele>
        <time>2019-11-26T10:02:11.000Z</time>
      </trkpt>
      <trkpt lat="50.97276" lon="2.42369">
        <ele>2.3</ele>
        <time>2019-11-26T10:02:19.000Z</time>
      </trkpt>
      <trkpt lat="50.97232" lon="2.42351">
        <ele>2</ele>
        <time>2019-11-26T10:02:27.000Z</time>
      </trkpt>
      <trkpt lat="50.97204" lon="2.42346">
        <ele>2</ele>
        <time>2019-11-26T10:02:32.000Z</time>
      </trkpt>
      <trkpt lat="50.97194" lon="2.42346">
        <ele>2</ele>
        <time>2019-11-26T10:02:34.000Z</time>
      </trkpt>
      <trkpt lat="50.97186" lon="2.42346">
        <ele>2</ele>
        <time>2019-11-26T10:02:36.000Z</time>
      </trkpt>
      <trkpt lat="50.97178" lon="2.42346">
        <ele>2</ele>
        <time>2019-11-26T10:02:38.000Z</time>
      </trkpt>
      <trkpt lat="50.97165" lon="2.42323">
        <ele>2</ele>
        <time>2019-11-26T10:02:42.000Z</time>
      </trkpt>
      <trkpt lat="50.97163" lon="2.42316">
        <ele>2</ele>
        <time>2019-11-26T10:02:43.000Z</time>
      </trkpt>
      <trkpt lat="50.97157" lon="2.42295">
        <ele>2</ele>
        <time>2019-11-26T10:02:46.000Z</time>
      </trkpt>
      <trkpt lat="50.97164" lon="2.42275">
        <ele>2</ele>
        <time>2019-11-26T10:02:49.000Z</time>
      </trkpt>
      <trkpt lat="50.97181" lon="2.42257">
        <ele>3</ele>
        <time>2019-11-26T10:02:52.000Z</time>
      </trkpt>
      <trkpt lat="50.97198" lon="2.42238">
        <ele>2</ele>
        <time>2019-11-26T10:02:55.000Z</time>
      </trkpt>
      <trkpt lat="50.9722" lon="2.42212">
        <ele>2</ele>
        <time>2019-11-26T10:02:59.000Z</time>
      </trkpt>
      <trkpt lat="50.97236" lon="2.42193">
        <ele>2</ele>
        <time>2019-11-26T10:03:02.000Z</time>
      </trkpt>
      <trkpt lat="50.97258" lon="2.42166">
        <ele>2</ele>
        <time>2019-11-26T10:03:06.000Z</time>
      </trkpt>
      <trkpt lat="50.97278" lon="2.42139">
        <ele>2</ele>
        <time>2019-11-26T10:03:10.000Z</time>
      </trkpt>
      <trkpt lat="50.97297" lon="2.42112">
        <ele>3</ele>
        <time>2019-11-26T10:03:14.000Z</time>
      </trkpt>
      <trkpt lat="50.97331" lon="2.42055">
        <ele>3</ele>
        <time>2019-11-26T10:03:22.000Z</time>
      </trkpt>
      <trkpt lat="50.97369" lon="2.41988">
        <ele>1.4</ele>
        <time>2019-11-26T10:03:31.000Z</time>
      </trkpt>
      <trkpt lat="50.97404" lon="2.41918">
        <ele>2</ele>
        <time>2019-11-26T10:03:40.000Z</time>
      </trkpt>
      <trkpt lat="50.97439" lon="2.41852">
        <ele>1.7</ele>
        <time>2019-11-26T10:03:49.000Z</time>
      </trkpt>
      <trkpt lat="50.97475" lon="2.41784">
        <ele>1.2</ele>
        <time>2019-11-26T10:03:58.000Z</time>
      </trkpt>
      <trkpt lat="50.9748" lon="2.41777">
        <ele>1</ele>
        <time>2019-11-26T10:03:59.000Z</time>
      </trkpt>
      <trkpt lat="50.97519" lon="2.41711">
        <ele>1.6</ele>
        <time>2019-11-26T10:04:08.000Z</time>
      </trkpt>
      <trkpt lat="50.9755" lon="2.41658">
        <ele>1.6</ele>
        <time>2019-11-26T10:04:15.000Z</time>
      </trkpt>
      <trkpt lat="50.97592" lon="2.41592">
        <ele>1.9</ele>
        <time>2019-11-26T10:04:24.000Z</time>
      </trkpt>
      <trkpt lat="50.97635" lon="2.41526">
        <ele>2</ele>
        <time>2019-11-26T10:04:33.000Z</time>
      </trkpt>
      <trkpt lat="50.97672" lon="2.41468">
        <ele>1.2</ele>
        <time>2019-11-26T10:04:41.000Z</time>
      </trkpt>
      <trkpt lat="50.97716" lon="2.41406">
        <ele>2</ele>
        <time>2019-11-26T10:04:50.000Z</time>
      </trkpt>
      <trkpt lat="50.9776" lon="2.41346">
        <ele>1.8</ele>
        <time>2019-11-26T10:04:59.000Z</time>
      </trkpt>
      <trkpt lat="50.97804" lon="2.41289">
        <ele>1.4</ele>
        <time>2019-11-26T10:05:07.000Z</time>
      </trkpt>
      <trkpt lat="50.9785" lon="2.4123">
        <ele>1.7</ele>
        <time>2019-11-26T10:05:15.000Z</time>
      </trkpt>
      <trkpt lat="50.9789" lon="2.41179">
        <ele>2</ele>
        <time>2019-11-26T10:05:22.000Z</time>
      </trkpt>
      <trkpt lat="50.97934" lon="2.41123">
        <ele>1.6</ele>
        <time>2019-11-26T10:05:30.000Z</time>
      </trkpt>
      <trkpt lat="50.9797" lon="2.41077">
        <ele>2</ele>
        <time>2019-11-26T10:05:37.000Z</time>
      </trkpt>
      <trkpt lat="50.98002" lon="2.41036">
        <ele>1.3</ele>
        <time>2019-11-26T10:05:43.000Z</time>
      </trkpt>
      <trkpt lat="50.98047" lon="2.40978">
        <ele>1.9</ele>
        <time>2019-11-26T10:05:51.000Z</time>
      </trkpt>
      <trkpt lat="50.98093" lon="2.40919">
        <ele>2</ele>
        <time>2019-11-26T10:05:59.000Z</time>
      </trkpt>
      <trkpt lat="50.98137" lon="2.40862">
        <ele>1.9</ele>
        <time>2019-11-26T10:06:07.000Z</time>
      </trkpt>
      <trkpt lat="50.98184" lon="2.40801">
        <ele>2</ele>
        <time>2019-11-26T10:06:16.000Z</time>
      </trkpt>
      <trkpt lat="50.98228" lon="2.40744">
        <ele>1</ele>
        <time>2019-11-26T10:06:24.000Z</time>
      </trkpt>
      <trkpt lat="50.98269" lon="2.40688">
        <ele>1.5</ele>
        <time>2019-11-26T10:06:32.000Z</time>
      </trkpt>
      <trkpt lat="50.98312" lon="2.40632">
        <ele>1.2</ele>
        <time>2019-11-26T10:06:40.000Z</time>
      </trkpt>
      <trkpt lat="50.98357" lon="2.40574">
        <ele>1.6</ele>
        <time>2019-11-26T10:06:48.000Z</time>
      </trkpt>
      <trkpt lat="50.98403" lon="2.40515">
        <ele>1.5</ele>
        <time>2019-11-26T10:06:56.000Z</time>
      </trkpt>
      <trkpt lat="50.98447" lon="2.40457">
        <ele>2</ele>
        <time>2019-11-26T10:07:04.000Z</time>
      </trkpt>
      <trkpt lat="50.98491" lon="2.404">
        <ele>1.7</ele>
        <time>2019-11-26T10:07:12.000Z</time>
      </trkpt>
      <trkpt lat="50.9852" lon="2.40353">
        <ele>2.5</ele>
        <time>2019-11-26T10:07:19.000Z</time>
      </trkpt>
      <trkpt lat="50.98525" lon="2.40331">
        <ele>2</ele>
        <time>2019-11-26T10:07:22.000Z</time>
      </trkpt>
      <trkpt lat="50.98544" lon="2.40311">
        <ele>2.1</ele>
        <time>2019-11-26T10:07:26.000Z</time>
      </trkpt>
      <trkpt lat="50.98554" lon="2.40303">
        <ele>2</ele>
        <time>2019-11-26T10:07:28.000Z</time>
      </trkpt>
      <trkpt lat="50.9856" lon="2.40299">
        <ele>2</ele>
        <time>2019-11-26T10:07:29.000Z</time>
      </trkpt>
      <trkpt lat="50.98571" lon="2.40295">
        <ele>1.8</ele>
        <time>2019-11-26T10:07:31.000Z</time>
      </trkpt>
      <trkpt lat="50.98577" lon="2.40292">
        <ele>1.6</ele>
        <time>2019-11-26T10:07:32.000Z</time>
      </trkpt>
      <trkpt lat="50.98623" lon="2.40234">
        <ele>1.5</ele>
        <time>2019-11-26T10:07:42.000Z</time>
      </trkpt>
      <trkpt lat="50.98666" lon="2.40176">
        <ele>1.3</ele>
        <time>2019-11-26T10:07:52.000Z</time>
      </trkpt>
      <trkpt lat="50.98711" lon="2.40118">
        <ele>1.5</ele>
        <time>2019-11-26T10:08:02.000Z</time>
      </trkpt>
      <trkpt lat="50.98756" lon="2.40061">
        <ele>1.5</ele>
        <time>2019-11-26T10:08:11.000Z</time>
      </trkpt>
      <trkpt lat="50.988" lon="2.40005">
        <ele>1.7</ele>
        <time>2019-11-26T10:08:20.000Z</time>
      </trkpt>
      <trkpt lat="50.98842" lon="2.3995">
        <ele>1.4</ele>
        <time>2019-11-26T10:08:29.000Z</time>
      </trkpt>
      <trkpt lat="50.98875" lon="2.39908">
        <ele>1.3</ele>
        <time>2019-11-26T10:08:36.000Z</time>
      </trkpt>
      <trkpt lat="50.98917" lon="2.39853">
        <ele>1</ele>
        <time>2019-11-26T10:08:45.000Z</time>
      </trkpt>
      <trkpt lat="50.98931" lon="2.39836">
        <ele>1</ele>
        <time>2019-11-26T10:08:48.000Z</time>
      </trkpt>
      <trkpt lat="50.98972" lon="2.39785">
        <ele>2</ele>
        <time>2019-11-26T10:08:57.000Z</time>
      </trkpt>
      <trkpt lat="50.99016" lon="2.39727">
        <ele>1.9</ele>
        <time>2019-11-26T10:09:06.000Z</time>
      </trkpt>
      <trkpt lat="50.99049" lon="2.39684">
        <ele>1.6</ele>
        <time>2019-11-26T10:09:13.000Z</time>
      </trkpt>
      <trkpt lat="50.99093" lon="2.39627">
        <ele>1.1</ele>
        <time>2019-11-26T10:09:23.000Z</time>
      </trkpt>
      <trkpt lat="50.99135" lon="2.39573">
        <ele>1.5</ele>
        <time>2019-11-26T10:09:32.000Z</time>
      </trkpt>
      <trkpt lat="50.99177" lon="2.39519">
        <ele>1.1</ele>
        <time>2019-11-26T10:09:41.000Z</time>
      </trkpt>
      <trkpt lat="50.99195" lon="2.39495">
        <ele>1.8</ele>
        <time>2019-11-26T10:09:45.000Z</time>
      </trkpt>
      <trkpt lat="50.99218" lon="2.39465">
        <ele>1.6</ele>
        <time>2019-11-26T10:09:50.000Z</time>
      </trkpt>
      <trkpt lat="50.99246" lon="2.39429">
        <ele>1.4</ele>
        <time>2019-11-26T10:09:56.000Z</time>
      </trkpt>
      <trkpt lat="50.99291" lon="2.39372">
        <ele>1.5</ele>
        <time>2019-11-26T10:10:06.000Z</time>
      </trkpt>
      <trkpt lat="50.99334" lon="2.39316">
        <ele>1</ele>
        <time>2019-11-26T10:10:16.000Z</time>
      </trkpt>
      <trkpt lat="50.99355" lon="2.39288">
        <ele>1</ele>
        <time>2019-11-26T10:10:21.000Z</time>
      </trkpt>
      <trkpt lat="50.99368" lon="2.39271">
        <ele>1</ele>
        <time>2019-11-26T10:10:24.000Z</time>
      </trkpt>
      <trkpt lat="50.99414" lon="2.39214">
        <ele>1</ele>
        <time>2019-11-26T10:10:34.000Z</time>
      </trkpt>
      <trkpt lat="50.99418" lon="2.39208">
        <ele>1</ele>
        <time>2019-11-26T10:10:35.000Z</time>
      </trkpt>
      <trkpt lat="50.99454" lon="2.39163">
        <ele>1</ele>
        <time>2019-11-26T10:10:43.000Z</time>
      </trkpt>
      <trkpt lat="50.99477" lon="2.39133">
        <ele>1</ele>
        <time>2019-11-26T10:10:48.000Z</time>
      </trkpt>
      <trkpt lat="50.99521" lon="2.39078">
        <ele>1</ele>
        <time>2019-11-26T10:10:57.000Z</time>
      </trkpt>
      <trkpt lat="50.99565" lon="2.39022">
        <ele>2</ele>
        <time>2019-11-26T10:11:06.000Z</time>
      </trkpt>
      <trkpt lat="50.99608" lon="2.38964">
        <ele>2</ele>
        <time>2019-11-26T10:11:15.000Z</time>
      </trkpt>
      <trkpt lat="50.99618" lon="2.38952">
        <ele>2</ele>
        <time>2019-11-26T10:11:17.000Z</time>
      </trkpt>
      <trkpt lat="50.99638" lon="2.38927">
        <ele>2</ele>
        <time>2019-11-26T10:11:21.000Z</time>
      </trkpt>
      <trkpt lat="50.9968" lon="2.38871">
        <ele>3</ele>
        <time>2019-11-26T10:11:30.000Z</time>
      </trkpt>
      <trkpt lat="50.99726" lon="2.38812">
        <ele>3</ele>
        <time>2019-11-26T10:11:39.000Z</time>
      </trkpt>
      <trkpt lat="50.99768" lon="2.38758">
        <ele>3</ele>
        <time>2019-11-26T10:11:47.000Z</time>
      </trkpt>
      <trkpt lat="50.99811" lon="2.38704">
        <ele>2</ele>
        <time>2019-11-26T10:11:55.000Z</time>
      </trkpt>
      <trkpt lat="50.99855" lon="2.38647">
        <ele>1</ele>
        <time>2019-11-26T10:12:03.000Z</time>
      </trkpt>
      <trkpt lat="50.99897" lon="2.38591">
        <ele>1</ele>
        <time>2019-11-26T10:12:11.000Z</time>
      </trkpt>
      <trkpt lat="50.99939" lon="2.38537">
        <ele>1</ele>
        <time>2019-11-26T10:12:19.000Z</time>
      </trkpt>
      <trkpt lat="50.99982" lon="2.38483">
        <ele>1</ele>
        <time>2019-11-26T10:12:27.000Z</time>
      </trkpt>
      <trkpt lat="51.0001" lon="2.38448">
        <ele>1</ele>
        <time>2019-11-26T10:12:32.000Z</time>
      </trkpt>
      <trkpt lat="51.00055" lon="2.38397">
        <ele>1</ele>
        <time>2019-11-26T10:12:40.000Z</time>
      </trkpt>
      <trkpt lat="51.00076" lon="2.38374">
        <ele>1</ele>
        <time>2019-11-26T10:12:44.000Z</time>
      </trkpt>
      <trkpt lat="51.00096" lon="2.3835">
        <ele>1</ele>
        <time>2019-11-26T10:12:48.000Z</time>
      </trkpt>
      <trkpt lat="51.00112" lon="2.38296">
        <ele>1</ele>
        <time>2019-11-26T10:12:55.000Z</time>
      </trkpt>
      <trkpt lat="51.00116" lon="2.38282">
        <ele>1</ele>
        <time>2019-11-26T10:12:58.000Z</time>
      </trkpt>
      <trkpt lat="51.00099" lon="2.38242">
        <ele>2</ele>
        <time>2019-11-26T10:13:06.000Z</time>
      </trkpt>
      <trkpt lat="51.00096" lon="2.38226">
        <ele>2</ele>
        <time>2019-11-26T10:13:08.000Z</time>
      </trkpt>
      <trkpt lat="51.00087" lon="2.38205">
        <ele>2</ele>
        <time>2019-11-26T10:13:11.000Z</time>
      </trkpt>
      <trkpt lat="51.0008" lon="2.38192">
        <ele>2</ele>
        <time>2019-11-26T10:13:13.000Z</time>
      </trkpt>
      <trkpt lat="51.0007" lon="2.38173">
        <ele>2</ele>
        <time>2019-11-26T10:13:16.000Z</time>
      </trkpt>
      <trkpt lat="51.0006" lon="2.38128">
        <ele>2</ele>
        <time>2019-11-26T10:13:22.000Z</time>
      </trkpt>
      <trkpt lat="51.00051" lon="2.38121">
        <ele>2</ele>
        <time>2019-11-26T10:13:24.000Z</time>
      </trkpt>
      <trkpt lat="51.00039" lon="2.38119">
        <ele>2</ele>
        <time>2019-11-26T10:13:27.000Z</time>
      </trkpt>
      <trkpt lat="51.0003" lon="2.38132">
        <ele>2</ele>
        <time>2019-11-26T10:13:30.000Z</time>
      </trkpt>
      <trkpt lat="51.0002" lon="2.38129">
        <ele>2</ele>
        <time>2019-11-26T10:13:33.000Z</time>
      </trkpt>
      <trkpt lat="51.00017" lon="2.38124">
        <ele>2</ele>
        <time>2019-11-26T10:13:34.000Z</time>
      </trkpt>
      <trkpt lat="50.99983" lon="2.38063">
        <ele>2</ele>
        <time>2019-11-26T10:13:43.000Z</time>
      </trkpt>
      <trkpt lat="50.99953" lon="2.37999">
        <ele>2</ele>
        <time>2019-11-26T10:13:52.000Z</time>
      </trkpt>
      <trkpt lat="50.99918" lon="2.37923">
        <ele>2</ele>
        <time>2019-11-26T10:14:02.000Z</time>
      </trkpt>
      <trkpt lat="50.99886" lon="2.37852">
        <ele>2</ele>
        <time>2019-11-26T10:14:11.000Z</time>
      </trkpt>
      <trkpt lat="50.99855" lon="2.37782">
        <ele>1</ele>
        <time>2019-11-26T10:14:20.000Z</time>
      </trkpt>
      <trkpt lat="50.9983" lon="2.37706">
        <ele>3.2</ele>
        <time>2019-11-26T10:14:29.000Z</time>
      </trkpt>
      <trkpt lat="50.9982" lon="2.37682">
        <ele>2.7</ele>
        <time>2019-11-26T10:14:32.000Z</time>
      </trkpt>
      <trkpt lat="50.99808" lon="2.37659">
        <ele>2.7</ele>
        <time>2019-11-26T10:14:36.000Z</time>
      </trkpt>
      <trkpt lat="50.99815" lon="2.37614">
        <ele>2.3</ele>
        <time>2019-11-26T10:14:42.000Z</time>
      </trkpt>
      <trkpt lat="50.99818" lon="2.37607">
        <ele>2.4</ele>
        <time>2019-11-26T10:14:43.000Z</time>
      </trkpt>
      <trkpt lat="50.99826" lon="2.37515">
        <ele>2</ele>
        <time>2019-11-26T10:14:54.000Z</time>
      </trkpt>
      <trkpt lat="50.99832" lon="2.37429">
        <ele>1</ele>
        <time>2019-11-26T10:15:03.000Z</time>
      </trkpt>
      <trkpt lat="50.99834" lon="2.37392">
        <ele>1</ele>
        <time>2019-11-26T10:15:07.000Z</time>
      </trkpt>
      <trkpt lat="50.99823" lon="2.37363">
        <ele>1</ele>
        <time>2019-11-26T10:15:11.000Z</time>
      </trkpt>
      <trkpt lat="50.99818" lon="2.37357">
        <ele>1</ele>
        <time>2019-11-26T10:15:13.000Z</time>
      </trkpt>
      <trkpt lat="50.99812" lon="2.3737">
        <ele>1</ele>
        <time>2019-11-26T10:15:17.000Z</time>
      </trkpt>
      <trkpt lat="50.99799" lon="2.37428">
        <ele>1</ele>
        <time>2019-11-26T10:15:24.000Z</time>
      </trkpt>
      <trkpt lat="50.99786" lon="2.3748">
        <ele>1</ele>
        <time>2019-11-26T10:15:30.000Z</time>
      </trkpt>
      <trkpt lat="50.99778" lon="2.37512">
        <ele>1.6</ele>
        <time>2019-11-26T10:15:34.000Z</time>
      </trkpt>
      <trkpt lat="50.99764" lon="2.37499">
        <ele>1</ele>
        <time>2019-11-26T10:15:40.000Z</time>
      </trkpt>
      <trkpt lat="50.99756" lon="2.37477">
        <ele>1</ele>
        <time>2019-11-26T10:15:43.000Z</time>
      </trkpt>
      <trkpt lat="50.99744" lon="2.37448">
        <ele>1</ele>
        <time>2019-11-26T10:15:47.000Z</time>
      </trkpt>
      <trkpt lat="50.99725" lon="2.37408">
        <ele>1</ele>
        <time>2019-11-26T10:15:53.000Z</time>
      </trkpt>
      <trkpt lat="50.99693" lon="2.37329">
        <ele>1</ele>
        <time>2019-11-26T10:16:04.000Z</time>
      </trkpt>
      <trkpt lat="50.99664" lon="2.37256">
        <ele>1.7</ele>
        <time>2019-11-26T10:16:14.000Z</time>
      </trkpt>
      <trkpt lat="50.99644" lon="2.37198">
        <ele>1.9</ele>
        <time>2019-11-26T10:16:22.000Z</time>
      </trkpt>
      <trkpt lat="50.99613" lon="2.37122">
        <ele>1</ele>
        <time>2019-11-26T10:16:32.000Z</time>
      </trkpt>
      <trkpt lat="50.99578" lon="2.3705">
        <ele>1</ele>
        <time>2019-11-26T10:16:42.000Z</time>
      </trkpt>
      <trkpt lat="50.99537" lon="2.36984">
        <ele>1</ele>
        <time>2019-11-26T10:16:52.000Z</time>
      </trkpt>
      <trkpt lat="50.99491" lon="2.36926">
        <ele>1</ele>
        <time>2019-11-26T10:17:02.000Z</time>
      </trkpt>
      <trkpt lat="50.99445" lon="2.36877">
        <ele>1</ele>
        <time>2019-11-26T10:17:11.000Z</time>
      </trkpt>
      <trkpt lat="50.99399" lon="2.36831">
        <ele>1.4</ele>
        <time>2019-11-26T10:17:20.000Z</time>
      </trkpt>
      <trkpt lat="50.99363" lon="2.36794">
        <ele>1.4</ele>
        <time>2019-11-26T10:17:27.000Z</time>
      </trkpt>
      <trkpt lat="50.99312" lon="2.36743">
        <ele>1.3</ele>
        <time>2019-11-26T10:17:37.000Z</time>
      </trkpt>
      <trkpt lat="50.99298" lon="2.36729">
        <ele>1.6</ele>
        <time>2019-11-26T10:17:40.000Z</time>
      </trkpt>
      <trkpt lat="50.99293" lon="2.36723">
        <ele>1.5</ele>
        <time>2019-11-26T10:17:41.000Z</time>
      </trkpt>
      <trkpt lat="50.99264" lon="2.36642">
        <ele>2</ele>
        <time>2019-11-26T10:17:51.000Z</time>
      </trkpt>
      <trkpt lat="50.99254" lon="2.36614">
        <ele>2</ele>
        <time>2019-11-26T10:17:55.000Z</time>
      </trkpt>
      <trkpt lat="50.99246" lon="2.36599">
        <ele>2</ele>
        <time>2019-11-26T10:17:58.000Z</time>
      </trkpt>
      <trkpt lat="50.99218" lon="2.36623">
        <ele>1.8</ele>
        <time>2019-11-26T10:18:05.000Z</time>
      </trkpt>
      <trkpt lat="50.99198" lon="2.36619">
        <ele>1.1</ele>
        <time>2019-11-26T10:18:09.000Z</time>
      </trkpt>
      <trkpt lat="50.99175" lon="2.36604">
        <ele>1.3</ele>
        <time>2019-11-26T10:18:14.000Z</time>
      </trkpt>
      <trkpt lat="50.99159" lon="2.36522">
        <ele>1</ele>
        <time>2019-11-26T10:18:25.000Z</time>
      </trkpt>
      <trkpt lat="50.99146" lon="2.36484">
        <ele>1</ele>
        <time>2019-11-26T10:18:30.000Z</time>
      </trkpt>
      <trkpt lat="50.9914" lon="2.36441">
        <ele>1</ele>
        <time>2019-11-26T10:18:35.000Z</time>
      </trkpt>
      <trkpt lat="50.9914" lon="2.36363">
        <ele>1</ele>
        <time>2019-11-26T10:18:44.000Z</time>
      </trkpt>
      <trkpt lat="50.99123" lon="2.36295">
        <ele>1</ele>
        <time>2019-11-26T10:18:52.000Z</time>
      </trkpt>
      <trkpt lat="50.99122" lon="2.36271">
        <ele>1</ele>
        <time>2019-11-26T10:18:55.000Z</time>
      </trkpt>
      <trkpt lat="50.99122" lon="2.36255">
        <ele>1</ele>
        <time>2019-11-26T10:18:57.000Z</time>
      </trkpt>
      <trkpt lat="50.99114" lon="2.36212">
        <ele>1.6</ele>
        <time>2019-11-26T10:19:02.000Z</time>
      </trkpt>
      <trkpt lat="50.99104" lon="2.36157">
        <ele>1</ele>
        <time>2019-11-26T10:19:08.000Z</time>
      </trkpt>
      <trkpt lat="50.99093" lon="2.36103">
        <ele>1.8</ele>
        <time>2019-11-26T10:19:14.000Z</time>
      </trkpt>
      <trkpt lat="50.99091" lon="2.36084">
        <ele>2</ele>
        <time>2019-11-26T10:19:16.000Z</time>
      </trkpt>
      <trkpt lat="50.99077" lon="2.36001">
        <ele>1.8</ele>
        <time>2019-11-26T10:19:25.000Z</time>
      </trkpt>
      <trkpt lat="50.99073" lon="2.35944">
        <ele>1</ele>
        <time>2019-11-26T10:19:31.000Z</time>
      </trkpt>
      <trkpt lat="50.9907" lon="2.35926">
        <ele>1</ele>
        <time>2019-11-26T10:19:33.000Z</time>
      </trkpt>
      <trkpt lat="50.99074" lon="2.35889">
        <ele>1</ele>
        <time>2019-11-26T10:19:37.000Z</time>
      </trkpt>
      <trkpt lat="50.99076" lon="2.35881">
        <ele>1.2</ele>
        <time>2019-11-26T10:19:38.000Z</time>
      </trkpt>
      <trkpt lat="50.99067" lon="2.3584">
        <ele>1.1</ele>
        <time>2019-11-26T10:19:43.000Z</time>
      </trkpt>
      <trkpt lat="50.9906" lon="2.35825">
        <ele>1</ele>
        <time>2019-11-26T10:19:45.000Z</time>
      </trkpt>
      <trkpt lat="50.99048" lon="2.35807">
        <ele>1</ele>
        <time>2019-11-26T10:19:48.000Z</time>
      </trkpt>
      <trkpt lat="50.99052" lon="2.35769">
        <ele>1.3</ele>
        <time>2019-11-26T10:19:53.000Z</time>
      </trkpt>
      <trkpt lat="50.99069" lon="2.35745">
        <ele>2</ele>
        <time>2019-11-26T10:20:00.000Z</time>
      </trkpt>
      <trkpt lat="50.99081" lon="2.35746">
        <ele>2</ele>
        <time>2019-11-26T10:20:02.000Z</time>
      </trkpt>
      <trkpt lat="50.99138" lon="2.35744">
        <ele>1</ele>
        <time>2019-11-26T10:20:11.000Z</time>
      </trkpt>
      <trkpt lat="50.99198" lon="2.35741">
        <ele>1.3</ele>
        <time>2019-11-26T10:20:20.000Z</time>
      </trkpt>
      <trkpt lat="50.99253" lon="2.3574">
        <ele>1.1</ele>
        <time>2019-11-26T10:20:28.000Z</time>
      </trkpt>
      <trkpt lat="50.99309" lon="2.35737">
        <ele>2</ele>
        <time>2019-11-26T10:20:36.000Z</time>
      </trkpt>
      <trkpt lat="50.99316" lon="2.35735">
        <ele>2</ele>
        <time>2019-11-26T10:20:37.000Z</time>
      </trkpt>
      <trkpt lat="50.99336" lon="2.35729">
        <ele>1</ele>
        <time>2019-11-26T10:20:40.000Z</time>
      </trkpt>
      <trkpt lat="50.99361" lon="2.35721">
        <ele>1</ele>
        <time>2019-11-26T10:20:44.000Z</time>
      </trkpt>
      <trkpt lat="50.99374" lon="2.35713">
        <ele>1</ele>
        <time>2019-11-26T10:20:46.000Z</time>
      </trkpt>
      <trkpt lat="50.99395" lon="2.35706">
        <ele>1</ele>
        <time>2019-11-26T10:20:49.000Z</time>
      </trkpt>
      <trkpt lat="50.9945" lon="2.35683">
        <ele>1</ele>
        <time>2019-11-26T10:20:57.000Z</time>
      </trkpt>
      <trkpt lat="50.99476" lon="2.35669">
        <ele>1</ele>
        <time>2019-11-26T10:21:01.000Z</time>
      </trkpt>
      <trkpt lat="50.99504" lon="2.35651">
        <ele>1</ele>
        <time>2019-11-26T10:21:06.000Z</time>
      </trkpt>
      <trkpt lat="50.99517" lon="2.35605">
        <ele>2</ele>
        <time>2019-11-26T10:21:16.000Z</time>
      </trkpt>
      <trkpt lat="50.99543" lon="2.35589">
        <ele>2</ele>
        <time>2019-11-26T10:21:21.000Z</time>
      </trkpt>
      <trkpt lat="50.99576" lon="2.35571">
        <ele>2</ele>
        <time>2019-11-26T10:21:27.000Z</time>
      </trkpt>
      <trkpt lat="50.99581" lon="2.35536">
        <ele>2</ele>
        <time>2019-11-26T10:21:32.000Z</time>
      </trkpt>
      <trkpt lat="50.99571" lon="2.3548">
        <ele>2</ele>
        <time>2019-11-26T10:21:38.000Z</time>
      </trkpt>
      <trkpt lat="50.9956" lon="2.35417">
        <ele>1.2</ele>
        <time>2019-11-26T10:21:45.000Z</time>
      </trkpt>
      <trkpt lat="50.99552" lon="2.35371">
        <ele>2</ele>
        <time>2019-11-26T10:21:50.000Z</time>
      </trkpt>
      <trkpt lat="50.99577" lon="2.35349">
        <ele>2</ele>
        <time>2019-11-26T10:21:56.000Z</time>
      </trkpt>
      <trkpt lat="50.99602" lon="2.35344">
        <ele>1</ele>
        <time>2019-11-26T10:22:00.000Z</time>
      </trkpt>
      <trkpt lat="50.99656" lon="2.35326">
        <ele>2</ele>
        <time>2019-11-26T10:22:09.000Z</time>
      </trkpt>
      <trkpt lat="50.99671" lon="2.35321">
        <ele>2</ele>
        <time>2019-11-26T10:22:12.000Z</time>
      </trkpt>
      <trkpt lat="50.99675" lon="2.35319">
        <ele>2</ele>
        <time>2019-11-26T10:22:13.000Z</time>
      </trkpt>
      <trkpt lat="50.99677" lon="2.35316">
        <ele>2</ele>
        <time>2019-11-26T10:22:14.000Z</time>
      </trkpt>
      <trkpt lat="50.99674" lon="2.35292">
        <ele>2</ele>
        <time>2019-11-26T10:22:18.000Z</time>
      </trkpt>
      <trkpt lat="50.99655" lon="2.35218">
        <ele>2</ele>
        <time>2019-11-26T10:22:27.000Z</time>
      </trkpt>
      <trkpt lat="50.9964" lon="2.3517">
        <ele>2</ele>
        <time>2019-11-26T10:22:34.000Z</time>
      </trkpt>
      <trkpt lat="50.99639" lon="2.35163">
        <ele>1</ele>
        <time>2019-11-26T10:22:36.000Z</time>
      </trkpt>
      <trkpt lat="50.99653" lon="2.35153">
        <ele>1</ele>
        <time>2019-11-26T10:22:43.000Z</time>
      </trkpt>
      <trkpt lat="50.99655" lon="2.35153">
        <ele>1</ele>
        <time>2019-11-26T10:22:44.000Z</time>
      </trkpt>
      <trkpt lat="50.99666" lon="2.35154">
        <ele>1</ele>
        <time>2019-11-26T10:22:48.000Z</time>
      </trkpt>
      <trkpt lat="50.99699" lon="2.35121">
        <ele>1</ele>
        <time>2019-11-26T10:23:02.000Z</time>
      </trkpt>
      <trkpt lat="50.99701" lon="2.35093">
        <ele>1</ele>
        <time>2019-11-26T10:23:06.000Z</time>
      </trkpt>
      <trkpt lat="50.99703" lon="2.35087">
        <ele>1</ele>
        <time>2019-11-26T10:23:08.000Z</time>
      </trkpt>
      <trkpt lat="50.99703" lon="2.3508">
        <ele>1</ele>
        <time>2019-11-26T10:23:11.000Z</time>
      </trkpt>
      <trkpt lat="50.99702" lon="2.34995">
        <ele>1</ele>
        <time>2019-11-26T10:23:28.000Z</time>
      </trkpt>
      <trkpt lat="50.99686" lon="2.34909">
        <ele>2</ele>
        <time>2019-11-26T10:23:43.000Z</time>
      </trkpt>
      <trkpt lat="50.99675" lon="2.34824">
        <ele>2</ele>
        <time>2019-11-26T10:23:59.000Z</time>
      </trkpt>
      <trkpt lat="50.9967" lon="2.34787">
        <ele>2</ele>
        <time>2019-11-26T10:24:05.000Z</time>
      </trkpt>
      <trkpt lat="50.99658" lon="2.34704">
        <ele>2</ele>
        <time>2019-11-26T10:24:22.000Z</time>
      </trkpt>
      <trkpt lat="50.99623" lon="2.34636">
        <ele>2</ele>
        <time>2019-11-26T10:24:36.000Z</time>
      </trkpt>
      <trkpt lat="50.99585" lon="2.34571">
        <ele>2</ele>
        <time>2019-11-26T10:24:50.000Z</time>
      </trkpt>
      <trkpt lat="50.99541" lon="2.34519">
        <ele>2</ele>
        <time>2019-11-26T10:25:04.000Z</time>
      </trkpt>
      <trkpt lat="50.99516" lon="2.34499">
        <ele>2</ele>
        <time>2019-11-26T10:25:10.000Z</time>
      </trkpt>
      <trkpt lat="50.99501" lon="2.34498">
        <ele>2</ele>
        <time>2019-11-26T10:25:13.000Z</time>
      </trkpt>
      <trkpt lat="50.99466" lon="2.34509">
        <ele>2</ele>
        <time>2019-11-26T10:25:20.000Z</time>
      </trkpt>
      <trkpt lat="50.99435" lon="2.3447">
        <ele>2</ele>
        <time>2019-11-26T10:25:28.000Z</time>
      </trkpt>
      <trkpt lat="50.99415" lon="2.34388">
        <ele>1</ele>
        <time>2019-11-26T10:25:37.000Z</time>
      </trkpt>
      <trkpt lat="50.99413" lon="2.34379">
        <ele>1</ele>
        <time>2019-11-26T10:25:38.000Z</time>
      </trkpt>
      <trkpt lat="50.99375" lon="2.34338">
        <ele>1</ele>
        <time>2019-11-26T10:25:46.000Z</time>
      </trkpt>
      <trkpt lat="50.9936" lon="2.34344">
        <ele>1</ele>
        <time>2019-11-26T10:25:49.000Z</time>
      </trkpt>
      <trkpt lat="50.99355" lon="2.34345">
        <ele>1</ele>
        <time>2019-11-26T10:25:50.000Z</time>
      </trkpt>
      <trkpt lat="50.99337" lon="2.34349">
        <ele>1</ele>
        <time>2019-11-26T10:25:55.000Z</time>
      </trkpt>
      <trkpt lat="50.99323" lon="2.34352">
        <ele>2</ele>
        <time>2019-11-26T10:25:58.000Z</time>
      </trkpt>
      <trkpt lat="50.99318" lon="2.34352">
        <ele>2</ele>
        <time>2019-11-26T10:25:59.000Z</time>
      </trkpt>
      <trkpt lat="50.99287" lon="2.34333">
        <ele>3</ele>
        <time>2019-11-26T10:26:05.000Z</time>
      </trkpt>
      <trkpt lat="50.99233" lon="2.34307">
        <ele>3</ele>
        <time>2019-11-26T10:26:15.000Z</time>
      </trkpt>
      <trkpt lat="50.99227" lon="2.34304">
        <ele>3</ele>
        <time>2019-11-26T10:26:16.000Z</time>
      </trkpt>
      <trkpt lat="50.99214" lon="2.34296">
        <ele>3</ele>
        <time>2019-11-26T10:26:19.000Z</time>
      </trkpt>
      <trkpt lat="50.99209" lon="2.34252">
        <ele>2</ele>
        <time>2019-11-26T10:26:26.000Z</time>
      </trkpt>
      <trkpt lat="50.9923" lon="2.34166">
        <ele>2</ele>
        <time>2019-11-26T10:26:37.000Z</time>
      </trkpt>
      <trkpt lat="50.99233" lon="2.34158">
        <ele>2</ele>
        <time>2019-11-26T10:26:38.000Z</time>
      </trkpt>
      <trkpt lat="50.99253" lon="2.34075">
        <ele>1</ele>
        <time>2019-11-26T10:26:47.000Z</time>
      </trkpt>
      <trkpt lat="50.99277" lon="2.33993">
        <ele>1</ele>
        <time>2019-11-26T10:26:56.000Z</time>
      </trkpt>
      <trkpt lat="50.99305" lon="2.33914">
        <ele>1</ele>
        <time>2019-11-26T10:27:05.000Z</time>
      </trkpt>
      <trkpt lat="50.99338" lon="2.33841">
        <ele>2.6</ele>
        <time>2019-11-26T10:27:14.000Z</time>
      </trkpt>
      <trkpt lat="50.99379" lon="2.33779">
        <ele>2</ele>
        <time>2019-11-26T10:27:23.000Z</time>
      </trkpt>
      <trkpt lat="50.99417" lon="2.33735">
        <ele>3</ele>
        <time>2019-11-26T10:27:30.000Z</time>
      </trkpt>
      <trkpt lat="50.99433" lon="2.33718">
        <ele>3</ele>
        <time>2019-11-26T10:27:33.000Z</time>
      </trkpt>
      <trkpt lat="50.99477" lon="2.3368">
        <ele>4</ele>
        <time>2019-11-26T10:27:41.000Z</time>
      </trkpt>
      <trkpt lat="50.99501" lon="2.33663">
        <ele>6</ele>
        <time>2019-11-26T10:27:45.000Z</time>
      </trkpt>
      <trkpt lat="50.99518" lon="2.33649">
        <ele>5</ele>
        <time>2019-11-26T10:27:48.000Z</time>
      </trkpt>
      <trkpt lat="50.99539" lon="2.33631">
        <ele>5</ele>
        <time>2019-11-26T10:27:52.000Z</time>
      </trkpt>
      <trkpt lat="50.99595" lon="2.33602">
        <ele>3</ele>
        <time>2019-11-26T10:28:02.000Z</time>
      </trkpt>
      <trkpt lat="50.99641" lon="2.33601">
        <ele>3</ele>
        <time>2019-11-26T10:28:12.000Z</time>
      </trkpt>
      <trkpt lat="50.99643" lon="2.33601">
        <ele>3</ele>
        <time>2019-11-26T10:28:13.000Z</time>
      </trkpt>
      <trkpt lat="50.99645" lon="2.33612">
        <ele>3</ele>
        <time>2019-11-26T10:28:18.000Z</time>
      </trkpt>
      <trkpt lat="50.99646" lon="2.33612">
        <ele>3</ele>
        <time>2019-11-26T10:28:20.000Z</time>
      </trkpt>
      <trkpt lat="50.99647" lon="2.33598">
        <ele>3</ele>
        <time>2019-11-26T10:32:41.000Z</time>
      </trkpt>
      <trkpt lat="50.99668" lon="2.33559">
        <ele>3</ele>
        <time>2019-11-26T10:32:52.000Z</time>
      </trkpt>
      <trkpt lat="50.99678" lon="2.33529">
        <ele>3</ele>
        <time>2019-11-26T10:32:59.000Z</time>
      </trkpt>
      <trkpt lat="50.99682" lon="2.33527">
        <ele>3</ele>
        <time>2019-11-26T10:33:00.000Z</time>
      </trkpt>
      <trkpt lat="50.99701" lon="2.33522">
        <ele>3</ele>
        <time>2019-11-26T10:33:04.000Z</time>
      </trkpt>
      <trkpt lat="50.99717" lon="2.3352">
        <ele>3</ele>
        <time>2019-11-26T10:33:07.000Z</time>
      </trkpt>
      <trkpt lat="50.99777" lon="2.33512">
        <ele>3</ele>
        <time>2019-11-26T10:33:17.000Z</time>
      </trkpt>
      <trkpt lat="50.99833" lon="2.33496">
        <ele>3</ele>
        <time>2019-11-26T10:33:26.000Z</time>
      </trkpt>
      <trkpt lat="50.9987" lon="2.33486">
        <ele>3</ele>
        <time>2019-11-26T10:33:32.000Z</time>
      </trkpt>
      <trkpt lat="50.99913" lon="2.33473">
        <ele>3</ele>
        <time>2019-11-26T10:33:39.000Z</time>
      </trkpt>
      <trkpt lat="50.99936" lon="2.33467">
        <ele>2</ele>
        <time>2019-11-26T10:33:43.000Z</time>
      </trkpt>
      <trkpt lat="50.99948" lon="2.3347">
        <ele>2</ele>
        <time>2019-11-26T10:33:45.000Z</time>
      </trkpt>
      <trkpt lat="50.99968" lon="2.33464">
        <ele>2</ele>
        <time>2019-11-26T10:33:49.000Z</time>
      </trkpt>
      <trkpt lat="50.99963" lon="2.33408">
        <ele>2</ele>
        <time>2019-11-26T10:33:55.000Z</time>
      </trkpt>
      <trkpt lat="50.99962" lon="2.3332">
        <ele>2</ele>
        <time>2019-11-26T10:34:03.000Z</time>
      </trkpt>
      <trkpt lat="50.99967" lon="2.33264">
        <ele>2</ele>
        <time>2019-11-26T10:34:08.000Z</time>
      </trkpt>
      <trkpt lat="50.99983" lon="2.33178">
        <ele>3</ele>
        <time>2019-11-26T10:34:16.000Z</time>
      </trkpt>
      <trkpt lat="51.00002" lon="2.33095">
        <ele>3</ele>
        <time>2019-11-26T10:34:24.000Z</time>
      </trkpt>
      <trkpt lat="51.0002" lon="2.33014">
        <ele>3</ele>
        <time>2019-11-26T10:34:32.000Z</time>
      </trkpt>
      <trkpt lat="51.00021" lon="2.32928">
        <ele>2</ele>
        <time>2019-11-26T10:34:40.000Z</time>
      </trkpt>
      <trkpt lat="51.00017" lon="2.32836">
        <ele>2</ele>
        <time>2019-11-26T10:34:49.000Z</time>
      </trkpt>
      <trkpt lat="51.00004" lon="2.32743">
        <ele>1</ele>
        <time>2019-11-26T10:34:58.000Z</time>
      </trkpt>
      <trkpt lat="50.99988" lon="2.3266">
        <ele>1</ele>
        <time>2019-11-26T10:35:06.000Z</time>
      </trkpt>
      <trkpt lat="50.99971" lon="2.32578">
        <ele>2</ele>
        <time>2019-11-26T10:35:14.000Z</time>
      </trkpt>
      <trkpt lat="50.9996" lon="2.32528">
        <ele>2</ele>
        <time>2019-11-26T10:35:19.000Z</time>
      </trkpt>
      <trkpt lat="50.9994" lon="2.32452">
        <ele>1</ele>
        <time>2019-11-26T10:35:27.000Z</time>
      </trkpt>
      <trkpt lat="50.99919" lon="2.32384">
        <ele>1</ele>
        <time>2019-11-26T10:35:34.000Z</time>
      </trkpt>
      <trkpt lat="50.99896" lon="2.32316">
        <ele>2.6</ele>
        <time>2019-11-26T10:35:41.000Z</time>
      </trkpt>
      <trkpt lat="50.99865" lon="2.32236">
        <ele>1</ele>
        <time>2019-11-26T10:35:50.000Z</time>
      </trkpt>
      <trkpt lat="50.9985" lon="2.32202">
        <ele>1</ele>
        <time>2019-11-26T10:35:54.000Z</time>
      </trkpt>
      <trkpt lat="50.99816" lon="2.3213">
        <ele>1</ele>
        <time>2019-11-26T10:36:03.000Z</time>
      </trkpt>
      <trkpt lat="50.99779" lon="2.32059">
        <ele>2</ele>
        <time>2019-11-26T10:36:12.000Z</time>
      </trkpt>
      <trkpt lat="50.99741" lon="2.31988">
        <ele>1</ele>
        <time>2019-11-26T10:36:21.000Z</time>
      </trkpt>
      <trkpt lat="50.99704" lon="2.31919">
        <ele>1</ele>
        <time>2019-11-26T10:36:30.000Z</time>
      </trkpt>
      <trkpt lat="50.99669" lon="2.31854">
        <ele>1</ele>
        <time>2019-11-26T10:36:39.000Z</time>
      </trkpt>
      <trkpt lat="50.99647" lon="2.31816">
        <ele>1</ele>
        <time>2019-11-26T10:36:47.000Z</time>
      </trkpt>
      <trkpt lat="50.99628" lon="2.31822">
        <ele>1</ele>
        <time>2019-11-26T10:36:51.000Z</time>
      </trkpt>
      <trkpt lat="50.99594" lon="2.31843">
        <ele>1</ele>
        <time>2019-11-26T10:36:57.000Z</time>
      </trkpt>
      <trkpt lat="50.99554" lon="2.31811">
        <ele>1</ele>
        <time>2019-11-26T10:37:05.000Z</time>
      </trkpt>
      <trkpt lat="50.99534" lon="2.31776">
        <ele>1</ele>
        <time>2019-11-26T10:37:10.000Z</time>
      </trkpt>
      <trkpt lat="50.99497" lon="2.31776">
        <ele>1</ele>
        <time>2019-11-26T10:37:17.000Z</time>
      </trkpt>
      <trkpt lat="50.99481" lon="2.31789">
        <ele>1</ele>
        <time>2019-11-26T10:37:20.000Z</time>
      </trkpt>
      <trkpt lat="50.99454" lon="2.31806">
        <ele>1</ele>
        <time>2019-11-26T10:37:25.000Z</time>
      </trkpt>
      <trkpt lat="50.99403" lon="2.31846">
        <ele>1</ele>
        <time>2019-11-26T10:37:35.000Z</time>
      </trkpt>
      <trkpt lat="50.9935" lon="2.31883">
        <ele>1</ele>
        <time>2019-11-26T10:37:45.000Z</time>
      </trkpt>
      <trkpt lat="50.99299" lon="2.31921">
        <ele>1</ele>
        <time>2019-11-26T10:37:55.000Z</time>
      </trkpt>
      <trkpt lat="50.99246" lon="2.31961">
        <ele>2</ele>
        <time>2019-11-26T10:38:05.000Z</time>
      </trkpt>
      <trkpt lat="50.99193" lon="2.31999">
        <ele>2</ele>
        <time>2019-11-26T10:38:15.000Z</time>
      </trkpt>
      <trkpt lat="50.99144" lon="2.32035">
        <ele>1.9</ele>
        <time>2019-11-26T10:38:24.000Z</time>
      </trkpt>
      <trkpt lat="50.99092" lon="2.32071">
        <ele>1.9</ele>
        <time>2019-11-26T10:38:33.000Z</time>
      </trkpt>
      <trkpt lat="50.99039" lon="2.32099">
        <ele>1.8</ele>
        <time>2019-11-26T10:38:42.000Z</time>
      </trkpt>
      <trkpt lat="50.98998" lon="2.32115">
        <ele>2</ele>
        <time>2019-11-26T10:38:49.000Z</time>
      </trkpt>
      <trkpt lat="50.9894" lon="2.32129">
        <ele>1.9</ele>
        <time>2019-11-26T10:38:59.000Z</time>
      </trkpt>
      <trkpt lat="50.98883" lon="2.32151">
        <ele>2</ele>
        <time>2019-11-26T10:39:09.000Z</time>
      </trkpt>
      <trkpt lat="50.9883" lon="2.32169">
        <ele>2</ele>
        <time>2019-11-26T10:39:18.000Z</time>
      </trkpt>
      <trkpt lat="50.98775" lon="2.32185">
        <ele>2</ele>
        <time>2019-11-26T10:39:27.000Z</time>
      </trkpt>
      <trkpt lat="50.98718" lon="2.32203">
        <ele>2</ele>
        <time>2019-11-26T10:39:37.000Z</time>
      </trkpt>
      <trkpt lat="50.98671" lon="2.32218">
        <ele>2</ele>
        <time>2019-11-26T10:39:45.000Z</time>
      </trkpt>
      <trkpt lat="50.98638" lon="2.32227">
        <ele>2</ele>
        <time>2019-11-26T10:39:51.000Z</time>
      </trkpt>
      <trkpt lat="50.9858" lon="2.32246">
        <ele>2</ele>
        <time>2019-11-26T10:40:01.000Z</time>
      </trkpt>
      <trkpt lat="50.98537" lon="2.32272">
        <ele>1</ele>
        <time>2019-11-26T10:40:09.000Z</time>
      </trkpt>
      <trkpt lat="50.98521" lon="2.32255">
        <ele>1</ele>
        <time>2019-11-26T10:40:13.000Z</time>
      </trkpt>
      <trkpt lat="50.98513" lon="2.32241">
        <ele>2</ele>
        <time>2019-11-26T10:40:15.000Z</time>
      </trkpt>
      <trkpt lat="50.98501" lon="2.32223">
        <ele>2</ele>
        <time>2019-11-26T10:40:18.000Z</time>
      </trkpt>
      <trkpt lat="50.98475" lon="2.32208">
        <ele>2</ele>
        <time>2019-11-26T10:40:23.000Z</time>
      </trkpt>
      <trkpt lat="50.98419" lon="2.32194">
        <ele>2</ele>
        <time>2019-11-26T10:40:33.000Z</time>
      </trkpt>
      <trkpt lat="50.98361" lon="2.32178">
        <ele>2</ele>
        <time>2019-11-26T10:40:44.000Z</time>
      </trkpt>
      <trkpt lat="50.98356" lon="2.32176">
        <ele>2</ele>
        <time>2019-11-26T10:40:45.000Z</time>
      </trkpt>
      <trkpt lat="50.98324" lon="2.32166">
        <ele>2</ele>
        <time>2019-11-26T10:40:51.000Z</time>
      </trkpt>
      <trkpt lat="50.98299" lon="2.32175">
        <ele>1</ele>
        <time>2019-11-26T10:40:56.000Z</time>
      </trkpt>
      <trkpt lat="50.98245" lon="2.32213">
        <ele>1</ele>
        <time>2019-11-26T10:41:07.000Z</time>
      </trkpt>
      <trkpt lat="50.98191" lon="2.32246">
        <ele>1</ele>
        <time>2019-11-26T10:41:18.000Z</time>
      </trkpt>
      <trkpt lat="50.98139" lon="2.32276">
        <ele>2</ele>
        <time>2019-11-26T10:41:28.000Z</time>
      </trkpt>
      <trkpt lat="50.98095" lon="2.32305">
        <ele>2</ele>
        <time>2019-11-26T10:41:36.000Z</time>
      </trkpt>
      <trkpt lat="50.9804" lon="2.32341">
        <ele>2</ele>
        <time>2019-11-26T10:41:46.000Z</time>
      </trkpt>
      <trkpt lat="50.98007" lon="2.32361">
        <ele>2</ele>
        <time>2019-11-26T10:41:52.000Z</time>
      </trkpt>
      <trkpt lat="50.97955" lon="2.32371">
        <ele>2</ele>
        <time>2019-11-26T10:42:01.000Z</time>
      </trkpt>
      <trkpt lat="50.97902" lon="2.32406">
        <ele>2</ele>
        <time>2019-11-26T10:42:11.000Z</time>
      </trkpt>
      <trkpt lat="50.97854" lon="2.32445">
        <ele>1</ele>
        <time>2019-11-26T10:42:20.000Z</time>
      </trkpt>
      <trkpt lat="50.97843" lon="2.32454">
        <ele>1</ele>
        <time>2019-11-26T10:42:22.000Z</time>
      </trkpt>
      <trkpt lat="50.9779" lon="2.32497">
        <ele>1.5</ele>
        <time>2019-11-26T10:42:32.000Z</time>
      </trkpt>
      <trkpt lat="50.97746" lon="2.32531">
        <ele>2</ele>
        <time>2019-11-26T10:42:40.000Z</time>
      </trkpt>
      <trkpt lat="50.97692" lon="2.32566">
        <ele>1.4</ele>
        <time>2019-11-26T10:42:50.000Z</time>
      </trkpt>
      <trkpt lat="50.97651" lon="2.32592">
        <ele>2</ele>
        <time>2019-11-26T10:42:58.000Z</time>
      </trkpt>
      <trkpt lat="50.97599" lon="2.32625">
        <ele>2</ele>
        <time>2019-11-26T10:43:08.000Z</time>
      </trkpt>
      <trkpt lat="50.97546" lon="2.32654">
        <ele>2</ele>
        <time>2019-11-26T10:43:18.000Z</time>
      </trkpt>
      <trkpt lat="50.97523" lon="2.32669">
        <ele>1.9</ele>
        <time>2019-11-26T10:43:23.000Z</time>
      </trkpt>
      <trkpt lat="50.97509" lon="2.32679">
        <ele>1.8</ele>
        <time>2019-11-26T10:43:27.000Z</time>
      </trkpt>
      <trkpt lat="50.97501" lon="2.3268">
        <ele>1.5</ele>
        <time>2019-11-26T10:43:29.000Z</time>
      </trkpt>
      <trkpt lat="50.97497" lon="2.32676">
        <ele>1.4</ele>
        <time>2019-11-26T10:43:30.000Z</time>
      </trkpt>
      <trkpt lat="50.97492" lon="2.32663">
        <ele>1.4</ele>
        <time>2019-11-26T10:43:32.000Z</time>
      </trkpt>
      <trkpt lat="50.9747" lon="2.32605">
        <ele>1.8</ele>
        <time>2019-11-26T10:43:39.000Z</time>
      </trkpt>
      <trkpt lat="50.9744" lon="2.32532">
        <ele>1.3</ele>
        <time>2019-11-26T10:43:48.000Z</time>
      </trkpt>
      <trkpt lat="50.97418" lon="2.32474">
        <ele>2</ele>
        <time>2019-11-26T10:43:55.000Z</time>
      </trkpt>
      <trkpt lat="50.97414" lon="2.32467">
        <ele>1</ele>
        <time>2019-11-26T10:43:56.000Z</time>
      </trkpt>
      <trkpt lat="50.97383" lon="2.32462">
        <ele>1</ele>
        <time>2019-11-26T10:44:02.000Z</time>
      </trkpt>
      <trkpt lat="50.97326" lon="2.32474">
        <ele>1</ele>
        <time>2019-11-26T10:44:12.000Z</time>
      </trkpt>
      <trkpt lat="50.97305" lon="2.32484">
        <ele>1</ele>
        <time>2019-11-26T10:44:16.000Z</time>
      </trkpt>
      <trkpt lat="50.97274" lon="2.32508">
        <ele>1</ele>
        <time>2019-11-26T10:44:22.000Z</time>
      </trkpt>
      <trkpt lat="50.97241" lon="2.32521">
        <ele>1</ele>
        <time>2019-11-26T10:44:28.000Z</time>
      </trkpt>
      <trkpt lat="50.97223" lon="2.32482">
        <ele>1</ele>
        <time>2019-11-26T10:44:34.000Z</time>
      </trkpt>
      <trkpt lat="50.97209" lon="2.32399">
        <ele>2</ele>
        <time>2019-11-26T10:44:43.000Z</time>
      </trkpt>
      <trkpt lat="50.97193" lon="2.32315">
        <ele>2</ele>
        <time>2019-11-26T10:44:52.000Z</time>
      </trkpt>
      <trkpt lat="50.97191" lon="2.32307">
        <ele>2</ele>
        <time>2019-11-26T10:44:53.000Z</time>
      </trkpt>
      <trkpt lat="50.97158" lon="2.32293">
        <ele>2</ele>
        <time>2019-11-26T10:45:00.000Z</time>
      </trkpt>
      <trkpt lat="50.97153" lon="2.32295">
        <ele>2</ele>
        <time>2019-11-26T10:45:01.000Z</time>
      </trkpt>
      <trkpt lat="50.97139" lon="2.323">
        <ele>2</ele>
        <time>2019-11-26T10:45:04.000Z</time>
      </trkpt>
      <trkpt lat="50.97126" lon="2.32266">
        <ele>2</ele>
        <time>2019-11-26T10:45:10.000Z</time>
      </trkpt>
      <trkpt lat="50.97125" lon="2.32258">
        <ele>2</ele>
        <time>2019-11-26T10:45:11.000Z</time>
      </trkpt>
      <trkpt lat="50.97117" lon="2.32218">
        <ele>2</ele>
        <time>2019-11-26T10:45:16.000Z</time>
      </trkpt>
      <trkpt lat="50.97112" lon="2.32187">
        <ele>2</ele>
        <time>2019-11-26T10:45:20.000Z</time>
      </trkpt>
    </trkseg>
  </trk>
</gpx>